Provisional Data: Pine Creek near Telescope, PA


Please select a monitoring station.
Please select start date.
Please select start date.

Toggle Unit: C/F Toggle Unit: C/F
Sample Time Temperature (C) Temperature (F) Specific Conductivity (mS/cm) pH   Turbidity (NTU+) DO (mg/L)
10/17/2022 12:00:00 AM 8.73 47.714 0.115 6.85 0.52 9.34
10/17/2022 12:15:00 AM 8.71 47.678 0.111 6.78 2.32 9.33
10/17/2022 12:30:00 AM 8.71 47.678 0.115 6.8 0.52 9.32
10/17/2022 12:45:00 AM 8.71 47.678 0.115 6.78 0.53 9.31
10/17/2022 1:00:00 AM 8.69 47.642 0.115 6.83 0.5 9.32
10/17/2022 1:15:00 AM 8.68 47.624 0.112 6.81 2.69 9.32
10/17/2022 1:30:00 AM 8.67 47.606 0.113 6.75 2.47 9.34
10/17/2022 1:45:00 AM 8.66 47.588 0.115 6.79 0.51 9.32
10/17/2022 2:00:00 AM 8.65 47.57 0.115 6.79 0.56 9.32
10/17/2022 2:15:00 AM 8.63 47.534 0.115 6.86 0.57 9.35
10/17/2022 2:30:00 AM 8.61 47.498 0.115 6.75 0.51 9.35
10/17/2022 2:45:00 AM 8.59 47.462 0.115 6.9 0.49 9.37
10/17/2022 3:00:00 AM 8.58 47.444 0.115 6.78 0.52 9.36
10/17/2022 3:15:00 AM 8.56 47.408 0.113 6.77 2.5 9.37
10/17/2022 3:30:00 AM 8.54 47.372 0.115 6.81 0.57 9.37
10/17/2022 3:45:00 AM 8.52 47.336 0.116 6.79 0.49 9.38
10/17/2022 4:00:00 AM 8.51 47.318 0.116 6.84 0.52 9.38
10/17/2022 4:15:00 AM 8.48 47.264 0.116 6.87 0.53 9.4
10/17/2022 4:30:00 AM 8.44 47.192 0.116 6.86 0.5 9.41
10/17/2022 4:45:00 AM 8.42 47.156 0.113 6.75 2.4 9.41
10/17/2022 5:00:00 AM 8.4 47.12 0.116 6.79 0.5 9.41
10/17/2022 5:15:00 AM 8.36 47.048 0.116 6.76 0.54 9.44
10/17/2022 5:30:00 AM 8.34 47.012 0.116 6.79 0.52 9.44
10/17/2022 5:45:00 AM 8.33 46.994 0.116 6.93 0.54 9.44
10/17/2022 6:00:00 AM 8.31 46.958 0.112 6.74 2.38 9.44
10/17/2022 6:15:00 AM 8.29 46.922 0.116 6.77 0.52 9.43
10/17/2022 6:30:00 AM 8.25 46.85 0.115 6.82 2.37 9.45
10/17/2022 6:45:00 AM 8.23 46.814 0.116 6.76 0.63 9.46
10/17/2022 7:00:00 AM 8.21 46.778 0.116 6.97 0.63 9.47
10/17/2022 7:15:00 AM 8.19 46.742 0.116 6.79 0.51 9.48
10/17/2022 7:30:00 AM 8.18 46.724 0.116 6.82 0.56 9.49
10/17/2022 7:45:00 AM 8.18 46.724 0.113 6.84 2.52 9.5
10/17/2022 8:00:00 AM 8.17 46.706 0.116 6.8 0.52 9.51
10/17/2022 8:15:00 AM 8.16 46.688 0.116 6.98 0.54 9.54
10/17/2022 8:30:00 AM 8.16 46.688 0.112 6.91 2.48 9.57
10/17/2022 8:45:00 AM 8.17 46.706 0.116 6.77 0.52 9.59
10/17/2022 9:00:00 AM 8.15 46.67 0.116 6.88 0.51 9.62
10/17/2022 9:15:00 AM 8.15 46.67 0.116 6.79 0.5 9.64
10/17/2022 9:30:00 AM 8.18 46.724 0.116 6.8 0.55 9.74
10/17/2022 9:45:00 AM 8.16 46.688 0.116 6.89 0.48 9.71
10/17/2022 10:00:00 AM 8.15 46.67 0.116 6.8 0.5 9.73
10/17/2022 10:15:00 AM 8.16 46.688 0.116 6.81 0.53 9.77
10/17/2022 10:30:00 AM 8.15 46.67 0.116 6.85 0.55 9.82
10/17/2022 10:45:00 AM 8.15 46.67 0.116 6.81 0.55 9.87
10/17/2022 11:00:00 AM 8.16 46.688 0.116 6.85 0.55 9.95
10/17/2022 11:15:00 AM 8.18 46.724 0.113 7.01 2.53 10.01
10/17/2022 11:30:00 AM 8.21 46.778 0.115 6.8 0.53 10.14
10/17/2022 11:45:00 AM 8.2 46.76 0.115 6.82 0.49 10.13
10/17/2022 12:00:00 PM 8.17 46.706 0.112 6.93 2.65 10.06
10/17/2022 12:15:00 PM 8.16 46.688 0.113 6.75 2.6 10.08
10/17/2022 12:30:00 PM 8.14 46.652 0.111 7.04 2.52 10.19
10/17/2022 12:45:00 PM 8.24 46.832 0.112 6.9 2.64 10.26
10/17/2022 1:00:00 PM 8.27 46.886 0.115 6.85 0.5 10.35
10/17/2022 1:15:00 PM 8.23 46.814 0.114 6.99 0.53 10.37
10/17/2022 1:30:00 PM 8.31 46.958 0.114 6.9 0.54 10.41
10/17/2022 1:45:00 PM 8.36 47.048 0.114 7.03 0.49 10.45
10/17/2022 2:00:00 PM 8.33 46.994 0.114 6.91 0.53 10.44
10/17/2022 2:15:00 PM 8.36 47.048 0.114 6.84 0.54 10.52
10/17/2022 2:30:00 PM 8.35 47.03 0.114 7.02 0.5 10.52
10/17/2022 2:45:00 PM 8.32 46.976 0.114 7.01 0.47 10.55
10/17/2022 3:00:00 PM 8.33 46.994 0.111 7.05 2.56 10.58
10/17/2022 3:15:00 PM 8.32 46.976 0.113 6.81 0.57 10.55
10/17/2022 3:30:00 PM 8.3 46.94 0.113 6.88 0.55 10.6
10/17/2022 3:45:00 PM 8.3 46.94 0.113 6.85 0.51 10.61
10/17/2022 4:00:00 PM 8.3 46.94 0.113 7.02 0.53 10.57
10/17/2022 4:15:00 PM 8.28 46.904 0.113 6.83 0.55 10.59
10/17/2022 4:30:00 PM 8.28 46.904 0.113 6.87 0.5 10.56
10/17/2022 4:45:00 PM 8.29 46.922 0.111 7.04 2.49 10.52
10/17/2022 5:00:00 PM 8.29 46.922 0.113 6.81 0.53 10.48
10/17/2022 5:15:00 PM 8.31 46.958 0.113 6.98 0.5 10.51
10/17/2022 5:30:00 PM 8.33 46.994 0.113 7.01 0.51 10.47
10/17/2022 5:45:00 PM 8.32 46.976 0.113 6.89 0.53 10.41
10/17/2022 6:00:00 PM 8.3 46.94 0.113 6.98 0.6 10.37
10/17/2022 6:15:00 PM 8.3 46.94 0.113 6.94 0.59 10.32
10/17/2022 6:30:00 PM 8.31 46.958 0.113 6.85 0.52 10.28
10/17/2022 6:45:00 PM 8.31 46.958 0.113 6.83 0.64 10.22
10/17/2022 7:00:00 PM 8.31 46.958 0.113 6.85 0.55 10.19
10/17/2022 7:15:00 PM 8.31 46.958 0.11 7.05 2.59 10.12
10/17/2022 7:30:00 PM 8.31 46.958 0.113 6.82 0.52 10.06
10/17/2022 7:45:00 PM 8.3 46.94 0.114 6.86 0.53 10
10/17/2022 8:00:00 PM 8.3 46.94 0.114 6.8 0.55 9.94
10/17/2022 8:15:00 PM 8.29 46.922 0.114 6.88 0.56 9.9
10/17/2022 8:30:00 PM 8.28 46.904 0.114 7 0.57 9.85
10/17/2022 8:45:00 PM 8.29 46.922 0.114 6.8 0.57 9.79
10/17/2022 9:00:00 PM 8.27 46.886 0.111 7.04 2.52 9.76
10/17/2022 9:15:00 PM 8.27 46.886 0.114 6.85 0.59 9.71
10/17/2022 9:30:00 PM 8.27 46.886 0.111 7.04 2.67 9.68
10/17/2022 9:45:00 PM 8.25 46.85 0.115 6.8 0.6 9.66
10/17/2022 10:00:00 PM 8.24 46.832 0.115 6.98 0.57 9.65
10/17/2022 10:15:00 PM 8.22 46.796 0.115 6.83 0.53 9.62
10/17/2022 10:30:00 PM 8.21 46.778 0.115 6.99 0.56 9.62
10/17/2022 10:45:00 PM 8.19 46.742 0.115 6.81 0.55 9.61
10/17/2022 11:00:00 PM 8.17 46.706 0.115 6.89 0.51 9.6
10/17/2022 11:15:00 PM 8.15 46.67 0.115 6.95 0.49 9.58
10/17/2022 11:30:00 PM 8.13 46.634 0.115 6.96 0.53 9.59
10/17/2022 11:45:00 PM 8.1 46.58 0.115 7 0.55 9.58
10/18/2022 12:00:00 AM 8.08 46.544 0.115 6.76 0.48 9.58
10/18/2022 12:15:00 AM 8.05 46.49 0.111 6.78 2.83 9.59
10/18/2022 12:30:00 AM 8.02 46.436 0.115 6.8 0.52 9.6
10/18/2022 12:45:00 AM 7.99 46.382 0.115 7.02 0.5 9.61
10/18/2022 1:00:00 AM 7.98 46.364 0.115 6.82 0.52 9.59
10/18/2022 1:15:00 AM 7.94 46.292 0.115 6.9 0.54 9.61
10/18/2022 1:30:00 AM 7.92 46.256 0.115 6.8 0.54 9.61
10/18/2022 1:45:00 AM 7.9 46.22 0.115 6.99 0.54 9.6
10/18/2022 2:00:00 AM 7.87 46.166 0.115 6.91 0.56 9.63
10/18/2022 2:15:00 AM 7.83 46.094 0.115 7.01 0.54 9.65
10/18/2022 2:30:00 AM 7.8 46.04 0.115 6.76 0.57 9.67
10/18/2022 2:45:00 AM 7.77 45.986 0.115 6.79 0.5 9.67
10/18/2022 3:00:00 AM 7.72 45.896 0.115 6.81 0.55 9.69
10/18/2022 3:15:00 AM 7.68 45.824 0.115 6.79 0.56 9.7
10/18/2022 3:30:00 AM 7.64 45.752 0.115 6.94 0.56 9.7
10/18/2022 3:45:00 AM 7.61 45.698 0.113 6.93 2.81 9.72
10/18/2022 4:00:00 AM 7.58 45.644 0.115 6.81 0.55 9.73
10/18/2022 4:15:00 AM 7.52 45.536 0.115 6.94 0.54 9.77
10/18/2022 4:30:00 AM 7.48 45.464 0.112 6.83 2.6 9.77
10/18/2022 4:45:00 AM 7.44 45.392 0.112 7.02 2.82 9.78
10/18/2022 5:00:00 AM 7.4 45.32 0.112 7.02 2.93 9.8
10/18/2022 5:15:00 AM 7.36 45.248 0.116 7 0.52 9.82
10/18/2022 5:30:00 AM 7.32 45.176 0.116 6.92 0.55 9.83
10/18/2022 5:45:00 AM 7.29 45.122 0.116 6.78 0.66 9.83
10/18/2022 6:00:00 AM 7.27 45.086 0.116 6.83 0.53 9.85
10/18/2022 6:15:00 AM 7.24 45.032 0.116 6.95 0.51 9.87
10/18/2022 6:30:00 AM 7.22 44.996 0.116 7 0.53 9.87
10/18/2022 6:45:00 AM 7.19 44.942 0.116 6.94 0.55 9.89
10/18/2022 7:00:00 AM 7.15 44.87 0.116 6.78 0.56 9.9
10/18/2022 7:15:00 AM 7.14 44.852 0.116 6.77 0.53 9.91
10/18/2022 7:30:00 AM 7.13 44.834 0.116 6.91 0.57 9.92
10/18/2022 7:45:00 AM 7.11 44.798 0.116 6.76 0.52 9.96
10/18/2022 8:00:00 AM 7.08 44.744 0.116 6.97 0.53 9.97
10/18/2022 8:15:00 AM 7.06 44.708 0.116 6.74 0.49 9.99
10/18/2022 8:30:00 AM 7.03 44.654 0.116 6.99 0.51 10.02
10/18/2022 8:45:00 AM 7.02 44.636 0.116 6.94 0.48 10.05
10/18/2022 9:00:00 AM 6.99 44.582 0.112 6.8 2.6 10.09
10/18/2022 9:15:00 AM 6.99 44.582 0.112 6.96 2.8 10.13
10/18/2022 9:30:00 AM 6.95 44.51 0.112 6.85 2.61 10.17
10/18/2022 9:45:00 AM 6.92 44.456 0.113 6.77 2.61 10.16
10/18/2022 10:00:00 AM 6.91 44.438 0.116 6.81 0.52 10.22
10/18/2022 10:15:00 AM 6.89 44.402 0.116 6.86 0.54 10.31
10/18/2022 10:30:00 AM 6.9 44.42 0.115 6.81 0.58 10.33
10/18/2022 10:45:00 AM 6.88 44.384 0.115 6.82 0.54 10.45
10/18/2022 11:00:00 AM 6.92 44.456 0.115 6.94 0.54 10.55
10/18/2022 11:15:00 AM 6.95 44.51 0.115 6.78 0.56 10.61
10/18/2022 11:30:00 AM 6.97 44.546 0.115 6.98 0.52 10.68
10/18/2022 11:45:00 AM 6.98 44.564 0.112 6.75 2.65 10.71
10/18/2022 12:00:00 PM 6.96 44.528 0.111 6.84 2.36 10.75
10/18/2022 12:15:00 PM 6.95 44.51 0.111 6.76 2.58 10.79
10/18/2022 12:30:00 PM 6.98 44.564 0.111 6.8 2.65 10.88
10/18/2022 12:45:00 PM 6.97 44.546 0.111 7.05 2.48 10.96
10/18/2022 1:00:00 PM 7 44.6 0.114 6.8 0.53 10.98
10/18/2022 1:15:00 PM 6.96 44.528 0.11 6.78 2.48 11.08
10/18/2022 1:30:00 PM 7.05 44.69 0.113 6.85 0.49 11.11
10/18/2022 1:45:00 PM 7.02 44.636 0.11 6.91 2.76 11.15
10/18/2022 2:00:00 PM 6.96 44.528 0.113 6.83 0.58 11.14
10/18/2022 2:15:00 PM 6.98 44.564 0.11 6.84 2.68 11.14
10/18/2022 2:30:00 PM 7.03 44.654 0.113 7.05 0.6 11.22
10/18/2022 2:45:00 PM 7.03 44.654 0.113 6.81 0.52 11.23
10/18/2022 3:00:00 PM 7.03 44.654 0.109 6.85 2.56 11.26
10/18/2022 3:15:00 PM 7.04 44.672 0.109 7.04 2.89 11.25
10/18/2022 3:30:00 PM 7.01 44.618 0.109 6.88 2.55 11.14
10/18/2022 3:45:00 PM 7.02 44.636 0.109 6.85 2.78 11.17
10/18/2022 4:00:00 PM 7.02 44.636 0.109 7.05 2.77 11.22
10/18/2022 4:15:00 PM 7.04 44.672 0.109 7.02 2.62 11.14
10/18/2022 4:30:00 PM 7.05 44.69 0.109 6.88 2.48 11.18
10/18/2022 4:45:00 PM 7.07 44.726 0.108 7.07 2.63 11.12
10/18/2022 5:00:00 PM 7.08 44.744 0.112 6.92 0.53 11.06
10/18/2022 5:15:00 PM 7.07 44.726 0.112 6.85 0.52 11.03
10/18/2022 5:30:00 PM 7.09 44.762 0.109 6.87 2.85 10.96
10/18/2022 5:45:00 PM 7.1 44.78 0.109 7.04 2.61 10.95
10/18/2022 6:00:00 PM 7.11 44.798 0.112 7.04 0.56 10.91
10/18/2022 6:15:00 PM 7.14 44.852 0.112 7.04 0.5 10.85
10/18/2022 6:30:00 PM 7.15 44.87 0.112 6.88 0.55 10.79
10/18/2022 6:45:00 PM 7.17 44.906 0.112 6.83 0.52 10.72
10/18/2022 7:00:00 PM 7.18 44.924 0.113 7.03 0.54 10.67
10/18/2022 7:15:00 PM 7.19 44.942 0.113 6.83 0.52 10.61
10/18/2022 7:30:00 PM 7.21 44.978 0.113 7.06 0.56 10.55
10/18/2022 7:45:00 PM 7.23 45.014 0.113 7 0.53 10.49
10/18/2022 8:00:00 PM 7.24 45.032 0.113 6.85 0.59 10.43
10/18/2022 8:15:00 PM 7.25 45.05 0.112 7.06 2.66 10.37
10/18/2022 8:30:00 PM 7.24 45.032 0.113 6.79 0.52 10.33
10/18/2022 8:45:00 PM 7.23 45.014 0.114 7.02 0.53 10.28
10/18/2022 9:00:00 PM 7.25 45.05 0.114 7.04 0.55 10.24
10/18/2022 9:15:00 PM 7.26 45.068 0.114 6.82 0.58 10.2
10/18/2022 9:30:00 PM 7.26 45.068 0.114 6.85 0.52 10.18
10/18/2022 9:45:00 PM 7.26 45.068 0.114 6.84 0.57 10.14
10/18/2022 10:00:00 PM 7.25 45.05 0.114 7.02 0.54 10.12
10/18/2022 10:15:00 PM 7.25 45.05 0.114 6.91 0.54 10.11
10/18/2022 10:30:00 PM 7.25 45.05 0.114 6.94 0.51 10.08
10/18/2022 10:45:00 PM 7.26 45.068 0.114 6.87 0.5 10.07
10/18/2022 11:00:00 PM 7.26 45.068 0.114 6.89 0.5 10.05
10/18/2022 11:15:00 PM 7.26 45.068 0.114 6.85 0.52 10.05
10/18/2022 11:30:00 PM 7.25 45.05 0.114 7.01 0.54 10.04
10/18/2022 11:45:00 PM 7.24 45.032 0.114 6.81 0.57 10.04
10/19/2022 12:00:00 AM 7.23 45.014 0.114 6.86 0.46 10.03
10/19/2022 12:15:00 AM 7.22 44.996 0.115 6.85 0.53 10.04
10/19/2022 12:30:00 AM 7.2 44.96 0.115 6.84 0.53 10.04
10/19/2022 12:45:00 AM 7.19 44.942 0.115 6.94 0.53 10.03
10/19/2022 1:00:00 AM 7.18 44.924 0.115 7.02 0.54 10.02
10/19/2022 1:15:00 AM 7.18 44.924 0.115 6.79 0.52 10.01
10/19/2022 1:30:00 AM 7.16 44.888 0.115 6.83 0.59 10.02
10/19/2022 1:45:00 AM 7.14 44.852 0.115 6.99 0.5 10.02
10/19/2022 2:00:00 AM 7.13 44.834 0.115 6.86 0.52 10.03
10/19/2022 2:15:00 AM 7.11 44.798 0.115 7.03 0.52 10.02
10/19/2022 2:30:00 AM 7.09 44.762 0.115 6.82 0.54 10.03
10/19/2022 2:45:00 AM 7.08 44.744 0.115 6.9 0.55 10.02
10/19/2022 3:00:00 AM 7.06 44.708 0.112 6.87 2.74 10.03
10/19/2022 3:15:00 AM 7.04 44.672 0.115 6.82 0.52 10.04
10/19/2022 3:30:00 AM 7.03 44.654 0.115 7.04 0.55 10.02
10/19/2022 3:45:00 AM 7 44.6 0.115 7.01 0.54 10.04
10/19/2022 4:00:00 AM 6.99 44.582 0.115 6.98 0.53 10.03
10/19/2022 4:15:00 AM 6.99 44.582 0.111 7.03 2.37 10.03
10/19/2022 4:30:00 AM 6.96 44.528 0.111 6.81 2.56 10.03
10/19/2022 4:45:00 AM 6.94 44.492 0.113 6.76 2.54 10.05
10/19/2022 5:00:00 AM 6.93 44.474 0.113 7.06 2.71 10.04
10/19/2022 5:15:00 AM 6.92 44.456 0.113 6.79 2.67 10.04
10/19/2022 5:30:00 AM 6.9 44.42 0.112 6.91 2.43 10.04
10/19/2022 5:45:00 AM 6.87 44.366 0.112 7.04 2.6 10.05
10/19/2022 6:00:00 AM 6.85 44.33 0.112 7.01 2.65 10.06
10/19/2022 6:15:00 AM 6.84 44.312 0.112 6.81 2.54 10.05
10/19/2022 6:30:00 AM 6.83 44.294 0.112 7.05 2.68 10.05
10/19/2022 6:45:00 AM 6.81 44.258 0.115 7 0.52 10.06
10/19/2022 7:00:00 AM 6.81 44.258 0.115 6.98 0.56 10.08
10/19/2022 7:15:00 AM 6.78 44.204 0.115 6.91 0.52 10.08
10/19/2022 7:30:00 AM 6.77 44.186 0.114 6.78 2.66 10.09
10/19/2022 7:45:00 AM 6.76 44.168 0.112 6.77 2.7 10.1
10/19/2022 8:00:00 AM 6.76 44.168 0.112 6.84 2.74 10.13
10/19/2022 8:15:00 AM 6.76 44.168 0.112 7 2.54 10.14
10/19/2022 8:30:00 AM 6.75 44.15 0.112 6.82 2.61 10.18
10/19/2022 8:45:00 AM 6.77 44.186 0.112 6.91 2.16 10.17
10/19/2022 9:00:00 AM 6.75 44.15 0.112 6.79 2.47 10.19
10/19/2022 9:15:00 AM 6.74 44.132 0.116 7.02 0.64 10.26
10/19/2022 9:30:00 AM 6.74 44.132 0.115 6.82 0.54 10.33
10/19/2022 9:45:00 AM 6.73 44.114 0.115 6.98 0.52 10.38
10/19/2022 10:00:00 AM 6.71 44.078 0.112 6.84 3.02 10.4
10/19/2022 10:15:00 AM 6.75 44.15 0.111 6.84 2.69 10.47
10/19/2022 10:30:00 AM 6.72 44.096 0.111 6.86 2.64 10.55
10/19/2022 10:45:00 AM 6.69 44.042 0.112 6.81 2.72 10.6
10/19/2022 11:00:00 AM 6.75 44.15 0.111 6.98 2.63 10.66
10/19/2022 11:15:00 AM 6.79 44.222 0.115 6.84 0.56 10.77
10/19/2022 11:30:00 AM 6.79 44.222 0.114 6.92 0.52 10.83
10/19/2022 11:45:00 AM 6.81 44.258 0.114 6.85 0.51 10.87
10/19/2022 12:00:00 PM 6.81 44.258 0.114 7.05 0.52 10.94
10/19/2022 12:15:00 PM 6.8 44.24 0.11 6.82 2.85 10.95
10/19/2022 12:30:00 PM 6.78 44.204 0.111 6.86 2.7 11.02
10/19/2022 12:45:00 PM 6.81 44.258 0.11 6.87 2.52 11.09
10/19/2022 1:00:00 PM 6.81 44.258 0.11 6.89 2.64 11.12
10/19/2022 1:15:00 PM 6.77 44.186 0.113 6.94 0.55 11.15
10/19/2022 1:30:00 PM 6.73 44.114 0.11 7.07 2.58 11.2
10/19/2022 1:45:00 PM 6.75 44.15 0.11 6.92 2.65 11.21
10/19/2022 2:00:00 PM 6.79 44.222 0.11 7.06 2.59 11.3
10/19/2022 2:15:00 PM 6.87 44.366 0.11 7.02 2.68 11.31
10/19/2022 2:30:00 PM 6.92 44.456 0.111 7.09 2.54 11.3
10/19/2022 2:45:00 PM 6.92 44.456 0.109 6.97 2.34 11.29
10/19/2022 3:00:00 PM 6.94 44.492 0.11 7.04 2.85 11.26
10/19/2022 3:15:00 PM 6.94 44.492 0.109 7.06 2.64 11.27
10/19/2022 3:30:00 PM 6.94 44.492 0.109 6.85 2.56 11.28
10/19/2022 3:45:00 PM 6.93 44.474 0.11 6.98 2.58 11.28
10/19/2022 4:00:00 PM 6.93 44.474 0.108 6.96 2.51 11.29
10/19/2022 4:15:00 PM 6.95 44.51 0.11 6.84 2.44 11.26
10/19/2022 4:30:00 PM 6.93 44.474 0.108 7.03 2.6 11.24
10/19/2022 4:45:00 PM 6.93 44.474 0.108 6.98 2.69 11.18
10/19/2022 5:00:00 PM 6.93 44.474 0.109 6.97 2.88 11.19
10/19/2022 5:15:00 PM 6.94 44.492 0.108 6.88 2.56 11.17
10/19/2022 5:30:00 PM 6.96 44.528 0.108 6.86 2.52 11.11
10/19/2022 5:45:00 PM 6.97 44.546 0.108 7.03 2.32 11.07
10/19/2022 6:00:00 PM 6.97 44.546 0.108 6.85 2.34 11.03
10/19/2022 6:15:00 PM 6.99 44.582 0.108 6.78 2.81 10.94
10/19/2022 6:30:00 PM 7 44.6 0.112 7.05 0.55 10.9
10/19/2022 6:45:00 PM 7.01 44.618 0.112 6.85 0.55 10.84
10/19/2022 7:00:00 PM 7.02 44.636 0.112 7.06 0.52 10.79
10/19/2022 7:15:00 PM 7.04 44.672 0.109 6.97 2.64 10.72
10/19/2022 7:30:00 PM 7.07 44.726 0.109 7.06 2.69 10.66
10/19/2022 7:45:00 PM 7.08 44.744 0.109 6.85 2.58 10.6
10/19/2022 8:00:00 PM 7.1 44.78 0.113 6.86 0.55 10.53
10/19/2022 8:15:00 PM 7.1 44.78 0.113 6.84 0.54 10.48
10/19/2022 8:30:00 PM 7.12 44.816 0.113 7.05 0.58 10.43
10/19/2022 8:45:00 PM 7.13 44.834 0.113 7.02 0.54 10.39
10/19/2022 9:00:00 PM 7.14 44.852 0.113 6.82 0.53 10.34
10/19/2022 9:15:00 PM 7.15 44.87 0.113 6.98 0.52 10.3
10/19/2022 9:30:00 PM 7.15 44.87 0.113 7.04 0.54 10.28
10/19/2022 9:45:00 PM 7.16 44.888 0.113 7.01 0.53 10.25
10/19/2022 10:00:00 PM 7.15 44.87 0.113 6.97 0.52 10.23
10/19/2022 10:15:00 PM 7.15 44.87 0.114 6.85 0.52 10.2
10/19/2022 10:30:00 PM 7.16 44.888 0.114 7.03 0.56 10.17
10/19/2022 10:45:00 PM 7.15 44.87 0.114 6.82 0.53 10.16
10/19/2022 11:00:00 PM 7.15 44.87 0.114 7.04 0.54 10.16
10/19/2022 11:15:00 PM 7.15 44.87 0.114 6.85 0.58 10.15
10/19/2022 11:30:00 PM 7.14 44.852 0.114 6.84 0.53 10.14
10/19/2022 11:45:00 PM 7.14 44.852 0.114 6.94 0.56 10.14
10/20/2022 12:00:00 AM 7.13 44.834 0.114 7.01 0.57 10.13
10/20/2022 12:15:00 AM 7.12 44.816 0.114 6.97 0.53 10.13
10/20/2022 12:30:00 AM 7.12 44.816 0.114 6.83 0.52 10.11
10/20/2022 12:45:00 AM 7.11 44.798 0.114 6.89 0.54 10.1
10/20/2022 1:00:00 AM 7.1 44.78 0.114 6.91 0.59 10.1
10/20/2022 1:15:00 AM 7.09 44.762 0.114 6.83 0.56 10.11
10/20/2022 1:30:00 AM 7.08 44.744 0.11 6.85 2.58 10.11
10/20/2022 1:45:00 AM 7.07 44.726 0.114 6.86 0.57 10.1
10/20/2022 2:00:00 AM 7.05 44.69 0.114 6.93 0.51 10.11
10/20/2022 2:15:00 AM 7.04 44.672 0.111 6.79 2.66 10.1
10/20/2022 2:30:00 AM 7.03 44.654 0.111 6.78 2.82 10.09
10/20/2022 2:45:00 AM 7.02 44.636 0.111 6.84 2.49 10.1
10/20/2022 3:00:00 AM 6.98 44.564 0.111 7 2.42 10.12
10/20/2022 3:15:00 AM 6.93 44.474 0.111 6.94 2.49 10.13
10/20/2022 3:30:00 AM 6.91 44.438 0.114 6.82 0.58 10.13
10/20/2022 3:45:00 AM 6.87 44.366 0.114 6.87 0.53 10.15
10/20/2022 4:00:00 AM 6.84 44.312 0.114 6.99 0.52 10.15
10/20/2022 4:15:00 AM 6.82 44.276 0.111 6.77 2.89 10.15
10/20/2022 4:30:00 AM 6.8 44.24 0.114 6.85 0.55 10.16
10/20/2022 4:45:00 AM 6.78 44.204 0.115 6.83 0.55 10.18
10/20/2022 5:00:00 AM 6.79 44.222 0.115 6.84 0.53 10.16
10/20/2022 5:15:00 AM 6.77 44.186 0.111 6.99 2.8 10.17
10/20/2022 5:30:00 AM 6.76 44.168 0.111 7.02 2.82 10.18
10/20/2022 5:45:00 AM 6.75 44.15 0.111 6.82 2.8 10.18
10/20/2022 6:00:00 AM 6.72 44.096 0.115 7.01 0.55 10.21
10/20/2022 6:15:00 AM 6.7 44.06 0.115 6.99 0.51 10.21
10/20/2022 6:30:00 AM 6.67 44.006 0.115 6.82 0.55 10.24
10/20/2022 6:45:00 AM 6.66 43.988 0.115 7.02 0.71 10.24
10/20/2022 7:00:00 AM 6.63 43.934 0.115 6.81 1.03 10.25
10/20/2022 7:15:00 AM 6.6 43.88 0.115 6.86 0.54 10.27
10/20/2022 7:30:00 AM 6.57 43.826 0.115 6.84 0.56 10.31
10/20/2022 7:45:00 AM 6.55 43.79 0.115 6.93 0.56 10.31
10/20/2022 8:00:00 AM 6.54 43.772 0.115 7 0.52 10.32
10/20/2022 8:15:00 AM 6.51 43.718 0.115 6.99 0.54 10.35
10/20/2022 8:30:00 AM 6.5 43.7 0.115 6.83 0.53 10.37
10/20/2022 8:45:00 AM 6.48 43.664 0.115 6.85 0.54 10.42
10/20/2022 9:00:00 AM 6.44 43.592 0.115 6.83 0.51 10.48
10/20/2022 9:15:00 AM 6.42 43.556 0.115 6.86 0.53 10.5
10/20/2022 9:30:00 AM 6.44 43.592 0.115 6.93 0.52 10.53
10/20/2022 9:45:00 AM 6.46 43.628 0.114 6.83 0.51 10.59
10/20/2022 10:00:00 AM 6.47 43.646 0.114 7.02 0.54 10.64
10/20/2022 10:15:00 AM 6.46 43.628 0.114 6.91 0.52 10.75
10/20/2022 10:30:00 AM 6.5 43.7 0.114 6.84 0.5 10.78
10/20/2022 10:45:00 AM 6.5 43.7 0.114 7.03 0.55 10.84
10/20/2022 11:00:00 AM 6.44 43.592 0.114 6.82 0.55 10.91
10/20/2022 11:15:00 AM 6.46 43.628 0.114 6.85 0.53 11.01
10/20/2022 11:30:00 AM 6.41 43.538 0.11 6.83 2.59 11.08
10/20/2022 11:45:00 AM 6.37 43.466 0.11 7.05 2.55 11.18
10/20/2022 12:00:00 PM 6.4 43.52 0.113 6.89 0.56 11.24
10/20/2022 12:15:00 PM 6.41 43.538 0.11 6.94 2.75 11.32
10/20/2022 12:30:00 PM 6.41 43.538 0.109 6.99 3.11 11.34
10/20/2022 12:45:00 PM 6.41 43.538 0.109 6.9 2.7 11.35
10/20/2022 1:00:00 PM 6.39 43.502 0.11 7.06 2.49 11.42
10/20/2022 1:15:00 PM 6.38 43.484 0.112 6.86 0.55 11.43
10/20/2022 1:30:00 PM 6.39 43.502 0.112 7.06 0.53 11.48
10/20/2022 1:45:00 PM 6.38 43.484 0.112 6.93 0.56 11.52
10/20/2022 2:00:00 PM 6.45 43.61 0.112 6.86 0.52 11.47
10/20/2022 2:15:00 PM 6.44 43.592 0.112 6.93 0.51 11.56
10/20/2022 2:30:00 PM 6.46 43.628 0.112 6.94 0.49 11.52
10/20/2022 2:45:00 PM 6.44 43.592 0.111 6.89 0.53 11.57
10/20/2022 3:00:00 PM 6.45 43.61 0.111 7.06 0.51 11.6
10/20/2022 3:15:00 PM 6.49 43.682 0.111 6.88 0.56 11.57
10/20/2022 3:30:00 PM 6.47 43.646 0.111 6.89 0.51 11.61
10/20/2022 3:45:00 PM 6.49 43.682 0.111 6.91 0.52 11.57
10/20/2022 4:00:00 PM 6.49 43.682 0.111 6.89 0.55 11.58
10/20/2022 4:15:00 PM 6.5 43.7 0.111 6.9 0.57 11.61
10/20/2022 4:30:00 PM 6.5 43.7 0.111 6.93 0.51 11.56
10/20/2022 4:45:00 PM 6.5 43.7 0.111 6.88 0.52 11.52
10/20/2022 5:00:00 PM 6.51 43.718 0.111 6.94 0.55 11.49
10/20/2022 5:15:00 PM 6.53 43.754 0.111 6.93 0.59 11.46
10/20/2022 5:30:00 PM 6.53 43.754 0.111 6.87 0.52 11.42
10/20/2022 5:45:00 PM 6.55 43.79 0.111 7.03 0.52 11.36
10/20/2022 6:00:00 PM 6.56 43.808 0.111 7.08 0.54 11.3
10/20/2022 6:15:00 PM 6.57 43.826 0.111 7.01 0.53 11.27
10/20/2022 6:30:00 PM 6.57 43.826 0.111 6.97 0.57 11.2
10/20/2022 6:45:00 PM 6.58 43.844 0.111 6.93 0.59 11.16
10/20/2022 7:00:00 PM 6.6 43.88 0.111 6.94 0.56 11.09
10/20/2022 7:15:00 PM 6.62 43.916 0.111 7.07 0.54 11.04
10/20/2022 7:30:00 PM 6.63 43.934 0.111 7.05 0.52 10.97
10/20/2022 7:45:00 PM 6.65 43.97 0.112 6.85 0.56 10.89
10/20/2022 8:00:00 PM 6.67 44.006 0.112 6.97 0.55 10.85
10/20/2022 8:15:00 PM 6.68 44.024 0.112 7.09 0.58 10.79
10/20/2022 8:30:00 PM 6.7 44.06 0.112 6.9 0.57 10.73
10/20/2022 8:45:00 PM 6.71 44.078 0.112 6.9 0.55 10.68
10/20/2022 9:00:00 PM 6.71 44.078 0.112 6.86 0.55 10.64
10/20/2022 9:15:00 PM 6.71 44.078 0.109 6.93 2.59 10.6
10/20/2022 9:30:00 PM 6.73 44.114 0.109 6.9 2.73 10.55
10/20/2022 9:45:00 PM 6.73 44.114 0.113 6.83 0.51 10.53
10/20/2022 10:00:00 PM 6.74 44.132 0.113 6.97 0.54 10.5
10/20/2022 10:15:00 PM 6.75 44.15 0.109 6.97 2.7 10.47
10/20/2022 10:30:00 PM 6.74 44.132 0.11 6.99 2.49 10.46
10/20/2022 10:45:00 PM 6.74 44.132 0.11 6.81 2.64 10.44
10/20/2022 11:00:00 PM 6.74 44.132 0.109 6.89 2.72 10.42
10/20/2022 11:15:00 PM 6.73 44.114 0.109 6.89 2.73 10.42
10/20/2022 11:30:00 PM 6.72 44.096 0.113 6.79 0.55 10.41
10/20/2022 11:45:00 PM 6.71 44.078 0.109 6.81 2.4 10.4
10/21/2022 12:00:00 AM 6.69 44.042 0.113 6.98 0.53 10.4
10/21/2022 12:15:00 AM 6.67 44.006 0.113 6.91 0.55 10.39
10/21/2022 12:30:00 AM 6.64 43.952 0.113 6.86 0.57 10.39
10/21/2022 12:45:00 AM 6.61 43.898 0.113 6.84 0.55 10.39
10/21/2022 1:00:00 AM 6.58 43.844 0.11 6.98 2.43 10.39
10/21/2022 1:15:00 AM 6.56 43.808 0.113 7 0.57 10.39
10/21/2022 1:30:00 AM 6.54 43.772 0.113 6.85 0.54 10.4
10/21/2022 1:45:00 AM 6.52 43.736 0.113 6.93 0.54 10.39
10/21/2022 2:00:00 AM 6.49 43.682 0.114 6.89 0.52 10.4
10/21/2022 2:15:00 AM 6.48 43.664 0.114 6.89 0.51 10.4
10/21/2022 2:30:00 AM 6.46 43.628 0.114 6.89 0.53 10.41
10/21/2022 2:45:00 AM 6.44 43.592 0.114 6.85 0.55 10.41
10/21/2022 3:00:00 AM 6.42 43.556 0.11 6.84 2.9 10.41
10/21/2022 3:15:00 AM 6.4 43.52 0.11 6.82 2.63 10.43
10/21/2022 3:30:00 AM 6.37 43.466 0.114 6.84 0.52 10.45
10/21/2022 3:45:00 AM 6.33 43.394 0.114 6.86 0.54 10.48
10/21/2022 4:00:00 AM 6.32 43.376 0.114 7.01 0.53 10.48
10/21/2022 4:15:00 AM 6.3 43.34 0.114 7.02 0.55 10.49
10/21/2022 4:30:00 AM 6.28 43.304 0.11 6.82 2.72 10.49
10/21/2022 4:45:00 AM 6.23 43.214 0.114 6.85 0.55 10.52
10/21/2022 5:00:00 AM 6.22 43.196 0.11 7.05 2.74 10.51
10/21/2022 5:15:00 AM 6.18 43.124 0.111 7.05 2.73 10.53
10/21/2022 5:30:00 AM 6.15 43.07 0.114 6.82 0.56 10.57
10/21/2022 5:45:00 AM 6.11 42.998 0.111 6.84 2.82 10.58
10/21/2022 6:00:00 AM 6.06 42.908 0.111 6.87 2.75 10.61
10/21/2022 6:15:00 AM 6.03 42.854 0.111 6.84 2.62 10.62
10/21/2022 6:30:00 AM 6.02 42.836 0.11 6.83 2.5 10.61
10/21/2022 6:45:00 AM 5.96 42.728 0.114 6.82 0.51 10.66
10/21/2022 7:00:00 AM 5.93 42.674 0.114 6.84 0.55 10.67
10/21/2022 7:15:00 AM 5.9 42.62 0.114 6.84 0.54 10.68
10/21/2022 7:30:00 AM 5.85 42.53 0.114 6.84 0.52 10.69
10/21/2022 7:45:00 AM 5.8 42.44 0.111 7.01 2.68 10.75
10/21/2022 8:00:00 AM 5.77 42.386 0.114 6.83 0.54 10.77
10/21/2022 8:15:00 AM 5.74 42.332 0.111 7.01 2.89 10.81
10/21/2022 8:30:00 AM 5.72 42.296 0.111 6.82 2.79 10.84
10/21/2022 8:45:00 AM 5.7 42.26 0.111 6.89 2.92 10.87
10/21/2022 9:00:00 AM 5.69 42.242 0.111 6.81 2.37 10.9
10/21/2022 9:15:00 AM 5.69 42.242 0.113 6.83 2.77 10.93
10/21/2022 9:30:00 AM 5.68 42.224 0.111 6.85 2.89 10.98
10/21/2022 9:45:00 AM 5.69 42.242 0.111 6.83 2.42 11.03
10/21/2022 10:00:00 AM 5.72 42.296 0.111 6.84 2.72 11.08
10/21/2022 10:15:00 AM 5.75 42.35 0.111 6.85 2.68 11.14
10/21/2022 10:30:00 AM 5.77 42.386 0.114 6.86 0.56 11.21
10/21/2022 10:45:00 AM 5.79 42.422 0.11 6.88 2.71 11.31
10/21/2022 11:00:00 AM 5.79 42.422 0.114 6.98 0.58 11.41
10/21/2022 11:15:00 AM 5.86 42.548 0.113 6.86 0.56 11.41
10/21/2022 11:30:00 AM 5.88 42.584 0.113 7.02 0.52 11.49
10/21/2022 11:45:00 AM 5.88 42.584 0.113 6.87 0.56 11.6
10/21/2022 12:00:00 PM 5.96 42.728 0.113 6.9 0.53 11.63
10/21/2022 12:15:00 PM 6.03 42.854 0.113 6.97 0.53 11.64
10/21/2022 12:30:00 PM 6.05 42.89 0.113 6.89 0.55 11.73
10/21/2022 12:45:00 PM 6.08 42.944 0.113 6.88 0.56 11.73
10/21/2022 1:00:00 PM 6.15 43.07 0.112 6.91 0.57 11.72
10/21/2022 1:15:00 PM 6.06 42.908 0.109 7.07 2.55 11.75
10/21/2022 1:30:00 PM 6.07 42.926 0.112 6.9 0.55 11.78
10/21/2022 1:45:00 PM 6.03 42.854 0.109 6.91 2.96 11.74
10/21/2022 2:00:00 PM 6.03 42.854 0.109 6.91 2.99 11.71
10/21/2022 2:15:00 PM 6 42.8 0.112 6.98 0.56 11.69
10/21/2022 2:30:00 PM 6.01 42.818 0.112 6.9 0.52 11.66
10/21/2022 2:45:00 PM 5.98 42.764 0.112 6.9 0.61 11.59
10/21/2022 3:00:00 PM 5.95 42.71 0.112 7 0.49 11.59
10/21/2022 3:15:00 PM 5.98 42.764 0.109 6.91 2.56 11.51
10/21/2022 3:30:00 PM 5.96 42.728 0.112 6.89 0.52 11.5
10/21/2022 3:45:00 PM 5.95 42.71 0.112 6.96 0.52 11.46
10/21/2022 4:00:00 PM 5.96 42.728 0.112 6.89 0.53 11.41
10/21/2022 4:15:00 PM 5.97 42.746 0.112 6.98 0.54 11.36
10/21/2022 4:30:00 PM 6 42.8 0.112 6.9 0.51 11.31
10/21/2022 4:45:00 PM 6.02 42.836 0.113 6.87 0.53 11.26
10/21/2022 5:00:00 PM 6.05 42.89 0.113 7 0.52 11.19
10/21/2022 5:15:00 PM 6.08 42.944 0.113 6.98 0.52 11.14
10/21/2022 5:30:00 PM 6.1 42.98 0.113 7.03 0.58 11.09
10/21/2022 5:45:00 PM 6.13 43.034 0.113 7.06 0.53 11.05
10/21/2022 6:00:00 PM 6.15 43.07 0.113 6.87 0.56 11
10/21/2022 6:15:00 PM 6.17 43.106 0.109 7.01 2.63 10.95
10/21/2022 6:30:00 PM 6.19 43.142 0.113 6.87 0.56 10.91
10/21/2022 6:45:00 PM 6.21 43.178 0.113 6.98 0.56 10.86
10/21/2022 7:00:00 PM 6.23 43.214 0.109 7.07 2.45 10.81
10/21/2022 7:15:00 PM 6.24 43.232 0.113 6.86 0.53 10.78
10/21/2022 7:30:00 PM 6.26 43.268 0.11 6.89 2.51 10.72
10/21/2022 7:45:00 PM 6.28 43.304 0.113 6.89 0.63 10.68
10/21/2022 8:00:00 PM 6.3 43.34 0.113 6.91 0.57 10.63
10/21/2022 8:15:00 PM 6.31 43.358 0.113 6.88 0.52 10.58
10/21/2022 8:30:00 PM 6.33 43.394 0.11 6.86 3.03 10.53
10/21/2022 8:45:00 PM 6.34 43.412 0.114 7.04 0.53 10.5
10/21/2022 9:00:00 PM 6.36 43.448 0.114 6.93 0.49 10.47
10/21/2022 9:15:00 PM 6.37 43.466 0.111 6.85 2.68 10.44
10/21/2022 9:30:00 PM 6.38 43.484 0.114 6.98 0.57 10.41
10/21/2022 9:45:00 PM 6.4 43.52 0.111 6.85 2.58 10.37
10/21/2022 10:00:00 PM 6.41 43.538 0.11 7.03 2.54 10.35
10/21/2022 10:15:00 PM 6.42 43.556 0.11 6.85 3.03 10.33
10/21/2022 10:30:00 PM 6.42 43.556 0.111 6.85 2.62 10.32
10/21/2022 10:45:00 PM 6.43 43.574 0.111 6.86 2.59 10.3
10/21/2022 11:00:00 PM 6.43 43.574 0.114 7.04 0.55 10.3
10/21/2022 11:15:00 PM 6.43 43.574 0.111 7.05 2.98 10.29
10/21/2022 11:30:00 PM 6.43 43.574 0.111 6.82 2.75 10.29
10/21/2022 11:45:00 PM 6.43 43.574 0.112 6.8 2.78 10.29
10/22/2022 12:00:00 AM 6.42 43.556 0.114 6.97 0.51 10.29
10/22/2022 12:15:00 AM 6.42 43.556 0.112 6.92 2.74 10.28
10/22/2022 12:30:00 AM 6.41 43.538 0.114 6.87 0.51 10.28
10/22/2022 12:45:00 AM 6.4 43.52 0.112 6.84 2.88 10.29
10/22/2022 1:00:00 AM 6.4 43.52 0.112 6.94 2.43 10.29
10/22/2022 1:15:00 AM 6.38 43.484 0.115 6.84 0.53 10.3
10/22/2022 1:30:00 AM 6.37 43.466 0.115 6.98 0.57 10.3
10/22/2022 1:45:00 AM 6.35 43.43 0.115 7.01 0.56 10.31
10/22/2022 2:00:00 AM 6.34 43.412 0.115 6.85 0.52 10.32
10/22/2022 2:15:00 AM 6.32 43.376 0.115 6.83 0.53 10.33
10/22/2022 2:30:00 AM 6.3 43.34 0.112 6.81 2.52 10.34
10/22/2022 2:45:00 AM 6.28 43.304 0.111 6.85 2.74 10.35
10/22/2022 3:00:00 AM 6.26 43.268 0.112 6.88 2.58 10.36
10/22/2022 3:15:00 AM 6.23 43.214 0.115 6.91 0.51 10.37
10/22/2022 3:30:00 AM 6.22 43.196 0.111 7.01 2.45 10.37
10/22/2022 3:45:00 AM 6.2 43.16 0.111 6.98 2.45 10.38
10/22/2022 4:00:00 AM 6.17 43.106 0.115 6.85 0.52 10.4
10/22/2022 4:15:00 AM 6.14 43.052 0.115 6.84 0.61 10.41
10/22/2022 4:30:00 AM 6.12 43.016 0.115 6.89 0.57 10.42
10/22/2022 4:45:00 AM 6.09 42.962 0.111 6.8 2.8 10.43
10/22/2022 5:00:00 AM 6.06 42.908 0.115 6.84 0.55 10.46
10/22/2022 5:15:00 AM 6.03 42.854 0.111 6.8 2.94 10.47
10/22/2022 5:30:00 AM 6.01 42.818 0.111 6.94 2.81 10.48
10/22/2022 5:45:00 AM 5.98 42.764 0.115 6.81 0.56 10.49
10/22/2022 6:00:00 AM 5.95 42.71 0.115 6.85 0.51 10.51
10/22/2022 6:15:00 AM 5.9 42.62 0.115 6.98 0.55 10.54
10/22/2022 6:30:00 AM 5.89 42.602 0.115 6.84 0.55 10.53
10/22/2022 6:45:00 AM 5.86 42.548 0.115 7.02 0.51 10.55
10/22/2022 7:00:00 AM 5.83 42.494 0.115 6.84 0.53 10.56
10/22/2022 7:15:00 AM 5.81 42.458 0.115 7.03 0.56 10.58
10/22/2022 7:30:00 AM 5.79 42.422 0.115 6.92 0.6 10.58
10/22/2022 7:45:00 AM 5.77 42.386 0.115 6.84 0.56 10.61
10/22/2022 8:00:00 AM 5.73 42.314 0.115 6.97 0.51 10.63
10/22/2022 8:15:00 AM 5.69 42.242 0.116 6.85 0.53 10.68
10/22/2022 8:30:00 AM 5.67 42.206 0.116 6.89 0.55 10.71
10/22/2022 8:45:00 AM 5.66 42.188 0.112 6.82 2.49 10.73
10/22/2022 9:00:00 AM 5.66 42.188 0.115 6.85 0.53 10.75
10/22/2022 9:15:00 AM 5.66 42.188 0.112 6.97 2.43 10.79
10/22/2022 9:30:00 AM 5.66 42.188 0.112 6.81 2.52 10.84
10/22/2022 9:45:00 AM 5.7 42.26 0.115 6.85 0.52 10.9
10/22/2022 10:00:00 AM 5.72 42.296 0.115 6.98 0.54 10.98
10/22/2022 10:15:00 AM 5.76 42.368 0.115 6.96 0.53 11.03
10/22/2022 10:30:00 AM 5.78 42.404 0.111 6.85 2.79 11.14
10/22/2022 10:45:00 AM 5.85 42.53 0.115 6.86 0.58 11.19
10/22/2022 11:00:00 AM 5.85 42.53 0.115 6.93 0.57 11.28
10/22/2022 11:15:00 AM 5.88 42.584 0.114 6.9 0.56 11.37
10/22/2022 11:30:00 AM 5.96 42.728 0.114 6.86 0.56 11.42
10/22/2022 11:45:00 AM 5.99 42.782 0.114 7.02 0.57 11.52
10/22/2022 12:00:00 PM 6.07 42.926 0.114 6.85 0.51 11.59
10/22/2022 12:15:00 PM 6.17 43.106 0.11 6.86 2.89 11.63
10/22/2022 12:30:00 PM 6.23 43.214 0.11 6.87 2.59 11.66
10/22/2022 12:45:00 PM 6.24 43.232 0.11 6.88 2.72 11.7
10/22/2022 1:00:00 PM 6.35 43.43 0.109 6.97 2.65 11.65
10/22/2022 1:15:00 PM 6.28 43.304 0.109 7.05 2.68 11.7
10/22/2022 1:30:00 PM 6.31 43.358 0.113 6.88 0.55 11.7
10/22/2022 1:45:00 PM 6.26 43.268 0.109 6.88 2.87 11.67
10/22/2022 2:00:00 PM 6.26 43.268 0.113 7.06 0.48 11.66
10/22/2022 2:15:00 PM 6.23 43.214 0.109 7.03 2.48 11.64
10/22/2022 2:30:00 PM 6.27 43.286 0.111 7.08 2.44 11.57
10/22/2022 2:45:00 PM 6.23 43.214 0.109 7.04 2.76 11.54
10/22/2022 3:00:00 PM 6.23 43.214 0.109 7.01 2.47 11.51
10/22/2022 3:15:00 PM 6.22 43.196 0.109 6.85 2.52 11.48
10/22/2022 3:30:00 PM 6.22 43.196 0.109 7.05 2.56 11.42
10/22/2022 3:45:00 PM 6.22 43.196 0.109 6.85 2.69 11.37
10/22/2022 4:00:00 PM 6.21 43.178 0.113 6.89 0.51 11.33
10/22/2022 4:15:00 PM 6.24 43.232 0.113 6.92 0.5 11.28
10/22/2022 4:30:00 PM 6.28 43.304 0.11 6.9 2.8 11.21
10/22/2022 4:45:00 PM 6.32 43.376 0.113 6.92 0.5 11.15
10/22/2022 5:00:00 PM 6.36 43.448 0.113 7.05 0.54 11.1
10/22/2022 5:15:00 PM 6.4 43.52 0.113 6.91 0.52 11.04
10/22/2022 5:30:00 PM 6.44 43.592 0.11 6.83 2.51 10.99
10/22/2022 5:45:00 PM 6.48 43.664 0.113 6.87 0.53 10.93
10/22/2022 6:00:00 PM 6.51 43.718 0.113 6.96 0.52 10.88
10/22/2022 6:15:00 PM 6.55 43.79 0.113 6.87 0.49 10.82
10/22/2022 6:30:00 PM 6.58 43.844 0.113 6.86 0.56 10.76
10/22/2022 6:45:00 PM 6.61 43.898 0.113 6.93 0.53 10.71
10/22/2022 7:00:00 PM 6.64 43.952 0.113 6.98 0.58 10.66
10/22/2022 7:15:00 PM 6.67 44.006 0.114 6.98 0.59 10.62
10/22/2022 7:30:00 PM 6.71 44.078 0.11 7.04 2.53 10.57
10/22/2022 7:45:00 PM 6.74 44.132 0.11 6.99 2.56 10.51
10/22/2022 8:00:00 PM 6.76 44.168 0.114 7.02 0.57 10.46
10/22/2022 8:15:00 PM 6.79 44.222 0.111 6.81 2.51 10.41
10/22/2022 8:30:00 PM 6.81 44.258 0.114 6.85 0.56 10.36
10/22/2022 8:45:00 PM 6.84 44.312 0.111 6.97 2.79 10.32
10/22/2022 9:00:00 PM 6.86 44.348 0.111 6.93 3.06 10.27
10/22/2022 9:15:00 PM 6.88 44.384 0.111 6.83 2.65 10.24
10/22/2022 9:30:00 PM 6.89 44.402 0.111 7.04 2.52 10.21
10/22/2022 9:45:00 PM 6.92 44.456 0.111 6.93 2.66 10.18
10/22/2022 10:00:00 PM 6.94 44.492 0.111 7 2.75 10.15
10/22/2022 10:15:00 PM 6.94 44.492 0.114 7.01 0.53 10.13
10/22/2022 10:30:00 PM 6.95 44.51 0.115 7.03 0.49 10.11
10/22/2022 10:45:00 PM 6.94 44.492 0.111 7.03 2.6 10.1
10/22/2022 11:00:00 PM 6.96 44.528 0.111 6.71 2.77 10.09
10/22/2022 11:15:00 PM 6.97 44.546 0.111 6.86 2.92 10.08
10/22/2022 11:30:00 PM 6.95 44.51 0.111 6.85 2.7 10.07
10/22/2022 11:45:00 PM 6.97 44.546 0.115 6.8 0.54 10.06
10/23/2022 12:00:00 AM 6.98 44.564 0.115 6.99 0.48 10.07
10/23/2022 12:15:00 AM 6.97 44.546 0.115 6.84 0.51 10.06
10/23/2022 12:30:00 AM 6.96 44.528 0.112 6.89 2.84 10.05
10/23/2022 12:45:00 AM 6.95 44.51 0.115 6.83 0.54 10.05
10/23/2022 1:00:00 AM 6.96 44.528 0.111 6.99 2.78 10.06
10/23/2022 1:15:00 AM 6.95 44.51 0.115 6.99 0.53 10.07
10/23/2022 1:30:00 AM 6.94 44.492 0.115 7 0.55 10.07
10/23/2022 1:45:00 AM 6.93 44.474 0.115 6.9 0.52 10.07
10/23/2022 2:00:00 AM 6.92 44.456 0.113 7.01 2.64 10.08
10/23/2022 2:15:00 AM 6.91 44.438 0.115 6.8 0.55 10.08
10/23/2022 2:30:00 AM 6.89 44.402 0.115 7 0.54 10.09
10/23/2022 2:45:00 AM 6.88 44.384 0.112 6.75 2.63 10.1
10/23/2022 3:00:00 AM 6.86 44.348 0.112 7.02 2.69 10.11
10/23/2022 3:15:00 AM 6.83 44.294 0.115 6.97 0.56 10.11
10/23/2022 3:30:00 AM 6.81 44.258 0.115 6.97 0.51 10.14
10/23/2022 3:45:00 AM 6.79 44.222 0.115 7.01 0.68 10.14
10/23/2022 4:00:00 AM 6.77 44.186 0.115 6.99 0.54 10.16
10/23/2022 4:15:00 AM 6.75 44.15 0.112 7.01 2.68 10.17
10/23/2022 4:30:00 AM 6.72 44.096 0.114 7 2.69 10.19
10/23/2022 4:45:00 AM 6.7 44.06 0.114 6.94 2.59 10.2
10/23/2022 5:00:00 AM 6.67 44.006 0.115 6.95 0.53 10.22
10/23/2022 5:15:00 AM 6.65 43.97 0.115 6.8 0.53 10.24
10/23/2022 5:30:00 AM 6.62 43.916 0.115 6.82 0.53 10.25
10/23/2022 5:45:00 AM 6.59 43.862 0.115 6.97 0.57 10.26
10/23/2022 6:00:00 AM 6.56 43.808 0.115 6.99 0.55 10.28
10/23/2022 6:15:00 AM 6.53 43.754 0.115 6.78 0.52 10.29
10/23/2022 6:30:00 AM 6.5 43.7 0.115 6.87 0.53 10.31
10/23/2022 6:45:00 AM 6.48 43.664 0.115 6.86 0.56 10.32
10/23/2022 7:00:00 AM 6.44 43.592 0.112 7.02 2.81 10.34
10/23/2022 7:15:00 AM 6.41 43.538 0.112 6.73 2.78 10.35
10/23/2022 7:30:00 AM 6.38 43.484 0.116 7 0.54 10.37
10/23/2022 7:45:00 AM 6.34 43.412 0.116 6.81 0.66 10.4
10/23/2022 8:00:00 AM 6.32 43.376 0.112 6.88 2.96 10.42
10/23/2022 8:15:00 AM 6.29 43.322 0.116 6.94 0.56 10.45
10/23/2022 8:30:00 AM 6.29 43.322 0.112 7.03 2.51 10.46
10/23/2022 8:45:00 AM 6.27 43.286 0.112 6.87 3.25 10.5
10/23/2022 9:00:00 AM 6.26 43.268 0.112 6.85 2.54 10.53
10/23/2022 9:15:00 AM 6.24 43.232 0.112 7 2.73 10.57
10/23/2022 9:30:00 AM 6.25 43.25 0.115 6.94 0.52 10.62
10/23/2022 9:45:00 AM 6.26 43.268 0.115 7 0.51 10.69
10/23/2022 10:00:00 AM 6.24 43.232 0.115 6.81 0.52 10.74
10/23/2022 10:15:00 AM 6.31 43.358 0.115 6.92 0.55 10.82
10/23/2022 10:30:00 AM 6.31 43.358 0.115 6.96 0.5 10.92
10/23/2022 10:45:00 AM 6.38 43.484 0.115 6.96 0.51 11.04
10/23/2022 11:00:00 AM 6.4 43.52 0.115 6.88 0.51 11.11
10/23/2022 11:15:00 AM 6.43 43.574 0.111 7.01 2.58 11.2
10/23/2022 11:30:00 AM 6.51 43.718 0.114 6.83 0.51 11.26
10/23/2022 11:45:00 AM 6.53 43.754 0.114 7.02 0.52 11.37
10/23/2022 12:00:00 PM 6.57 43.826 0.114 6.84 0.54 11.45
10/23/2022 12:15:00 PM 6.68 44.024 0.113 6.89 0.53 11.58
10/23/2022 12:30:00 PM 6.75 44.15 0.113 6.97 0.51 11.6
10/23/2022 12:45:00 PM 6.76 44.168 0.11 7.06 2.71 11.62
10/23/2022 1:00:00 PM 6.83 44.294 0.11 6.97 2.61 11.55
10/23/2022 1:15:00 PM 6.76 44.168 0.113 6.83 0.5 11.65
10/23/2022 1:30:00 PM 6.77 44.186 0.113 6.87 0.51 11.66
10/23/2022 1:45:00 PM 6.76 44.168 0.111 6.91 2.36 11.62
10/23/2022 2:00:00 PM 6.74 44.132 0.109 6.93 2.48 11.66
10/23/2022 2:15:00 PM 6.71 44.078 0.113 6.87 0.52 11.64
10/23/2022 2:30:00 PM 6.72 44.096 0.109 7.03 2.58 11.63
10/23/2022 2:45:00 PM 6.68 44.024 0.109 7.03 2.57 11.59
10/23/2022 3:00:00 PM 6.67 44.006 0.112 7.05 0.53 11.57
10/23/2022 3:15:00 PM 6.65 43.97 0.112 6.97 0.57 11.56
10/23/2022 3:30:00 PM 6.65 43.97 0.112 6.87 0.54 11.52
10/23/2022 3:45:00 PM 6.68 44.024 0.112 6.98 0.54 11.48
10/23/2022 4:00:00 PM 6.7 44.06 0.112 6.95 0.51 11.45
10/23/2022 4:15:00 PM 6.72 44.096 0.112 7.06 0.55 11.42
10/23/2022 4:30:00 PM 6.75 44.15 0.109 7.06 2.34 11.37
10/23/2022 4:45:00 PM 6.78 44.204 0.109 6.74 2.84 11.32
10/23/2022 5:00:00 PM 6.81 44.258 0.112 7.05 0.54 11.27
10/23/2022 5:15:00 PM 6.84 44.312 0.109 6.81 2.58 11.22
10/23/2022 5:30:00 PM 6.86 44.348 0.11 6.75 2.52 11.17
10/23/2022 5:45:00 PM 6.89 44.402 0.11 6.92 2.55 11.12
10/23/2022 6:00:00 PM 6.93 44.474 0.112 7.01 0.54 11.07
10/23/2022 6:15:00 PM 6.96 44.528 0.11 7 2.82 11
10/23/2022 6:30:00 PM 7 44.6 0.109 6.94 2.68 10.93
10/23/2022 6:45:00 PM 7.03 44.654 0.109 7 2.84 10.87
10/23/2022 7:00:00 PM 7.06 44.708 0.113 7.04 0.61 10.8
10/23/2022 7:15:00 PM 7.09 44.762 0.113 6.98 0.5 10.73
10/23/2022 7:30:00 PM 7.11 44.798 0.113 6.88 0.49 10.67
10/23/2022 7:45:00 PM 7.15 44.87 0.113 6.85 0.58 10.59
10/23/2022 8:00:00 PM 7.2 44.96 0.113 7.02 0.54 10.51
10/23/2022 8:15:00 PM 7.25 45.05 0.113 6.84 0.53 10.43
10/23/2022 8:30:00 PM 7.3 45.14 0.113 6.95 0.54 10.36
10/23/2022 8:45:00 PM 7.32 45.176 0.114 6.9 0.54 10.3
10/23/2022 9:00:00 PM 7.35 45.23 0.114 7.03 0.54 10.24
10/23/2022 9:15:00 PM 7.36 45.248 0.114 6.8 0.55 10.19
10/23/2022 9:30:00 PM 7.41 45.338 0.11 6.76 2.64 10.14
10/23/2022 9:45:00 PM 7.43 45.374 0.114 6.99 0.54 10.11
10/23/2022 10:00:00 PM 7.44 45.392 0.111 6.78 2.57 10.07
10/23/2022 10:15:00 PM 7.45 45.41 0.114 7.02 0.51 10.03
10/23/2022 10:30:00 PM 7.48 45.464 0.114 6.92 0.54 9.99
10/23/2022 10:45:00 PM 7.5 45.5 0.111 7.01 2.46 9.96
10/23/2022 11:00:00 PM 7.51 45.518 0.112 6.86 2.45 9.94
10/23/2022 11:15:00 PM 7.54 45.572 0.111 7.01 2.61 9.91
10/23/2022 11:30:00 PM 7.55 45.59 0.111 6.96 2.63 9.9
10/23/2022 11:45:00 PM 7.55 45.59 0.111 6.98 2.6 9.88
10/24/2022 12:00:00 AM 7.54 45.572 0.111 6.78 2.76 9.87
10/24/2022 12:15:00 AM 7.56 45.608 0.111 6.76 2.49 9.84
10/24/2022 12:30:00 AM 7.58 45.644 0.111 6.99 2.63 9.83
10/24/2022 12:45:00 AM 7.59 45.662 0.112 7 2.85 9.82
10/24/2022 1:00:00 AM 7.6 45.68 0.111 6.71 2.72 9.81
10/24/2022 1:15:00 AM 7.6 45.68 0.111 6.92 2.47 9.8
10/24/2022 1:30:00 AM 7.6 45.68 0.115 7.01 0.49 9.79
10/24/2022 1:45:00 AM 7.61 45.698 0.115 7 0.54 9.8
10/24/2022 2:00:00 AM 7.61 45.698 0.112 6.95 2.66 9.78
10/24/2022 2:15:00 AM 7.61 45.698 0.115 6.92 0.66 9.78
10/24/2022 2:30:00 AM 7.62 45.716 0.112 6.92 2.63 9.77
10/24/2022 2:45:00 AM 7.63 45.734 0.112 6.95 2.77 9.77
10/24/2022 3:00:00 AM 7.63 45.734 0.115 6.77 0.47 9.78
10/24/2022 3:15:00 AM 7.63 45.734 0.114 6.77 2.6 9.76
10/24/2022 3:30:00 AM 7.61 45.698 0.115 6.94 0.59 9.78
10/24/2022 3:45:00 AM 7.62 45.716 0.115 6.8 0.53 9.77
10/24/2022 4:00:00 AM 7.6 45.68 0.115 6.8 0.52 9.78
10/24/2022 4:15:00 AM 7.58 45.644 0.115 6.9 0.53 9.78
10/24/2022 4:30:00 AM 7.58 45.644 0.112 6.82 3.1 9.78
10/24/2022 4:45:00 AM 7.56 45.608 0.113 6.88 2.79 9.78
10/24/2022 5:00:00 AM 7.57 45.626 0.112 7 2.63 9.79
10/24/2022 5:15:00 AM 7.54 45.572 0.112 6.64 2.67 9.79
10/24/2022 5:30:00 AM 7.53 45.554 0.112 6.85 2.52 9.8
10/24/2022 5:45:00 AM 7.53 45.554 0.116 6.78 0.53 9.8
10/24/2022 6:00:00 AM 7.51 45.518 0.112 6.91 2.65 9.8
10/24/2022 6:15:00 AM 7.5 45.5 0.116 6.84 0.57 9.82
10/24/2022 6:30:00 AM 7.49 45.482 0.112 6.89 2.53 9.82
10/24/2022 6:45:00 AM 7.47 45.446 0.113 6.91 2.57 9.83
10/24/2022 7:00:00 AM 7.46 45.428 0.112 6.87 2.62 9.84
10/24/2022 7:15:00 AM 7.45 45.41 0.113 6.78 2.77 9.84
10/24/2022 7:30:00 AM 7.43 45.374 0.116 6.8 0.51 9.86
10/24/2022 7:45:00 AM 7.43 45.374 0.116 6.8 0.49 9.88
10/24/2022 8:00:00 AM 7.42 45.356 0.116 6.83 0.54 9.89
10/24/2022 8:15:00 AM 7.41 45.338 0.113 6.89 2.76 9.9
10/24/2022 8:30:00 AM 7.41 45.338 0.112 6.96 2.59 9.93
10/24/2022 8:45:00 AM 7.41 45.338 0.112 6.74 2.94 9.96
10/24/2022 9:00:00 AM 7.42 45.356 0.112 6.81 2.91 9.99
10/24/2022 9:15:00 AM 7.43 45.374 0.116 6.79 0.58 10.03
10/24/2022 9:30:00 AM 7.44 45.392 0.113 6.88 2.63 10.06
10/24/2022 9:45:00 AM 7.46 45.428 0.116 6.97 0.48 10.11
10/24/2022 10:00:00 AM 7.49 45.482 0.112 6.98 2.62 10.18
10/24/2022 10:15:00 AM 7.54 45.572 0.112 6.98 2.59 10.28
10/24/2022 10:30:00 AM 7.6 45.68 0.112 6.98 2.72 10.36
10/24/2022 10:45:00 AM 7.64 45.752 0.112 7 2.55 10.46
10/24/2022 11:00:00 AM 7.66 45.788 0.111 6.99 2.67 10.49
10/24/2022 11:15:00 AM 7.66 45.788 0.115 6.84 0.52 10.6
10/24/2022 11:30:00 AM 7.79 46.022 0.114 6.97 0.53 10.71
10/24/2022 11:45:00 AM 7.81 46.058 0.114 6.79 0.55 10.81
10/24/2022 12:00:00 PM 7.86 46.148 0.114 6.85 0.53 10.84
10/24/2022 12:15:00 PM 7.92 46.256 0.114 6.83 0.5 10.92
10/24/2022 12:30:00 PM 7.91 46.238 0.113 6.96 0.62 11.06
10/24/2022 12:45:00 PM 7.9 46.22 0.113 6.86 0.54 11.09
10/24/2022 1:00:00 PM 7.89 46.202 0.113 6.94 0.48 11.12
10/24/2022 1:15:00 PM 7.89 46.202 0.113 6.92 0.58 11.12
10/24/2022 1:30:00 PM 7.95 46.31 0.113 7.01 0.54 11.18
10/24/2022 1:45:00 PM 8.02 46.436 0.113 7 0.51 11.17
10/24/2022 2:00:00 PM 8.07 46.526 0.113 6.92 0.53 11.23
10/24/2022 2:15:00 PM 8.11 46.598 0.112 7.02 0.51 11.19
10/24/2022 2:30:00 PM 8.09 46.562 0.112 6.97 0.52 11.19
10/24/2022 2:45:00 PM 8.07 46.526 0.112 7 0.51 11.15
10/24/2022 3:00:00 PM 8.1 46.58 0.11 6.87 2.94 11.15
10/24/2022 3:15:00 PM 8.11 46.598 0.112 6.84 0.48 11.19
10/24/2022 3:30:00 PM 8.12 46.616 0.112 6.99 0.51 11.13
10/24/2022 3:45:00 PM 8.16 46.688 0.109 7.01 2.58 11.07
10/24/2022 4:00:00 PM 8.17 46.706 0.109 6.8 2.58 11.01
10/24/2022 4:15:00 PM 8.19 46.742 0.112 7.04 0.54 10.92
10/24/2022 4:30:00 PM 8.23 46.814 0.112 6.88 0.51 10.84
10/24/2022 4:45:00 PM 8.27 46.886 0.108 6.99 2.48 10.77
10/24/2022 5:00:00 PM 8.29 46.922 0.109 6.86 2.84 10.69
10/24/2022 5:15:00 PM 8.33 46.994 0.112 6.85 0.52 10.62
10/24/2022 5:30:00 PM 8.39 47.102 0.109 6.93 2.95 10.56
10/24/2022 5:45:00 PM 8.49 47.282 0.113 6.79 0.54 10.47
10/24/2022 6:00:00 PM 8.54 47.372 0.113 6.9 0.53 10.37
10/24/2022 6:15:00 PM 8.6 47.48 0.113 7.03 0.59 10.28
10/24/2022 6:30:00 PM 8.62 47.516 0.113 6.98 0.5 10.19
10/24/2022 6:45:00 PM 8.64 47.552 0.113 6.77 0.54 10.14
10/24/2022 7:00:00 PM 8.65 47.57 0.113 6.98 0.53 10.07
10/24/2022 7:15:00 PM 8.68 47.624 0.113 6.96 0.5 9.99
10/24/2022 7:30:00 PM 8.71 47.678 0.114 6.79 0.55 9.92
10/24/2022 7:45:00 PM 8.73 47.714 0.114 6.95 0.5 9.84
10/24/2022 8:00:00 PM 8.77 47.786 0.114 6.91 0.52 9.76
10/24/2022 8:15:00 PM 8.8 47.84 0.114 6.95 0.54 9.7
10/24/2022 8:30:00 PM 8.84 47.912 0.114 6.89 0.54 9.63
10/24/2022 8:45:00 PM 8.85 47.93 0.114 6.92 0.53 9.57
10/24/2022 9:00:00 PM 8.89 48.002 0.114 6.91 0.49 9.52
10/24/2022 9:15:00 PM 8.9 48.02 0.115 6.92 0.53 9.48
10/24/2022 9:30:00 PM 8.93 48.074 0.112 6.91 2.6 9.43
10/24/2022 9:45:00 PM 8.95 48.11 0.111 6.96 2.86 9.4
10/24/2022 10:00:00 PM 8.96 48.128 0.115 6.85 0.52 9.36
10/24/2022 10:15:00 PM 8.99 48.182 0.115 6.95 1.34 9.33
10/24/2022 10:30:00 PM 9 48.2 0.115 6.76 0.51 9.31
10/24/2022 10:45:00 PM 9.01 48.218 0.111 6.99 2.73 9.28
10/24/2022 11:00:00 PM 9.05 48.29 0.115 7 0.52 9.26
10/24/2022 11:15:00 PM 9.03 48.254 0.112 6.74 2.6 9.25
10/24/2022 11:30:00 PM 9.05 48.29 0.115 6.99 0.55 9.23
10/24/2022 11:45:00 PM 9.05 48.29 0.115 6.86 0.5 9.22
10/25/2022 12:00:00 AM 9.09 48.362 0.112 6.99 2.54 9.2
10/25/2022 12:15:00 AM 9.11 48.398 0.115 6.88 0.52 9.18
10/25/2022 12:30:00 AM 9.11 48.398 0.116 6.96 0.54 9.18
10/25/2022 12:45:00 AM 9.16 48.488 0.116 6.97 0.49 9.17
10/25/2022 1:00:00 AM 9.14 48.452 0.112 6.91 2.63 9.16
10/25/2022 1:15:00 AM 9.14 48.452 0.116 6.94 0.53 9.16
10/25/2022 1:30:00 AM 9.14 48.452 0.112 6.94 2.48 9.14
10/25/2022 1:45:00 AM 9.19 48.542 0.116 6.94 0.54 9.14
10/25/2022 2:00:00 AM 9.18 48.524 0.116 6.87 0.49 9.13
10/25/2022 2:15:00 AM 9.18 48.524 0.116 6.99 0.5 9.13
10/25/2022 2:30:00 AM 9.19 48.542 0.116 6.88 0.58 9.12
10/25/2022 2:45:00 AM 9.18 48.524 0.116 6.94 0.61 9.13
10/25/2022 3:00:00 AM 9.19 48.542 0.116 6.96 0.47 9.11
10/25/2022 3:15:00 AM 9.17 48.506 0.116 6.71 0.49 9.11
10/25/2022 3:30:00 AM 9.18 48.524 0.116 6.78 0.51 9.11
10/25/2022 3:45:00 AM 9.17 48.506 0.116 6.75 0.51 9.1
10/25/2022 4:00:00 AM 9.17 48.506 0.116 6.78 0.53 9.09
10/25/2022 4:15:00 AM 9.17 48.506 0.116 6.75 0.49 9.09
10/25/2022 4:30:00 AM 9.18 48.524 0.116 6.96 0.53 9.09
10/25/2022 4:45:00 AM 9.18 48.524 0.113 6.98 2.6 9.08
10/25/2022 5:00:00 AM 9.16 48.488 0.113 6.65 2.6 9.08
10/25/2022 5:15:00 AM 9.17 48.506 0.116 6.97 0.5 9.08
10/25/2022 5:30:00 AM 9.16 48.488 0.113 6.98 2.51 9.07
10/25/2022 5:45:00 AM 9.16 48.488 0.116 6.97 0.5 9.06
10/25/2022 6:00:00 AM 9.16 48.488 0.116 6.85 0.54 9.07
10/25/2022 6:15:00 AM 9.17 48.506 0.113 6.88 2.6 9.06
10/25/2022 6:30:00 AM 9.18 48.524 0.116 6.95 0.51 9.05
10/25/2022 6:45:00 AM 9.18 48.524 0.116 6.73 0.49 9.05
10/25/2022 7:00:00 AM 9.18 48.524 0.116 6.84 0.52 9.05
10/25/2022 7:15:00 AM 9.2 48.56 0.117 6.88 0.55 9.04
10/25/2022 7:30:00 AM 9.19 48.542 0.113 6.86 2.61 9.04
10/25/2022 7:45:00 AM 9.2 48.56 0.117 6.96 0.53 9.04
10/25/2022 8:00:00 AM 9.22 48.596 0.113 6.64 2.7 9.05
10/25/2022 8:15:00 AM 9.23 48.614 0.117 6.95 0.6 9.06
10/25/2022 8:30:00 AM 9.25 48.65 0.117 6.79 0.55 9.08
10/25/2022 8:45:00 AM 9.27 48.686 0.117 6.97 0.56 9.1
10/25/2022 9:00:00 AM 9.27 48.686 0.117 6.78 0.56 9.12
10/25/2022 9:15:00 AM 9.29 48.722 0.117 6.76 0.5 9.14
10/25/2022 9:30:00 AM 9.31 48.758 0.117 6.75 0.58 9.19
10/25/2022 9:45:00 AM 9.34 48.812 0.117 6.82 0.54 9.26
10/25/2022 10:00:00 AM 9.4 48.92 0.117 6.99 0.53 9.35
10/25/2022 10:15:00 AM 9.45 49.01 0.116 6.86 0.54 9.41
10/25/2022 10:30:00 AM 9.48 49.064 0.116 6.97 0.59 9.48
10/25/2022 10:45:00 AM 9.51 49.118 0.115 6.92 2.61 9.54
10/25/2022 11:00:00 AM 9.52 49.136 0.116 6.74 0.5 9.63
10/25/2022 11:15:00 AM 9.56 49.208 0.116 6.8 0.52 9.73
10/25/2022 11:30:00 AM 9.61 49.298 0.115 6.76 0.53 9.85
10/25/2022 11:45:00 AM 9.68 49.424 0.115 6.96 0.51 9.97
10/25/2022 12:00:00 PM 9.71 49.478 0.112 6.72 2.75 10.05
10/25/2022 12:15:00 PM 9.73 49.514 0.114 6.92 0.54 10.1
10/25/2022 12:30:00 PM 9.8 49.64 0.114 6.95 0.52 10.24
10/25/2022 12:45:00 PM 9.81 49.658 0.111 6.9 2.59 10.26
10/25/2022 1:00:00 PM 9.92 49.856 0.114 6.99 0.51 10.36
10/25/2022 1:15:00 PM 10 50 0.111 6.95 2.64 10.41
10/25/2022 1:30:00 PM 10.09 50.162 0.113 6.98 0.55 10.4
10/25/2022 1:45:00 PM 10.04 50.072 0.113 6.93 0.54 10.41
10/25/2022 2:00:00 PM 10.05 50.09 0.113 6.88 0.56 10.42
10/25/2022 2:15:00 PM 10.02 50.036 0.113 6.8 0.54 10.42
10/25/2022 2:30:00 PM 10.04 50.072 0.109 6.96 2.7 10.36
10/25/2022 2:45:00 PM 10.01 50.018 0.113 6.95 0.49 10.3
10/25/2022 3:00:00 PM 10.05 50.09 0.113 6.86 0.51 10.28
10/25/2022 3:15:00 PM 10.02 50.036 0.113 6.9 0.51 10.21
10/25/2022 3:30:00 PM 10.02 50.036 0.109 7 2.68 10.13
10/25/2022 3:45:00 PM 10.04 50.072 0.113 6.91 0.51 10.07
10/25/2022 4:00:00 PM 10.06 50.108 0.113 6.75 0.49 9.99
10/25/2022 4:15:00 PM 10.08 50.144 0.111 6.9 2.88 9.92
10/25/2022 4:30:00 PM 10.1 50.18 0.113 6.86 0.5 9.85
10/25/2022 4:45:00 PM 10.13 50.234 0.113 6.88 0.5 9.78
10/25/2022 5:00:00 PM 10.14 50.252 0.111 6.98 2.71 9.7
10/25/2022 5:15:00 PM 10.19 50.342 0.114 6.74 0.48 9.64
10/25/2022 5:30:00 PM 10.22 50.396 0.114 6.91 0.49 9.56
10/25/2022 5:45:00 PM 10.21 50.378 0.114 6.95 0.52 9.51
10/25/2022 6:00:00 PM 10.26 50.468 0.114 6.92 0.53 9.44
10/25/2022 6:15:00 PM 10.3 50.54 0.114 6.79 0.64 9.37
10/25/2022 6:30:00 PM 10.36 50.648 0.114 6.79 0.5 9.31
10/25/2022 6:45:00 PM 10.39 50.702 0.111 6.92 2.66 9.25
10/25/2022 7:00:00 PM 10.46 50.828 0.114 6.93 0.49 9.2
10/25/2022 7:15:00 PM 10.48 50.864 0.114 6.72 0.5 9.14
10/25/2022 7:30:00 PM 10.48 50.864 0.114 6.75 0.54 9.08
10/25/2022 7:45:00 PM 10.53 50.954 0.115 6.76 0.51 9.02
10/25/2022 8:00:00 PM 10.51 50.918 0.112 6.86 2.55 8.96
10/25/2022 8:15:00 PM 10.56 51.008 0.115 6.72 0.54 8.91
10/25/2022 8:30:00 PM 10.59 51.062 0.115 6.81 0.48 8.85
10/25/2022 8:45:00 PM 10.6 51.08 0.113 6.74 2.36 8.8
10/25/2022 9:00:00 PM 10.59 51.062 0.113 6.96 2.66 8.75
10/25/2022 9:15:00 PM 10.6 51.08 0.115 6.7 0.51 8.71
10/25/2022 9:30:00 PM 10.68 51.224 0.112 6.92 2.38 8.66
10/25/2022 9:45:00 PM 10.67 51.206 0.115 6.97 0.53 8.63
10/25/2022 10:00:00 PM 10.69 51.242 0.115 6.75 0.53 8.6
10/25/2022 10:15:00 PM 10.69 51.242 0.115 6.73 0.48 8.58
10/25/2022 10:30:00 PM 10.68 51.224 0.115 6.75 0.47 8.54
10/25/2022 10:45:00 PM 10.73 51.314 0.116 6.73 0.53 8.52
10/25/2022 11:00:00 PM 10.74 51.332 0.114 6.87 2.66 8.49
10/25/2022 11:15:00 PM 10.76 51.368 0.113 6.88 2.54 8.47
10/25/2022 11:30:00 PM 10.78 51.404 0.116 6.91 0.48 8.45
10/25/2022 11:45:00 PM 10.79 51.422 0.116 6.71 0.53 8.42
10/26/2022 12:00:00 AM 10.79 51.422 0.113 6.64 2.58 8.41
10/26/2022 12:15:00 AM 10.81 51.458 0.116 6.95 0.5 8.39
10/26/2022 12:30:00 AM 10.82 51.476 0.116 6.86 0.51 8.38
10/26/2022 12:45:00 AM 10.83 51.494 0.116 6.74 0.52 8.37
10/26/2022 1:00:00 AM 10.84 51.512 0.116 6.72 0.52 8.35
10/26/2022 1:15:00 AM 10.84 51.512 0.116 6.92 0.5 8.34
10/26/2022 1:30:00 AM 10.85 51.53 0.116 6.88 0.5 8.34
10/26/2022 1:45:00 AM 10.85 51.53 0.116 6.7 0.54 8.32
10/26/2022 2:00:00 AM 10.87 51.566 0.112 6.69 2.8 8.31
10/26/2022 2:15:00 AM 10.87 51.566 0.114 6.94 2.56 8.31
10/26/2022 2:30:00 AM 10.86 51.548 0.116 6.77 0.56 8.31
10/26/2022 2:45:00 AM 10.86 51.548 0.116 6.88 0.53 8.3
10/26/2022 3:00:00 AM 10.87 51.566 0.116 6.69 0.49 8.29
10/26/2022 3:15:00 AM 10.88 51.584 0.116 6.79 0.54 8.29
10/26/2022 3:30:00 AM 10.89 51.602 0.116 6.92 0.55 8.29
10/26/2022 3:45:00 AM 10.87 51.566 0.116 6.93 0.6 8.28
10/26/2022 4:00:00 AM 10.87 51.566 0.113 6.91 2.63 8.28
10/26/2022 4:15:00 AM 10.87 51.566 0.117 6.84 0.52 8.29
10/26/2022 4:30:00 AM 10.84 51.512 0.113 6.95 2.34 8.28
10/26/2022 4:45:00 AM 10.83 51.494 0.117 6.94 0.51 8.29
10/26/2022 5:00:00 AM 10.81 51.458 0.117 6.88 0.53 8.29
10/26/2022 5:15:00 AM 10.81 51.458 0.117 6.86 0.54 8.3
10/26/2022 5:30:00 AM 10.79 51.422 0.117 6.95 0.53 8.29
10/26/2022 5:45:00 AM 10.82 51.476 0.117 6.88 0.5 8.31
10/26/2022 6:00:00 AM 10.82 51.476 0.117 6.72 0.5 8.31
10/26/2022 6:15:00 AM 10.82 51.476 0.117 6.73 0.53 8.31
10/26/2022 6:30:00 AM 10.81 51.458 0.117 6.93 0.52 8.32
10/26/2022 6:45:00 AM 10.8 51.44 0.113 6.92 2.43 8.31
10/26/2022 7:00:00 AM 10.82 51.476 0.117 6.85 0.53 8.33
10/26/2022 7:15:00 AM 10.79 51.422 0.117 6.94 0.52 8.33
10/26/2022 7:30:00 AM 10.79 51.422 0.115 6.95 2.69 8.34
10/26/2022 7:45:00 AM 10.78 51.404 0.117 6.89 0.68 8.35
10/26/2022 8:00:00 AM 10.79 51.422 0.117 6.69 0.56 8.38
10/26/2022 8:15:00 AM 10.77 51.386 0.117 6.91 0.54 8.39
10/26/2022 8:30:00 AM 10.78 51.404 0.117 6.69 0.61 8.43
10/26/2022 8:45:00 AM 10.79 51.422 0.117 6.89 0.55 8.48
10/26/2022 9:00:00 AM 10.78 51.404 0.117 6.82 0.56 8.51
10/26/2022 9:15:00 AM 10.81 51.458 0.117 6.75 0.54 8.57
10/26/2022 9:30:00 AM 10.83 51.494 0.117 6.86 0.56 8.63
10/26/2022 9:45:00 AM 10.84 51.512 0.117 6.86 0.55 8.69
10/26/2022 10:00:00 AM 10.84 51.512 0.116 6.83 0.51 8.78
10/26/2022 10:15:00 AM 10.83 51.494 0.116 6.73 0.54 8.87
10/26/2022 10:30:00 AM 10.85 51.53 0.112 6.88 2.8 8.99
10/26/2022 10:45:00 AM 10.83 51.494 0.116 6.94 0.52 9.12
10/26/2022 11:00:00 AM 10.79 51.422 0.113 6.98 2.71 9.19
10/26/2022 11:15:00 AM 10.78 51.404 0.115 6.75 0.52 9.3
10/26/2022 11:30:00 AM 10.84 51.512 0.115 6.82 0.54 9.46
10/26/2022 11:45:00 AM 10.92 51.656 0.114 6.77 0.54 9.57
10/26/2022 12:00:00 PM 10.96 51.728 0.114 6.86 0.6 9.65
10/26/2022 12:15:00 PM 10.97 51.746 0.114 6.91 0.53 9.71
10/26/2022 12:30:00 PM 11 51.8 0.114 6.98 0.56 9.76
10/26/2022 12:45:00 PM 11.09 51.962 0.11 6.92 2.7 9.83
10/26/2022 1:00:00 PM 11.12 52.016 0.113 6.98 0.58 9.87
10/26/2022 1:15:00 PM 11.05 51.89 0.113 6.89 0.59 9.91
10/26/2022 1:30:00 PM 11 51.8 0.113 6.97 0.55 9.96
10/26/2022 1:45:00 PM 11.01 51.818 0.113 6.87 0.51 10
10/26/2022 2:00:00 PM 11.03 51.854 0.109 7.03 2.78 10.06
10/26/2022 2:15:00 PM 11.01 51.818 0.112 7.01 0.52 10
10/26/2022 2:30:00 PM 11.03 51.854 0.109 6.94 2.9 10.03
10/26/2022 2:45:00 PM 11.03 51.854 0.111 6.74 2.52 10.01
10/26/2022 3:00:00 PM 11.02 51.836 0.112 6.76 0.69 9.96
10/26/2022 3:15:00 PM 11.02 51.836 0.112 6.94 0.58 9.93
10/26/2022 3:30:00 PM 11.03 51.854 0.112 6.73 0.58 9.92
10/26/2022 3:45:00 PM 11.03 51.854 0.109 6.92 2.65 9.85
10/26/2022 4:00:00 PM 11.06 51.908 0.112 6.74 0.56 9.86
10/26/2022 4:15:00 PM 11.09 51.962 0.11 6.94 2.42 9.77
10/26/2022 4:30:00 PM 11.1 51.98 0.109 6.97 2.59 9.7
10/26/2022 4:45:00 PM 11.14 52.052 0.109 6.98 2.72 9.61
10/26/2022 5:00:00 PM 11.16 52.088 0.112 6.99 0.53 9.54
10/26/2022 5:15:00 PM 11.2 52.16 0.109 6.96 2.81 9.46
10/26/2022 5:30:00 PM 11.22 52.196 0.113 6.78 0.56 9.37
10/26/2022 5:45:00 PM 11.25 52.25 0.11 6.96 2.67 9.26
10/26/2022 6:00:00 PM 11.29 52.322 0.113 6.97 0.54 9.16
10/26/2022 6:15:00 PM 11.3 52.34 0.11 6.78 2.75 9.08
10/26/2022 6:30:00 PM 11.31 52.358 0.114 6.98 0.52 9
10/26/2022 6:45:00 PM 11.36 52.448 0.114 6.71 0.54 8.95
10/26/2022 7:00:00 PM 11.37 52.466 0.112 6.72 2.44 8.87
10/26/2022 7:15:00 PM 11.41 52.538 0.114 6.9 0.59 8.82
10/26/2022 7:30:00 PM 11.44 52.592 0.112 6.67 2.72 8.74
10/26/2022 7:45:00 PM 11.44 52.592 0.115 6.88 0.52 8.67
10/26/2022 8:00:00 PM 11.45 52.61 0.115 6.81 0.5 8.6
10/26/2022 8:15:00 PM 11.46 52.628 0.115 6.96 0.5 8.57
10/26/2022 8:30:00 PM 11.47 52.646 0.115 6.94 0.54 8.51
10/26/2022 8:45:00 PM 11.49 52.682 0.113 6.66 2.59 8.45
10/26/2022 9:00:00 PM 11.49 52.682 0.115 6.72 0.51 8.4
10/26/2022 9:15:00 PM 11.49 52.682 0.115 6.74 0.52 8.37
10/26/2022 9:30:00 PM 11.52 52.736 0.113 6.94 2.82 8.33
10/26/2022 9:45:00 PM 11.52 52.736 0.116 6.82 0.52 8.31
10/26/2022 10:00:00 PM 11.49 52.682 0.116 6.92 0.56 8.28
10/26/2022 10:15:00 PM 11.49 52.682 0.116 6.79 0.51 8.26
10/26/2022 10:30:00 PM 11.49 52.682 0.116 6.93 0.55 8.25
10/26/2022 10:45:00 PM 11.49 52.682 0.114 6.87 2.9 8.23
10/26/2022 11:00:00 PM 11.45 52.61 0.116 6.7 0.62 8.22
10/26/2022 11:15:00 PM 11.44 52.592 0.116 6.83 0.52 8.2
10/26/2022 11:30:00 PM 11.45 52.61 0.116 6.9 0.53 8.21
10/26/2022 11:45:00 PM 11.45 52.61 0.116 6.91 0.52 8.19
10/27/2022 12:00:00 AM 11.44 52.592 0.116 6.86 0.48 8.16
10/27/2022 12:15:00 AM 11.42 52.556 0.116 6.7 0.58 8.16
10/27/2022 12:30:00 AM 11.4 52.52 0.116 6.79 0.55 8.17
10/27/2022 12:45:00 AM 11.38 52.484 0.116 6.96 0.54 8.18
10/27/2022 1:00:00 AM 11.37 52.466 0.116 6.94 0.52 8.19
10/27/2022 1:15:00 AM 11.34 52.412 0.116 6.67 0.5 8.16
10/27/2022 1:30:00 AM 11.34 52.412 0.116 6.93 0.56 8.18
10/27/2022 1:45:00 AM 11.32 52.376 0.114 6.96 2.59 8.17
10/27/2022 2:00:00 AM 11.31 52.358 0.116 6.68 0.52 8.19
10/27/2022 2:15:00 AM 11.31 52.358 0.116 6.94 0.59 8.21
10/27/2022 2:30:00 AM 11.28 52.304 0.116 6.7 0.51 8.2
10/27/2022 2:45:00 AM 11.26 52.268 0.112 6.94 2.39 8.21
10/27/2022 3:00:00 AM 11.24 52.232 0.116 6.93 0.49 8.23
10/27/2022 3:15:00 AM 11.24 52.232 0.113 6.86 2.45 8.22
10/27/2022 3:30:00 AM 11.2 52.16 0.116 6.95 0.58 8.23
10/27/2022 3:45:00 AM 11.17 52.106 0.116 6.93 0.5 8.23
10/27/2022 4:00:00 AM 11.16 52.088 0.112 6.88 2.65 8.25
10/27/2022 4:15:00 AM 11.14 52.052 0.116 6.73 0.51 8.28
10/27/2022 4:30:00 AM 11.09 51.962 0.113 6.96 2.78 8.29
10/27/2022 4:45:00 AM 11.05 51.89 0.116 6.71 0.52 8.31
10/27/2022 5:00:00 AM 11 51.8 0.113 6.96 2.49 8.31
10/27/2022 5:15:00 AM 10.96 51.728 0.116 6.95 0.55 8.33
10/27/2022 5:30:00 AM 10.93 51.674 0.116 6.87 0.58 8.36
10/27/2022 5:45:00 AM 10.89 51.602 0.116 6.75 0.54 8.37
10/27/2022 6:00:00 AM 10.86 51.548 0.116 6.78 0.56 8.39
10/27/2022 6:15:00 AM 10.83 51.494 0.116 6.92 0.52 8.37
10/27/2022 6:30:00 AM 10.8 51.44 0.116 6.93 0.54 8.4
10/27/2022 6:45:00 AM 10.77 51.386 0.113 6.88 2.67 8.43
10/27/2022 7:00:00 AM 10.73 51.314 0.114 6.63 2.86 8.44
10/27/2022 7:15:00 AM 10.7 51.26 0.117 6.79 0.79 8.47
10/27/2022 7:30:00 AM 10.66 51.188 0.117 6.76 0.53 8.45
10/27/2022 7:45:00 AM 10.62 51.116 0.113 6.96 2.62 8.48
10/27/2022 8:00:00 AM 10.58 51.044 0.117 6.96 0.54 8.52
10/27/2022 8:15:00 AM 10.56 51.008 0.117 6.71 0.53 8.56
10/27/2022 8:30:00 AM 10.53 50.954 0.114 6.95 2.57 8.6
10/27/2022 8:45:00 AM 10.53 50.954 0.117 6.78 0.51 8.66
10/27/2022 9:00:00 AM 10.52 50.936 0.117 6.72 0.53 8.73
10/27/2022 9:15:00 AM 10.5 50.9 0.113 6.92 2.62 8.75
10/27/2022 9:30:00 AM 10.47 50.846 0.116 6.97 0.47 8.81
10/27/2022 9:45:00 AM 10.47 50.846 0.113 6.59 2.53 8.9
10/27/2022 10:00:00 AM 10.45 50.81 0.112 6.87 2.75 9.01
10/27/2022 10:15:00 AM 10.45 50.81 0.116 6.98 0.55 9.11
10/27/2022 10:30:00 AM 10.39 50.702 0.116 6.95 0.51 9.23
10/27/2022 10:45:00 AM 10.35 50.63 0.116 6.75 0.57 9.34
10/27/2022 11:00:00 AM 10.36 50.648 0.113 6.97 2.71 9.45
10/27/2022 11:15:00 AM 10.37 50.666 0.115 6.73 0.56 9.62
10/27/2022 11:30:00 AM 10.41 50.738 0.115 6.98 0.52 9.75
10/27/2022 11:45:00 AM 10.42 50.756 0.114 6.92 0.52 9.85
10/27/2022 12:00:00 PM 10.46 50.828 0.111 6.68 2.9 9.91
10/27/2022 12:15:00 PM 10.49 50.882 0.114 6.95 0.53 10.06
10/27/2022 12:30:00 PM 10.52 50.936 0.111 6.7 2.5 10.13
10/27/2022 12:45:00 PM 10.47 50.846 0.113 6.78 0.52 10.17
10/27/2022 1:00:00 PM 10.46 50.828 0.11 7 2.79 10.22
10/27/2022 1:15:00 PM 10.4 50.72 0.113 7.02 0.56 10.28
10/27/2022 1:30:00 PM 10.42 50.756 0.113 7 0.53 10.26
10/27/2022 1:45:00 PM 10.3 50.54 0.113 7 0.53 10.26
10/27/2022 2:00:00 PM 10.26 50.468 0.111 6.78 2.85 10.28
10/27/2022 2:15:00 PM 10.22 50.396 0.113 6.91 0.57 10.28
10/27/2022 2:30:00 PM 10.17 50.306 0.113 6.79 0.57 10.28
10/27/2022 2:45:00 PM 10.13 50.234 0.113 6.95 0.5 10.25
10/27/2022 3:00:00 PM 10.1 50.18 0.113 6.78 0.53 10.2
10/27/2022 3:15:00 PM 10.04 50.072 0.113 6.81 0.53 10.18
10/27/2022 3:30:00 PM 9.98 49.964 0.111 7.02 2.64 10.16
10/27/2022 3:45:00 PM 9.92 49.856 0.113 6.78 0.63 10.13
10/27/2022 4:00:00 PM 9.91 49.838 0.111 6.97 2.72 10.1
10/27/2022 4:15:00 PM 9.9 49.82 0.113 6.85 0.57 10.04
10/27/2022 4:30:00 PM 9.88 49.784 0.113 6.82 0.54 10
10/27/2022 4:45:00 PM 9.86 49.748 0.111 7 2.64 9.96
10/27/2022 5:00:00 PM 9.84 49.712 0.113 6.82 0.54 9.92
10/27/2022 5:15:00 PM 9.82 49.676 0.113 6.78 0.59 9.89
10/27/2022 5:30:00 PM 9.8 49.64 0.11 6.96 2.73 9.86
10/27/2022 5:45:00 PM 9.79 49.622 0.113 6.91 0.51 9.81
10/27/2022 6:00:00 PM 9.78 49.604 0.114 6.8 0.57 9.77
10/27/2022 6:15:00 PM 9.74 49.532 0.11 7.01 2.84 9.73
10/27/2022 6:30:00 PM 9.72 49.496 0.114 6.99 0.52 9.69
10/27/2022 6:45:00 PM 9.69 49.442 0.114 6.79 0.64 9.67
10/27/2022 7:00:00 PM 9.66 49.388 0.114 6.83 0.6 9.65
10/27/2022 7:15:00 PM 9.63 49.334 0.114 6.77 0.56 9.62
10/27/2022 7:30:00 PM 9.6 49.28 0.114 6.97 0.54 9.59
10/27/2022 7:45:00 PM 9.57 49.226 0.111 6.8 2.69 9.54
10/27/2022 8:00:00 PM 9.55 49.19 0.114 6.74 4.4 9.49
10/27/2022 8:15:00 PM 9.52 49.136 0.111 6.76 2.61 9.47
10/27/2022 8:30:00 PM 9.5 49.1 0.114 6.79 0.58 9.44
10/27/2022 8:45:00 PM 9.48 49.064 0.114 6.78 0.54 9.41
10/27/2022 9:00:00 PM 9.44 48.992 0.115 6.79 0.54 9.39
10/27/2022 9:15:00 PM 9.42 48.956 0.112 6.9 2.63 9.36
10/27/2022 9:30:00 PM 9.39 48.902 0.115 6.81 0.5 9.36
10/27/2022 9:45:00 PM 9.36 48.848 0.115 6.78 0.56 9.35
10/27/2022 10:00:00 PM 9.32 48.776 0.115 6.79 0.63 9.35
10/27/2022 10:15:00 PM 9.31 48.758 0.111 6.77 2.44 9.33
10/27/2022 10:30:00 PM 9.28 48.704 0.115 6.78 0.57 9.35
10/27/2022 10:45:00 PM 9.23 48.614 0.115 6.79 0.6 9.36
10/27/2022 11:00:00 PM 9.21 48.578 0.115 6.79 0.56 9.35
10/27/2022 11:15:00 PM 9.19 48.542 0.115 6.79 0.58 9.35
10/27/2022 11:30:00 PM 9.14 48.452 0.115 6.79 0.64 9.36
10/27/2022 11:45:00 PM 9.11 48.398 0.112 6.79 2.63 9.38
10/28/2022 12:00:00 AM 9.06 48.308 0.115 6.78 0.61 9.4
10/28/2022 12:15:00 AM 9.02 48.236 0.115 6.78 0.57 9.41
10/28/2022 12:30:00 AM 8.97 48.146 0.115 6.79 0.65 9.43
10/28/2022 12:45:00 AM 8.93 48.074 0.115 6.78 0.59 9.45
10/28/2022 1:00:00 AM 8.89 48.002 0.115 6.79 0.57 9.48
10/28/2022 1:15:00 AM 8.84 47.912 0.115 6.8 0.59 9.48
10/28/2022 1:30:00 AM 8.8 47.84 0.115 6.83 0.55 9.51
10/28/2022 1:45:00 AM 8.74 47.732 0.115 6.79 0.56 9.54
10/28/2022 2:00:00 AM 8.7 47.66 0.115 6.78 0.64 9.54
10/28/2022 2:15:00 AM 8.64 47.552 0.115 6.79 0.6 9.59
10/28/2022 2:30:00 AM 8.61 47.498 0.115 6.81 0.61 9.58
10/28/2022 2:45:00 AM 8.55 47.39 0.115 6.81 0.56 9.61
10/28/2022 3:00:00 AM 8.51 47.318 0.115 6.9 0.55 9.63
10/28/2022 3:15:00 AM 8.46 47.228 0.115 6.8 0.58 9.65
10/28/2022 3:30:00 AM 8.44 47.192 0.115 6.78 0.57 9.67
10/28/2022 3:45:00 AM 8.39 47.102 0.115 6.79 0.54 9.69
10/28/2022 4:00:00 AM 8.32 46.976 0.115 6.78 0.6 9.71
10/28/2022 4:15:00 AM 8.29 46.922 0.114 6.78 2.87 9.72
10/28/2022 4:30:00 AM 8.22 46.796 0.112 6.76 2.87 9.76
10/28/2022 4:45:00 AM 8.16 46.688 0.115 6.87 0.53 9.8
10/28/2022 5:00:00 AM 8.1 46.58 0.115 6.77 0.54 9.83
10/28/2022 5:15:00 AM 8.06 46.508 0.112 6.78 2.73 9.82
10/28/2022 5:30:00 AM 8.01 46.418 0.114 6.77 2.58 9.85
10/28/2022 5:45:00 AM 7.95 46.31 0.116 6.79 0.59 9.88
10/28/2022 6:00:00 AM 7.92 46.256 0.115 6.82 0.58 9.89
10/28/2022 6:15:00 AM 7.84 46.112 0.116 6.78 0.74 9.92
10/28/2022 6:30:00 AM 7.77 45.986 0.116 6.82 0.52 9.96
10/28/2022 6:45:00 AM 7.73 45.914 0.116 6.81 0.55 9.98
10/28/2022 7:00:00 AM 7.67 45.806 0.112 6.79 2.41 10
10/28/2022 7:15:00 AM 7.63 45.734 0.112 6.78 2.71 10.01
10/28/2022 7:30:00 AM 7.57 45.626 0.116 6.79 0.58 10.04
10/28/2022 7:45:00 AM 7.51 45.518 0.116 6.85 0.52 10.08
10/28/2022 8:00:00 AM 7.45 45.41 0.112 6.95 2.59 10.12
10/28/2022 8:15:00 AM 7.43 45.374 0.112 6.86 2.64 10.15
10/28/2022 8:30:00 AM 7.4 45.32 0.112 6.77 2.52 10.2
10/28/2022 8:45:00 AM 7.36 45.248 0.116 6.82 0.55 10.25
10/28/2022 9:00:00 AM 7.33 45.194 0.116 6.85 0.55 10.28
10/28/2022 9:15:00 AM 7.3 45.14 0.116 6.84 0.61 10.35
10/28/2022 9:30:00 AM 7.29 45.122 0.116 6.86 0.55 10.41
10/28/2022 9:45:00 AM 7.32 45.176 0.115 6.83 0.57 10.49
10/28/2022 10:00:00 AM 7.28 45.104 0.115 6.92 0.53 10.59
10/28/2022 10:15:00 AM 7.33 45.194 0.115 6.82 0.56 10.64
10/28/2022 10:30:00 AM 7.28 45.104 0.115 6.83 0.51 10.77
10/28/2022 10:45:00 AM 7.28 45.104 0.115 6.89 0.55 10.87
10/28/2022 11:00:00 AM 7.28 45.104 0.114 6.94 0.54 10.99
10/28/2022 11:15:00 AM 7.3 45.14 0.114 6.85 0.61 11.11
10/28/2022 11:30:00 AM 7.29 45.122 0.114 6.89 0.53 11.2
10/28/2022 11:45:00 AM 7.35 45.23 0.114 6.85 0.52 11.31
10/28/2022 12:00:00 PM 7.45 45.41 0.11 7.01 2.77 11.3
10/28/2022 12:15:00 PM 7.47 45.446 0.113 6.87 0.57 11.41
10/28/2022 12:30:00 PM 7.5 45.5 0.109 7.04 2.63 11.51
10/28/2022 12:45:00 PM 7.52 45.536 0.109 6.89 2.52 11.53
10/28/2022 1:00:00 PM 7.47 45.446 0.113 6.95 0.52 11.67
10/28/2022 1:15:00 PM 7.47 45.446 0.109 6.84 2.86 11.6
10/28/2022 1:30:00 PM 7.46 45.428 0.109 6.92 2.83 11.67
10/28/2022 1:45:00 PM 7.45 45.41 0.11 6.86 2.61 11.58
10/28/2022 2:00:00 PM 7.42 45.356 0.112 6.91 0.55 11.66
10/28/2022 2:15:00 PM 7.35 45.23 0.112 6.86 0.53 11.63
10/28/2022 2:30:00 PM 7.34 45.212 0.112 6.89 0.52 11.64
10/28/2022 2:45:00 PM 7.36 45.248 0.112 6.99 0.54 11.55
10/28/2022 3:00:00 PM 7.38 45.284 0.112 6.87 0.5 11.53
10/28/2022 3:15:00 PM 7.28 45.104 0.112 6.89 0.53 11.58
10/28/2022 3:30:00 PM 7.28 45.104 0.112 6.94 0.57 11.58
10/28/2022 3:45:00 PM 7.32 45.176 0.112 6.88 0.51 11.53
10/28/2022 4:00:00 PM 7.28 45.104 0.112 6.88 0.53 11.56
10/28/2022 4:15:00 PM 7.26 45.068 0.112 6.95 0.57 11.56
10/28/2022 4:30:00 PM 7.25 45.05 0.112 6.88 0.53 11.56
10/28/2022 4:45:00 PM 7.25 45.05 0.112 6.99 0.48 11.55
10/28/2022 5:00:00 PM 7.25 45.05 0.112 6.87 0.61 11.53
10/28/2022 5:15:00 PM 7.29 45.122 0.111 6.88 0.57 11.47
10/28/2022 5:30:00 PM 7.26 45.068 0.111 6.93 0.55 11.47
10/28/2022 5:45:00 PM 7.28 45.104 0.111 6.9 0.59 11.42
10/28/2022 6:00:00 PM 7.28 45.104 0.111 6.88 0.58 11.35
10/28/2022 6:15:00 PM 7.29 45.122 0.112 7.02 0.58 11.3
10/28/2022 6:30:00 PM 7.3 45.14 0.112 6.88 0.55 11.21
10/28/2022 6:45:00 PM 7.28 45.104 0.112 6.88 0.57 11.15
10/28/2022 7:00:00 PM 7.29 45.122 0.112 6.94 0.56 11.08
10/28/2022 7:15:00 PM 7.3 45.14 0.112 6.9 0.57 10.99
10/28/2022 7:30:00 PM 7.31 45.158 0.112 6.93 0.54 10.9
10/28/2022 7:45:00 PM 7.32 45.176 0.113 6.89 0.55 10.81
10/28/2022 8:00:00 PM 7.34 45.212 0.113 6.98 0.51 10.73
10/28/2022 8:15:00 PM 7.36 45.248 0.113 6.86 0.53 10.65
10/28/2022 8:30:00 PM 7.38 45.284 0.113 6.87 0.56 10.57
10/28/2022 8:45:00 PM 7.39 45.302 0.11 6.83 2.57 10.51
10/28/2022 9:00:00 PM 7.42 45.356 0.11 7.01 2.83 10.46
10/28/2022 9:15:00 PM 7.43 45.374 0.111 6.84 2.61 10.4
10/28/2022 9:30:00 PM 7.43 45.374 0.111 6.87 2.82 10.37
10/28/2022 9:45:00 PM 7.44 45.392 0.114 6.86 0.51 10.33
10/28/2022 10:00:00 PM 7.44 45.392 0.114 6.84 0.57 10.31
10/28/2022 10:15:00 PM 7.44 45.392 0.114 6.88 0.5 10.28
10/28/2022 10:30:00 PM 7.43 45.374 0.114 6.86 0.52 10.28
10/28/2022 10:45:00 PM 7.43 45.374 0.111 6.84 2.66 10.25
10/28/2022 11:00:00 PM 7.43 45.374 0.111 6.84 2.88 10.23
10/28/2022 11:15:00 PM 7.42 45.356 0.111 6.84 2.69 10.23
10/28/2022 11:30:00 PM 7.4 45.32 0.111 6.87 2.78 10.23
10/28/2022 11:45:00 PM 7.38 45.284 0.111 6.85 2.55 10.23
10/29/2022 12:00:00 AM 7.37 45.266 0.114 6.87 0.53 10.23
10/29/2022 12:15:00 AM 7.36 45.248 0.114 6.89 0.55 10.23
10/29/2022 12:30:00 AM 7.34 45.212 0.114 6.85 0.52 10.24
10/29/2022 12:45:00 AM 7.31 45.158 0.115 6.86 0.55 10.24
10/29/2022 1:00:00 AM 7.28 45.104 0.115 6.87 0.57 10.25
10/29/2022 1:15:00 AM 7.25 45.05 0.115 6.86 0.57 10.26
10/29/2022 1:30:00 AM 7.23 45.014 0.115 6.84 0.54 10.26
10/29/2022 1:45:00 AM 7.2 44.96 0.115 6.89 0.55 10.28
10/29/2022 2:00:00 AM 7.17 44.906 0.115 6.85 0.53 10.28
10/29/2022 2:15:00 AM 7.14 44.852 0.115 6.85 0.54 10.3
10/29/2022 2:30:00 AM 7.09 44.762 0.115 6.87 0.6 10.32
10/29/2022 2:45:00 AM 7.05 44.69 0.115 6.84 0.58 10.34
10/29/2022 3:00:00 AM 7.02 44.636 0.115 6.83 0.53 10.33
10/29/2022 3:15:00 AM 7 44.6 0.111 6.94 2.87 10.34
10/29/2022 3:30:00 AM 6.94 44.492 0.111 6.83 3.09 10.37
10/29/2022 3:45:00 AM 6.9 44.42 0.115 6.98 0.57 10.39
10/29/2022 4:00:00 AM 6.85 44.33 0.115 6.83 0.58 10.41
10/29/2022 4:15:00 AM 6.8 44.24 0.115 6.87 0.56 10.45
10/29/2022 4:30:00 AM 6.76 44.168 0.115 6.92 0.56 10.46
10/29/2022 4:45:00 AM 6.69 44.042 0.115 6.84 0.62 10.49
10/29/2022 5:00:00 AM 6.65 43.97 0.115 6.85 0.62 10.5
10/29/2022 5:15:00 AM 6.64 43.952 0.115 6.88 0.6 10.51
10/29/2022 5:30:00 AM 6.57 43.826 0.115 6.84 0.54 10.53
10/29/2022 5:45:00 AM 6.53 43.754 0.115 6.85 0.56 10.55
10/29/2022 6:00:00 AM 6.52 43.736 0.115 6.85 0.55 10.55
10/29/2022 6:15:00 AM 6.46 43.628 0.115 6.84 0.6 10.58
10/29/2022 6:30:00 AM 6.42 43.556 0.115 6.88 0.53 10.58
10/29/2022 6:45:00 AM 6.36 43.448 0.115 6.93 0.54 10.61
10/29/2022 7:00:00 AM 6.32 43.376 0.111 6.85 2.78 10.62
10/29/2022 7:15:00 AM 6.33 43.394 0.115 6.86 0.57 10.62
10/29/2022 7:30:00 AM 6.25 43.25 0.112 6.95 2.57 10.66
10/29/2022 7:45:00 AM 6.19 43.142 0.112 6.86 2.62 10.69
10/29/2022 8:00:00 AM 6.13 43.034 0.115 6.84 0.59 10.73
10/29/2022 8:15:00 AM 6.11 42.998 0.115 6.97 0.5 10.76
10/29/2022 8:30:00 AM 6.08 42.944 0.115 6.94 0.55 10.8
10/29/2022 8:45:00 AM 6.04 42.872 0.115 6.89 0.57 10.83
10/29/2022 9:00:00 AM 6.04 42.872 0.115 7 0.56 10.85
10/29/2022 9:15:00 AM 6.02 42.836 0.111 6.85 2.8 10.9
10/29/2022 9:30:00 AM 6 42.8 0.115 6.98 0.59 10.94
10/29/2022 9:45:00 AM 6.03 42.854 0.115 6.89 0.56 11.01
10/29/2022 10:00:00 AM 6.05 42.89 0.115 6.85 0.55 11.09
10/29/2022 10:15:00 AM 6.08 42.944 0.115 7 0.55 11.17
10/29/2022 10:30:00 AM 6.13 43.034 0.115 6.88 0.54 11.23
10/29/2022 10:45:00 AM 6.12 43.016 0.115 7.02 0.56 11.33
10/29/2022 11:00:00 AM 6.19 43.142 0.114 6.86 0.55 11.38
10/29/2022 11:15:00 AM 6.21 43.178 0.11 6.86 2.42 11.47
10/29/2022 11:30:00 AM 6.25 43.25 0.11 6.86 2.99 11.58
10/29/2022 11:45:00 AM 6.29 43.322 0.11 6.92 2.99 11.64
10/29/2022 12:00:00 PM 6.27 43.286 0.11 6.92 2.68 11.78
10/29/2022 12:15:00 PM 6.33 43.394 0.11 6.89 2.48 11.83
10/29/2022 12:30:00 PM 6.4 43.52 0.11 6.91 2.97 11.88
10/29/2022 12:45:00 PM 6.37 43.466 0.109 6.99 2.81 11.9
10/29/2022 1:00:00 PM 6.36 43.448 0.109 6.89 2.92 11.96
10/29/2022 1:15:00 PM 6.37 43.466 0.109 6.89 2.87 11.91
10/29/2022 1:30:00 PM 6.38 43.484 0.109 6.89 2.54 11.96
10/29/2022 1:45:00 PM 6.34 43.412 0.113 7.01 0.48 11.91
10/29/2022 2:00:00 PM 6.29 43.322 0.109 7.07 2.94 11.93
10/29/2022 2:15:00 PM 6.26 43.268 0.109 6.89 2.63 11.92
10/29/2022 2:30:00 PM 6.24 43.232 0.112 6.9 0.54 11.89
10/29/2022 2:45:00 PM 6.22 43.196 0.109 7.02 2.52 11.87
10/29/2022 3:00:00 PM 6.23 43.214 0.109 6.86 3.04 11.85
10/29/2022 3:15:00 PM 6.17 43.106 0.112 6.99 0.53 11.84
10/29/2022 3:30:00 PM 6.14 43.052 0.109 7.02 2.84 11.77
10/29/2022 3:45:00 PM 6.1 42.98 0.109 7.06 2.9 11.74
10/29/2022 4:00:00 PM 6.09 42.962 0.111 6.91 2.61 11.71
10/29/2022 4:15:00 PM 6.09 42.962 0.109 7.05 2.67 11.66
10/29/2022 4:30:00 PM 6.09 42.962 0.11 6.83 2.9 11.61
10/29/2022 4:45:00 PM 6.08 42.944 0.109 6.89 2.83 11.57
10/29/2022 5:00:00 PM 6.11 42.998 0.11 6.86 2.91 11.52
10/29/2022 5:15:00 PM 6.11 42.998 0.109 6.95 2.91 11.47
10/29/2022 5:30:00 PM 6.13 43.034 0.113 6.9 0.55 11.42
10/29/2022 5:45:00 PM 6.14 43.052 0.11 7.03 2.73 11.37
10/29/2022 6:00:00 PM 6.14 43.052 0.11 6.84 2.88 11.32
10/29/2022 6:15:00 PM 6.15 43.07 0.11 6.97 2.52 11.27
10/29/2022 6:30:00 PM 6.18 43.124 0.11 6.92 2.84 11.21
10/29/2022 6:45:00 PM 6.19 43.142 0.11 7.03 2.59 11.18
10/29/2022 7:00:00 PM 6.21 43.178 0.11 6.85 2.86 11.12
10/29/2022 7:15:00 PM 6.21 43.178 0.11 6.94 2.74 11.09
10/29/2022 7:30:00 PM 6.21 43.178 0.113 7.01 0.55 11.05
10/29/2022 7:45:00 PM 6.22 43.196 0.114 7.04 0.54 10.99
10/29/2022 8:00:00 PM 6.23 43.214 0.114 6.87 0.57 10.95
10/29/2022 8:15:00 PM 6.24 43.232 0.114 6.91 0.56 10.9
10/29/2022 8:30:00 PM 6.24 43.232 0.11 6.88 2.57 10.85
10/29/2022 8:45:00 PM 6.25 43.25 0.11 6.84 2.56 10.82
10/29/2022 9:00:00 PM 6.25 43.25 0.11 6.84 2.82 10.78
10/29/2022 9:15:00 PM 6.25 43.25 0.11 6.97 2.57 10.76
10/29/2022 9:30:00 PM 6.25 43.25 0.114 6.85 0.57 10.73
10/29/2022 9:45:00 PM 6.25 43.25 0.114 6.94 0.61 10.71
10/29/2022 10:00:00 PM 6.26 43.268 0.114 6.98 0.53 10.69
10/29/2022 10:15:00 PM 6.25 43.25 0.111 6.94 2.76 10.68
10/29/2022 10:30:00 PM 6.25 43.25 0.111 7.05 2.76 10.66
10/29/2022 10:45:00 PM 6.25 43.25 0.111 6.86 2.79 10.65
10/29/2022 11:00:00 PM 6.24 43.232 0.111 6.81 2.42 10.64
10/29/2022 11:15:00 PM 6.24 43.232 0.111 6.87 2.47 10.63
10/29/2022 11:30:00 PM 6.22 43.196 0.111 7.04 2.72 10.63
10/29/2022 11:45:00 PM 6.21 43.178 0.111 6.99 2.55 10.62
10/30/2022 12:00:00 AM 6.19 43.142 0.111 6.97 2.65 10.63
10/30/2022 12:15:00 AM 6.18 43.124 0.111 6.84 2.48 10.63
10/30/2022 12:30:00 AM 6.16 43.088 0.111 6.85 2.81 10.63
10/30/2022 12:45:00 AM 6.14 43.052 0.111 6.88 2.73 10.64
10/30/2022 1:00:00 AM 6.12 43.016 0.115 6.85 0.52 10.65
10/30/2022 1:15:00 AM 6.1 42.98 0.111 6.85 2.53 10.66
10/30/2022 1:30:00 AM 6.06 42.908 0.115 6.94 0.6 10.67
10/30/2022 1:45:00 AM 6.04 42.872 0.115 6.87 0.53 10.68
10/30/2022 2:00:00 AM 6.01 42.818 0.115 6.91 0.56 10.68
10/30/2022 2:15:00 AM 5.98 42.764 0.115 6.86 0.56 10.7
10/30/2022 2:30:00 AM 5.96 42.728 0.115 6.86 0.58 10.71
10/30/2022 2:45:00 AM 5.93 42.674 0.115 6.86 0.55 10.72
10/30/2022 3:00:00 AM 5.9 42.62 0.115 6.86 0.57 10.74
10/30/2022 3:15:00 AM 5.87 42.566 0.115 6.86 0.53 10.75
10/30/2022 3:30:00 AM 5.84 42.512 0.115 7.01 0.57 10.75
10/30/2022 3:45:00 AM 5.81 42.458 0.111 6.82 9.01 10.75
10/30/2022 4:00:00 AM 5.75 42.35 0.115 6.86 0.73 10.81
10/30/2022 4:15:00 AM 5.73 42.314 0.111 6.86 3.06 10.81
10/30/2022 4:30:00 AM 5.67 42.206 0.112 6.85 2.68 10.85
10/30/2022 4:45:00 AM 5.63 42.134 0.115 6.87 0.59 10.87
10/30/2022 5:00:00 AM 5.62 42.116 0.111 6.85 2.61 10.87
10/30/2022 5:15:00 AM 5.56 42.008 0.115 6.87 0.57 10.9
10/30/2022 5:30:00 AM 5.53 41.954 0.115 6.88 0.57 10.91
10/30/2022 5:45:00 AM 5.49 41.882 0.111 6.87 2.74 10.94
10/30/2022 6:00:00 AM 5.46 41.828 0.111 6.93 2.81 10.95
10/30/2022 6:15:00 AM 5.42 41.756 0.115 6.84 0.57 10.96
10/30/2022 6:30:00 AM 5.38 41.684 0.115 6.85 0.6 10.99
10/30/2022 6:45:00 AM 5.33 41.594 0.115 6.87 0.58 11.01
10/30/2022 7:00:00 AM 5.28 41.504 0.115 6.88 0.56 11.03
10/30/2022 7:15:00 AM 5.26 41.468 0.115 6.89 0.59 11.04
10/30/2022 7:30:00 AM 5.22 41.396 0.115 6.85 0.58 11.07
10/30/2022 7:45:00 AM 5.18 41.324 0.115 6.85 0.62 11.09
10/30/2022 8:00:00 AM 5.16 41.288 0.111 6.82 2.65 11.11
10/30/2022 8:15:00 AM 5.15 41.27 0.115 6.85 0.59 11.15
10/30/2022 8:30:00 AM 5.1 41.18 0.115 6.85 0.52 11.19
10/30/2022 8:45:00 AM 5.1 41.18 0.111 6.86 2.59 11.2
10/30/2022 9:00:00 AM 5.06 41.108 0.111 6.98 2.71 11.25
10/30/2022 9:15:00 AM 5.07 41.126 0.115 6.85 0.51 11.28
10/30/2022 9:30:00 AM 5.08 41.144 0.115 6.94 0.56 11.32
10/30/2022 9:45:00 AM 5.1 41.18 0.115 6.86 0.54 11.4
10/30/2022 10:00:00 AM 5.13 41.234 0.115 6.86 0.56 11.48
10/30/2022 10:15:00 AM 5.18 41.324 0.111 6.95 2.46 11.51
10/30/2022 10:30:00 AM 5.18 41.324 0.114 6.87 0.55 11.6
10/30/2022 10:45:00 AM 5.18 41.324 0.114 6.87 0.55 11.69
10/30/2022 11:00:00 AM 5.27 41.486 0.114 6.9 0.54 11.74
10/30/2022 11:15:00 AM 5.23 41.414 0.114 6.92 0.56 11.86
10/30/2022 11:30:00 AM 5.3 41.54 0.113 6.89 0.58 11.94
10/30/2022 11:45:00 AM 5.41 41.738 0.113 6.9 0.56 11.99
10/30/2022 12:00:00 PM 5.44 41.792 0.113 6.9 0.67 12.05
10/30/2022 12:15:00 PM 5.5 41.9 0.113 6.89 0.53 12.11
10/30/2022 12:30:00 PM 5.57 42.026 0.113 6.91 0.52 12.15
10/30/2022 12:45:00 PM 5.52 41.936 0.109 6.88 2.59 12.19
10/30/2022 1:00:00 PM 5.52 41.936 0.109 6.9 2.83 12.19
10/30/2022 1:15:00 PM 5.44 41.792 0.112 7.08 0.58 12.21
10/30/2022 1:30:00 PM 5.51 41.918 0.111 6.98 1.11 12.22
10/30/2022 1:45:00 PM 5.51 41.918 0.112 6.9 0.5 12.2
10/30/2022 2:00:00 PM 5.48 41.864 0.112 6.9 0.6 12.2
10/30/2022 2:15:00 PM 5.45 41.81 0.108 6.94 2.97 12.22
10/30/2022 2:30:00 PM 5.43 41.774 0.112 6.91 0.53 12.17
10/30/2022 2:45:00 PM 5.43 41.774 0.108 6.89 2.84 12.16
10/30/2022 3:00:00 PM 5.42 41.756 0.112 6.91 0.6 12.19
10/30/2022 3:15:00 PM 5.44 41.792 0.112 6.91 0.55 12.16
10/30/2022 3:30:00 PM 5.44 41.792 0.112 6.91 0.62 12.12
10/30/2022 3:45:00 PM 5.42 41.756 0.112 6.91 0.58 12.11
10/30/2022 4:00:00 PM 5.45 41.81 0.112 6.92 0.6 12.07
10/30/2022 4:15:00 PM 5.45 41.81 0.112 6.93 0.56 12.06
10/30/2022 4:30:00 PM 5.45 41.81 0.112 6.91 0.55 12.01
10/30/2022 4:45:00 PM 5.44 41.792 0.112 6.92 0.57 11.97
10/30/2022 5:00:00 PM 5.46 41.828 0.112 6.92 0.57 11.92
10/30/2022 5:15:00 PM 5.47 41.846 0.112 6.91 0.55 11.89
10/30/2022 5:30:00 PM 5.48 41.864 0.112 6.92 0.58 11.87
10/30/2022 5:45:00 PM 5.5 41.9 0.112 6.92 0.56 11.82
10/30/2022 6:00:00 PM 5.53 41.954 0.108 6.91 2.83 11.76
10/30/2022 6:15:00 PM 5.57 42.026 0.112 7.03 0.57 11.69
10/30/2022 6:30:00 PM 5.6 42.08 0.108 6.89 2.88 11.61
10/30/2022 6:45:00 PM 5.63 42.134 0.112 6.93 0.59 11.55
10/30/2022 7:00:00 PM 5.67 42.206 0.112 6.91 0.69 11.47
10/30/2022 7:15:00 PM 5.69 42.242 0.109 6.89 2.84 11.4
10/30/2022 7:30:00 PM 5.74 42.332 0.109 6.87 2.7 11.33
10/30/2022 7:45:00 PM 5.77 42.386 0.112 6.9 0.53 11.26
10/30/2022 8:00:00 PM 5.8 42.44 0.109 6.9 2.56 11.19
10/30/2022 8:15:00 PM 5.83 42.494 0.113 6.91 0.55 11.12
10/30/2022 8:30:00 PM 5.86 42.548 0.113 6.88 0.58 11.06
10/30/2022 8:45:00 PM 5.88 42.584 0.113 6.89 0.56 11
10/30/2022 9:00:00 PM 5.88 42.584 0.113 6.9 0.56 10.96
10/30/2022 9:15:00 PM 5.89 42.602 0.113 6.9 0.57 10.92
10/30/2022 9:30:00 PM 5.91 42.638 0.113 6.9 0.55 10.87
10/30/2022 9:45:00 PM 5.93 42.674 0.114 6.91 0.57 10.84
10/30/2022 10:00:00 PM 5.94 42.692 0.114 6.88 0.57 10.81
10/30/2022 10:15:00 PM 5.96 42.728 0.114 6.9 0.53 10.78
10/30/2022 10:30:00 PM 5.97 42.746 0.114 6.9 0.64 10.75
10/30/2022 10:45:00 PM 5.97 42.746 0.114 6.9 0.57 10.73
10/30/2022 11:00:00 PM 5.97 42.746 0.114 6.88 0.58 10.71
10/30/2022 11:15:00 PM 5.97 42.746 0.114 6.89 0.55 10.69
10/30/2022 11:30:00 PM 5.97 42.746 0.114 6.87 0.66 10.68
10/30/2022 11:45:00 PM 5.96 42.728 0.114 6.89 0.56 10.67
10/31/2022 12:00:00 AM 5.97 42.746 0.114 6.87 0.58 10.66
10/31/2022 12:15:00 AM 5.96 42.728 0.114 7.03 0.57 10.65
10/31/2022 12:30:00 AM 5.96 42.728 0.114 7.01 0.55 10.64
10/31/2022 12:45:00 AM 5.95 42.71 0.114 6.87 0.57 10.64
10/31/2022 1:00:00 AM 5.95 42.71 0.114 6.88 0.58 10.63
10/31/2022 1:15:00 AM 5.96 42.728 0.114 6.89 0.56 10.62
10/31/2022 1:30:00 AM 5.95 42.71 0.114 6.88 0.56 10.63
10/31/2022 1:45:00 AM 5.94 42.692 0.114 6.87 0.54 10.63
10/31/2022 2:00:00 AM 5.93 42.674 0.114 6.87 0.55 10.63
10/31/2022 2:15:00 AM 5.92 42.656 0.114 6.88 0.57 10.63
10/31/2022 2:30:00 AM 5.92 42.656 0.114 6.88 0.54 10.63
10/31/2022 2:45:00 AM 5.91 42.638 0.115 6.88 0.57 10.63
10/31/2022 3:00:00 AM 5.9 42.62 0.115 6.88 0.56 10.64
10/31/2022 3:15:00 AM 5.87 42.566 0.115 6.92 0.96 10.66
10/31/2022 3:30:00 AM 5.87 42.566 0.115 6.87 0.53 10.65
10/31/2022 3:45:00 AM 5.87 42.566 0.115 6.87 0.57 10.67
10/31/2022 4:00:00 AM 5.87 42.566 0.115 6.95 0.58 10.66
10/31/2022 4:15:00 AM 5.86 42.548 0.115 7.05 0.59 10.67
10/31/2022 4:30:00 AM 5.87 42.566 0.115 6.86 0.55 10.67
10/31/2022 4:45:00 AM 5.86 42.548 0.115 6.89 0.52 10.68
10/31/2022 5:00:00 AM 5.83 42.494 0.115 6.91 0.52 10.7
10/31/2022 5:15:00 AM 5.82 42.476 0.111 6.85 2.63 10.69
10/31/2022 5:30:00 AM 5.79 42.422 0.115 6.93 0.56 10.7
10/31/2022 5:45:00 AM 5.76 42.368 0.111 6.89 2.89 10.71
10/31/2022 6:00:00 AM 5.74 42.332 0.111 6.87 3.01 10.72
10/31/2022 6:15:00 AM 5.7 42.26 0.115 6.9 0.53 10.74
10/31/2022 6:30:00 AM 5.68 42.224 0.111 6.87 2.58 10.74
10/31/2022 6:45:00 AM 5.68 42.224 0.115 6.86 0.55 10.74
10/31/2022 7:00:00 AM 5.64 42.152 0.111 6.85 2.72 10.75
10/31/2022 7:15:00 AM 5.63 42.134 0.111 6.89 2.66 10.75
10/31/2022 7:30:00 AM 5.6 42.08 0.111 6.76 2.66 10.77
10/31/2022 7:45:00 AM 5.63 42.134 0.115 6.9 0.55 10.76
10/31/2022 8:00:00 AM 5.62 42.116 0.111 6.85 2.71 10.79
10/31/2022 8:15:00 AM 5.63 42.134 0.115 6.87 0.57 10.79
10/31/2022 8:30:00 AM 5.61 42.098 0.111 6.87 2.84 10.8
10/31/2022 8:45:00 AM 5.61 42.098 0.115 6.89 0.62 10.83
10/31/2022 9:00:00 AM 5.62 42.116 0.115 6.86 0.56 10.87
10/31/2022 9:15:00 AM 5.64 42.152 0.115 6.88 0.53 10.88
10/31/2022 9:30:00 AM 5.65 42.17 0.115 6.94 0.55 10.93
10/31/2022 9:45:00 AM 5.66 42.188 0.111 6.87 2.69 10.98
10/31/2022 10:00:00 AM 5.69 42.242 0.111 6.93 2.49 11.05
10/31/2022 10:15:00 AM 5.73 42.314 0.111 6.98 2.9 11.12
10/31/2022 10:30:00 AM 5.73 42.314 0.111 7.06 2.43 11.16
10/31/2022 10:45:00 AM 5.72 42.296 0.111 6.89 2.91 11.21
10/31/2022 11:00:00 AM 5.72 42.296 0.114 6.93 0.54 11.28
10/31/2022 11:15:00 AM 5.73 42.314 0.11 7.03 2.65 11.39
10/31/2022 11:30:00 AM 5.76 42.368 0.113 6.87 0.52 11.48
10/31/2022 11:45:00 AM 5.79 42.422 0.113 7.03 0.55 11.53
10/31/2022 12:00:00 PM 5.81 42.458 0.113 6.91 0.58 11.61
10/31/2022 12:15:00 PM 5.83 42.494 0.113 6.91 0.54 11.68
10/31/2022 12:30:00 PM 5.89 42.602 0.113 6.96 0.53 11.74
10/31/2022 12:45:00 PM 5.9 42.62 0.112 7.05 0.56 11.8
10/31/2022 1:00:00 PM 5.92 42.656 0.112 6.9 0.58 11.81
10/31/2022 1:15:00 PM 5.97 42.746 0.112 6.94 0.53 11.86
10/31/2022 1:30:00 PM 6.01 42.818 0.108 6.91 2.68 11.91
10/31/2022 1:45:00 PM 6 42.8 0.112 6.89 0.55 11.91
10/31/2022 2:00:00 PM 6.01 42.818 0.112 7.05 0.53 11.92
10/31/2022 2:15:00 PM 6.02 42.836 0.108 7.01 2.84 11.92
10/31/2022 2:30:00 PM 6.02 42.836 0.108 7.03 2.66 11.96
10/31/2022 2:45:00 PM 6.02 42.836 0.111 6.94 0.53 11.93
10/31/2022 3:00:00 PM 6.06 42.908 0.111 6.98 0.68 11.94
10/31/2022 3:15:00 PM 6.11 42.998 0.111 6.95 0.54 11.89
10/31/2022 3:30:00 PM 6.13 43.034 0.107 7.1 2.65 11.86
10/31/2022 3:45:00 PM 6.14 43.052 0.108 6.9 2.69 11.84
10/31/2022 4:00:00 PM 6.17 43.106 0.108 6.92 2.63 11.81
10/31/2022 4:15:00 PM 6.19 43.142 0.111 6.96 0.55 11.76
10/31/2022 4:30:00 PM 6.23 43.214 0.111 7.07 0.6 11.7
10/31/2022 4:45:00 PM 6.27 43.286 0.111 7.06 0.55 11.64
10/31/2022 5:00:00 PM 6.31 43.358 0.109 7.07 2.63 11.57
10/31/2022 5:15:00 PM 6.35 43.43 0.108 7.03 2.69 11.5
10/31/2022 5:30:00 PM 6.4 43.52 0.111 6.92 0.59 11.43
10/31/2022 5:45:00 PM 6.45 43.61 0.109 6.87 2.79 11.36
10/31/2022 6:00:00 PM 6.49 43.682 0.112 7.03 0.6 11.29
10/31/2022 6:15:00 PM 6.54 43.772 0.112 6.97 0.64 11.21
10/31/2022 6:30:00 PM 6.59 43.862 0.112 7.07 0.59 11.14
10/31/2022 6:45:00 PM 6.63 43.934 0.112 6.86 0.54 11.06
10/31/2022 7:00:00 PM 6.66 43.988 0.112 6.95 0.56 10.99
10/31/2022 7:15:00 PM 6.71 44.078 0.112 6.95 0.57 10.91
10/31/2022 7:30:00 PM 6.73 44.114 0.109 7 2.58 10.84
10/31/2022 7:45:00 PM 6.77 44.186 0.113 7.04 0.52 10.78
10/31/2022 8:00:00 PM 6.8 44.24 0.109 7.05 2.61 10.7
10/31/2022 8:15:00 PM 6.84 44.312 0.11 6.8 2.66 10.63
10/31/2022 8:30:00 PM 6.89 44.402 0.11 7 2.44 10.57
10/31/2022 8:45:00 PM 6.93 44.474 0.11 7 2.62 10.51
10/31/2022 9:00:00 PM 6.95 44.51 0.113 6.87 0.54 10.47
10/31/2022 9:15:00 PM 6.98 44.564 0.11 6.87 2.49 10.42
10/31/2022 9:30:00 PM 7.02 44.636 0.111 6.95 2.64 10.38
10/31/2022 9:45:00 PM 7.04 44.672 0.111 6.82 3.09 10.35
10/31/2022 10:00:00 PM 7.06 44.708 0.114 6.87 0.62 10.32
10/31/2022 10:15:00 PM 7.09 44.762 0.114 6.87 0.53 10.28
10/31/2022 10:30:00 PM 7.12 44.816 0.114 6.88 0.6 10.26
10/31/2022 10:45:00 PM 7.13 44.834 0.114 6.85 0.57 10.23
10/31/2022 11:00:00 PM 7.16 44.888 0.114 6.86 0.55 10.2
10/31/2022 11:15:00 PM 7.18 44.924 0.114 6.84 0.57 10.18
10/31/2022 11:30:00 PM 7.2 44.96 0.114 6.84 0.62 10.17
10/31/2022 11:45:00 PM 7.23 45.014 0.114 6.85 0.55 10.15
11/1/2022 12:00:00 AM 7.23 45.014 0.114 6.86 0.55 10.13
11/1/2022 12:15:00 AM 7.26 45.068 0.114 6.86 0.53 10.11
11/1/2022 12:30:00 AM 7.28 45.104 0.114 6.84 0.55 10.1
11/1/2022 12:45:00 AM 7.28 45.104 0.115 6.84 0.53 10.08
11/1/2022 1:00:00 AM 7.3 45.14 0.115 6.85 0.53 10.07
11/1/2022 1:15:00 AM 7.32 45.176 0.115 6.84 0.56 10.07
11/1/2022 1:30:00 AM 7.34 45.212 0.115 6.84 0.54 10.05
11/1/2022 1:45:00 AM 7.34 45.212 0.115 6.84 0.53 10.03
11/1/2022 2:00:00 AM 7.34 45.212 0.115 6.83 0.53 10.01
11/1/2022 2:15:00 AM 7.37 45.266 0.115 6.84 0.54 10.02
11/1/2022 2:30:00 AM 7.39 45.302 0.115 6.84 0.54 10
11/1/2022 2:45:00 AM 7.39 45.302 0.111 6.81 2.73 9.98
11/1/2022 3:00:00 AM 7.41 45.338 0.111 6.82 2.48 9.97
11/1/2022 3:15:00 AM 7.43 45.374 0.115 6.85 0.51 9.97
11/1/2022 3:30:00 AM 7.44 45.392 0.115 6.84 0.53 9.96
11/1/2022 3:45:00 AM 7.45 45.41 0.111 6.82 2.57 9.95
11/1/2022 4:00:00 AM 7.48 45.464 0.115 6.83 0.55 9.94
11/1/2022 4:15:00 AM 7.48 45.464 0.112 6.82 2.84 9.93
11/1/2022 4:30:00 AM 7.48 45.464 0.112 6.82 2.62 9.92
11/1/2022 4:45:00 AM 7.49 45.482 0.111 6.81 2.74 9.9
11/1/2022 5:00:00 AM 7.51 45.518 0.111 6.81 3.23 9.9
11/1/2022 5:15:00 AM 7.52 45.536 0.112 6.81 2.84 9.88
11/1/2022 5:30:00 AM 7.53 45.554 0.113 6.81 3.09 9.88
11/1/2022 5:45:00 AM 7.55 45.59 0.112 6.79 2.38 9.87
11/1/2022 6:00:00 AM 7.58 45.644 0.112 6.8 3.02 9.85
11/1/2022 6:15:00 AM 7.59 45.662 0.112 6.78 3.12 9.82
11/1/2022 6:30:00 AM 7.59 45.662 0.114 6.81 2.66 9.82
11/1/2022 6:45:00 AM 7.61 45.698 0.114 6.79 2.55 9.82
11/1/2022 7:00:00 AM 7.6 45.68 0.116 6.81 0.55 9.81
11/1/2022 7:15:00 AM 7.62 45.716 0.116 6.81 0.57 9.8
11/1/2022 7:30:00 AM 7.64 45.752 0.116 6.83 0.61 9.79
11/1/2022 7:45:00 AM 7.64 45.752 0.114 6.85 1.21 9.78
11/1/2022 8:00:00 AM 7.66 45.788 0.112 6.64 2.79 9.79
11/1/2022 8:15:00 AM 7.68 45.824 0.112 6.82 2.71 9.77
11/1/2022 8:30:00 AM 7.69 45.842 0.113 6.81 2.81 9.78
11/1/2022 8:45:00 AM 7.71 45.878 0.116 6.81 0.57 9.8
11/1/2022 9:00:00 AM 7.72 45.896 0.116 6.82 0.51 9.82
11/1/2022 9:15:00 AM 7.74 45.932 0.116 6.82 0.56 9.83
11/1/2022 9:30:00 AM 7.77 45.986 0.116 6.82 0.53 9.86
11/1/2022 9:45:00 AM 7.81 46.058 0.112 6.8 2.6 9.92
11/1/2022 10:00:00 AM 7.83 46.094 0.115 6.82 0.56 9.92
11/1/2022 10:15:00 AM 7.88 46.184 0.115 6.84 0.56 9.97
11/1/2022 10:30:00 AM 7.9 46.22 0.115 6.84 0.57 10.03
11/1/2022 10:45:00 AM 7.93 46.274 0.115 6.83 0.57 10.1
11/1/2022 11:00:00 AM 7.99 46.382 0.115 6.83 0.6 10.19
11/1/2022 11:15:00 AM 8 46.4 0.115 6.82 0.57 10.25
11/1/2022 11:30:00 AM 8.05 46.49 0.115 6.85 0.54 10.36
11/1/2022 11:45:00 AM 8.06 46.508 0.114 6.83 0.53 10.41
11/1/2022 12:00:00 PM 8.11 46.598 0.114 6.84 0.6 10.51
11/1/2022 12:15:00 PM 8.31 46.958 0.114 6.85 0.55 10.65
11/1/2022 12:30:00 PM 8.26 46.868 0.114 6.83 0.55 10.65
11/1/2022 12:45:00 PM 8.21 46.778 0.114 6.84 0.51 10.66
11/1/2022 1:00:00 PM 8.32 46.976 0.113 6.87 0.54 10.81
11/1/2022 1:15:00 PM 8.32 46.976 0.113 6.86 0.56 10.86
11/1/2022 1:30:00 PM 8.35 47.03 0.113 6.84 0.94 10.9
11/1/2022 1:45:00 PM 8.42 47.156 0.112 6.97 0.53 10.97
11/1/2022 2:00:00 PM 8.38 47.084 0.112 6.88 0.5 10.94
11/1/2022 2:15:00 PM 8.42 47.156 0.109 7.05 2.63 10.99
11/1/2022 2:30:00 PM 8.44 47.192 0.112 6.98 0.6 10.99
11/1/2022 2:45:00 PM 8.55 47.39 0.112 6.85 0.54 11.03
11/1/2022 3:00:00 PM 8.61 47.498 0.112 6.87 0.53 11.04
11/1/2022 3:15:00 PM 8.59 47.462 0.112 6.85 0.6 10.99
11/1/2022 3:30:00 PM 8.59 47.462 0.111 6.91 0.54 10.95
11/1/2022 3:45:00 PM 8.55 47.39 0.111 6.96 0.56 10.87
11/1/2022 4:00:00 PM 8.58 47.444 0.111 7.01 0.56 10.9
11/1/2022 4:15:00 PM 8.58 47.444 0.111 6.81 0.58 10.91
11/1/2022 4:30:00 PM 8.64 47.552 0.111 6.98 0.55 10.89
11/1/2022 4:45:00 PM 8.64 47.552 0.111 6.85 0.57 10.82
11/1/2022 5:00:00 PM 8.7 47.66 0.111 6.99 0.59 10.78
11/1/2022 5:15:00 PM 8.72 47.696 0.111 6.8 0.56 10.72
11/1/2022 5:30:00 PM 8.73 47.714 0.111 6.84 0.58 10.64
11/1/2022 5:45:00 PM 8.73 47.714 0.111 6.85 0.58 10.59
11/1/2022 6:00:00 PM 8.77 47.786 0.111 6.96 0.63 10.52
11/1/2022 6:15:00 PM 8.82 47.876 0.112 6.81 0.58 10.45
11/1/2022 6:30:00 PM 8.84 47.912 0.112 6.88 0.55 10.37
11/1/2022 6:45:00 PM 8.92 48.056 0.112 6.81 0.58 10.3
11/1/2022 7:00:00 PM 8.96 48.128 0.112 6.83 0.54 10.23
11/1/2022 7:15:00 PM 9 48.2 0.112 6.8 0.57 10.14
11/1/2022 7:30:00 PM 9.02 48.236 0.112 6.98 0.55 10.06
11/1/2022 7:45:00 PM 9.07 48.326 0.113 6.78 0.57 9.98
11/1/2022 8:00:00 PM 9.11 48.398 0.113 6.81 0.52 9.9
11/1/2022 8:15:00 PM 9.13 48.434 0.113 7 0.55 9.84
11/1/2022 8:30:00 PM 9.16 48.488 0.113 6.94 0.57 9.79
11/1/2022 8:45:00 PM 9.17 48.506 0.113 6.82 0.55 9.72
11/1/2022 9:00:00 PM 9.17 48.506 0.114 6.81 0.57 9.69
11/1/2022 9:15:00 PM 9.21 48.578 0.114 6.82 0.56 9.64
11/1/2022 9:30:00 PM 9.17 48.506 0.114 6.8 0.52 9.59
11/1/2022 9:45:00 PM 9.15 48.47 0.114 6.79 0.52 9.57
11/1/2022 10:00:00 PM 9.15 48.47 0.114 6.92 0.53 9.55
11/1/2022 10:15:00 PM 9.17 48.506 0.114 6.78 0.54 9.52
11/1/2022 10:30:00 PM 9.18 48.524 0.114 6.8 0.54 9.49
11/1/2022 10:45:00 PM 9.16 48.488 0.114 6.78 0.54 9.47
11/1/2022 11:00:00 PM 9.15 48.47 0.114 6.8 0.58 9.47
11/1/2022 11:15:00 PM 9.18 48.524 0.114 6.8 0.51 9.45
11/1/2022 11:30:00 PM 9.18 48.524 0.114 6.84 0.58 9.45
11/1/2022 11:45:00 PM 9.15 48.47 0.115 6.79 0.59 9.43
11/2/2022 12:00:00 AM 9.19 48.542 0.115 6.92 0.53 9.44
11/2/2022 12:15:00 AM 9.15 48.47 0.115 6.79 0.66 9.42
11/2/2022 12:30:00 AM 9.15 48.47 0.115 6.84 0.54 9.43
11/2/2022 12:45:00 AM 9.14 48.452 0.115 6.94 0.53 9.42
11/2/2022 1:00:00 AM 9.1 48.38 0.111 6.89 2.53 9.41
11/2/2022 1:15:00 AM 9.11 48.398 0.115 6.78 0.54 9.43
11/2/2022 1:30:00 AM 9.13 48.434 0.115 6.81 0.49 9.43
11/2/2022 1:45:00 AM 9.1 48.38 0.112 6.88 2.74 9.42
11/2/2022 2:00:00 AM 9.07 48.326 0.115 6.81 0.66 9.44
11/2/2022 2:15:00 AM 9.05 48.29 0.115 6.78 0.53 9.44
11/2/2022 2:30:00 AM 9.03 48.254 0.115 6.78 0.55 9.47
11/2/2022 2:45:00 AM 9.02 48.236 0.115 6.95 0.52 9.48
11/2/2022 3:00:00 AM 8.98 48.164 0.115 6.77 0.54 9.48
11/2/2022 3:15:00 AM 8.95 48.11 0.115 6.83 0.55 9.5
11/2/2022 3:30:00 AM 8.94 48.092 0.115 6.77 0.49 9.5
11/2/2022 3:45:00 AM 8.89 48.002 0.111 7.02 2.69 9.51
11/2/2022 4:00:00 AM 8.88 47.984 0.112 6.78 2.74 9.53
11/2/2022 4:15:00 AM 8.83 47.894 0.115 6.83 0.54 9.54
11/2/2022 4:30:00 AM 8.81 47.858 0.115 6.77 0.51 9.57
11/2/2022 4:45:00 AM 8.77 47.786 0.115 6.78 0.52 9.56
11/2/2022 5:00:00 AM 8.74 47.732 0.115 6.78 0.54 9.58
11/2/2022 5:15:00 AM 8.72 47.696 0.112 6.84 2.58 9.59
11/2/2022 5:30:00 AM 8.69 47.642 0.115 6.77 0.54 9.61
11/2/2022 5:45:00 AM 8.65 47.57 0.115 6.97 0.61 9.62
11/2/2022 6:00:00 AM 8.63 47.534 0.115 6.81 0.57 9.63
11/2/2022 6:15:00 AM 8.6 47.48 0.115 6.81 0.58 9.63
11/2/2022 6:30:00 AM 8.6 47.48 0.115 6.89 0.58 9.66
11/2/2022 6:45:00 AM 8.58 47.444 0.112 6.8 2.76 9.67
11/2/2022 7:00:00 AM 8.56 47.408 0.115 6.79 0.56 9.67
11/2/2022 7:15:00 AM 8.54 47.372 0.115 6.78 0.53 9.68
11/2/2022 7:30:00 AM 8.51 47.318 0.115 6.8 0.58 9.7
11/2/2022 7:45:00 AM 8.49 47.282 0.115 6.8 0.64 9.71
11/2/2022 8:00:00 AM 8.46 47.228 0.115 6.8 0.54 9.75
11/2/2022 8:15:00 AM 8.44 47.192 0.115 6.83 0.6 9.77
11/2/2022 8:30:00 AM 8.42 47.156 0.115 6.86 0.54 9.8
11/2/2022 8:45:00 AM 8.4 47.12 0.115 6.95 0.53 9.84
11/2/2022 9:00:00 AM 8.4 47.12 0.115 6.9 0.53 9.87
11/2/2022 9:15:00 AM 8.39 47.102 0.115 6.84 0.53 9.92
11/2/2022 9:30:00 AM 8.38 47.084 0.115 6.87 0.57 9.98
11/2/2022 9:45:00 AM 8.38 47.084 0.115 6.8 1.04 10.03
11/2/2022 10:00:00 AM 8.39 47.102 0.115 6.82 0.59 10.09
11/2/2022 10:15:00 AM 8.37 47.066 0.115 6.92 0.53 10.15
11/2/2022 10:30:00 AM 8.37 47.066 0.115 6.85 0.6 10.21
11/2/2022 10:45:00 AM 8.41 47.138 0.115 6.81 0.51 10.36
11/2/2022 11:00:00 AM 8.46 47.228 0.114 6.82 0.53 10.47
11/2/2022 11:15:00 AM 8.5 47.3 0.114 6.83 0.52 10.53
11/2/2022 11:30:00 AM 8.53 47.354 0.114 6.84 0.56 10.67
11/2/2022 11:45:00 AM 8.58 47.444 0.114 6.84 0.52 10.69
11/2/2022 12:00:00 PM 8.62 47.516 0.113 6.85 0.53 10.77
11/2/2022 12:15:00 PM 8.68 47.624 0.109 6.78 2.65 10.85
11/2/2022 12:30:00 PM 8.72 47.696 0.113 6.84 0.57 10.89
11/2/2022 12:45:00 PM 8.68 47.624 0.113 6.85 0.54 10.97
11/2/2022 1:00:00 PM 8.69 47.642 0.112 6.85 0.54 10.99
11/2/2022 1:15:00 PM 8.66 47.588 0.112 6.85 0.52 11.03
11/2/2022 1:30:00 PM 8.7 47.66 0.112 6.86 0.6 11.02
11/2/2022 1:45:00 PM 8.66 47.588 0.112 6.85 0.53 11.02
11/2/2022 2:00:00 PM 8.63 47.534 0.112 6.85 0.53 11
11/2/2022 2:15:00 PM 8.59 47.462 0.112 6.84 0.52 11.02
11/2/2022 2:30:00 PM 8.58 47.444 0.112 6.84 0.52 10.97
11/2/2022 2:45:00 PM 8.58 47.444 0.112 6.83 0.48 10.95
11/2/2022 3:00:00 PM 8.58 47.444 0.112 6.84 0.53 10.92
11/2/2022 3:15:00 PM 8.55 47.39 0.112 6.83 0.56 10.88
11/2/2022 3:30:00 PM 8.53 47.354 0.112 6.86 0.53 10.84
11/2/2022 3:45:00 PM 8.51 47.318 0.112 6.82 0.53 10.81
11/2/2022 4:00:00 PM 8.51 47.318 0.112 6.83 0.56 10.77
11/2/2022 4:15:00 PM 8.52 47.336 0.112 6.83 0.59 10.71
11/2/2022 4:30:00 PM 8.52 47.336 0.112 6.84 0.54 10.67
11/2/2022 4:45:00 PM 8.54 47.372 0.112 6.84 0.54 10.6
11/2/2022 5:00:00 PM 8.54 47.372 0.112 6.84 0.58 10.57
11/2/2022 5:15:00 PM 8.55 47.39 0.112 6.84 0.55 10.51
11/2/2022 5:30:00 PM 8.56 47.408 0.112 6.84 0.57 10.45
11/2/2022 5:45:00 PM 8.56 47.408 0.113 6.84 0.6 10.41
11/2/2022 6:00:00 PM 8.57 47.426 0.113 6.83 0.55 10.35
11/2/2022 6:15:00 PM 8.57 47.426 0.113 6.81 0.57 10.31
11/2/2022 6:30:00 PM 8.57 47.426 0.113 6.81 0.77 10.27
11/2/2022 6:45:00 PM 8.57 47.426 0.113 6.83 0.62 10.22
11/2/2022 7:00:00 PM 8.57 47.426 0.113 6.83 0.56 10.17
11/2/2022 7:15:00 PM 8.58 47.444 0.113 6.84 0.65 10.13
11/2/2022 7:30:00 PM 8.58 47.444 0.113 6.83 0.55 10.08
11/2/2022 7:45:00 PM 8.58 47.444 0.113 6.81 0.56 10.03
11/2/2022 8:00:00 PM 8.59 47.462 0.113 6.82 0.56 9.98
11/2/2022 8:15:00 PM 8.59 47.462 0.112 6.81 2.7 9.93
11/2/2022 8:30:00 PM 8.58 47.444 0.114 6.8 0.53 9.89
11/2/2022 8:45:00 PM 8.59 47.462 0.114 6.8 0.53 9.86
11/2/2022 9:00:00 PM 8.58 47.444 0.114 6.82 0.55 9.84
11/2/2022 9:15:00 PM 8.58 47.444 0.114 6.8 0.55 9.81
11/2/2022 9:30:00 PM 8.57 47.426 0.114 6.82 0.53 9.8
11/2/2022 9:45:00 PM 8.57 47.426 0.114 6.81 0.52 9.77
11/2/2022 10:00:00 PM 8.56 47.408 0.114 6.84 0.52 9.76
11/2/2022 10:15:00 PM 8.55 47.39 0.114 6.82 0.56 9.75
11/2/2022 10:30:00 PM 8.54 47.372 0.114 6.86 0.61 9.74
11/2/2022 10:45:00 PM 8.53 47.354 0.114 6.8 0.51 9.72
11/2/2022 11:00:00 PM 8.52 47.336 0.114 6.81 0.55 9.72
11/2/2022 11:15:00 PM 8.5 47.3 0.114 6.81 0.53 9.71
11/2/2022 11:30:00 PM 8.48 47.264 0.114 6.81 0.54 9.71
11/2/2022 11:45:00 PM 8.46 47.228 0.114 6.8 0.57 9.71
11/3/2022 12:00:00 AM 8.44 47.192 0.114 6.8 0.53 9.71
11/3/2022 12:15:00 AM 8.42 47.156 0.114 6.81 0.53 9.72
11/3/2022 12:30:00 AM 8.4 47.12 0.114 6.85 0.53 9.73
11/3/2022 12:45:00 AM 8.37 47.066 0.114 6.8 0.56 9.73
11/3/2022 1:00:00 AM 8.35 47.03 0.114 6.8 0.53 9.74
11/3/2022 1:15:00 AM 8.32 46.976 0.114 6.79 0.51 9.75
11/3/2022 1:30:00 AM 8.29 46.922 0.111 6.77 2.57 9.76
11/3/2022 1:45:00 AM 8.27 46.886 0.114 6.81 0.51 9.77
11/3/2022 2:00:00 AM 8.23 46.814 0.115 6.79 0.53 9.78
11/3/2022 2:15:00 AM 8.21 46.778 0.114 6.8 0.53 9.79
11/3/2022 2:30:00 AM 8.17 46.706 0.111 6.76 2.79 9.81
11/3/2022 2:45:00 AM 8.14 46.652 0.112 6.77 2.79 9.82
11/3/2022 3:00:00 AM 8.11 46.598 0.115 6.8 0.54 9.83
11/3/2022 3:15:00 AM 8.09 46.562 0.115 6.8 0.52 9.84
11/3/2022 3:30:00 AM 8.05 46.49 0.115 6.81 0.52 9.86
11/3/2022 3:45:00 AM 8.02 46.436 0.115 6.8 0.52 9.86
11/3/2022 4:00:00 AM 7.97 46.346 0.115 6.81 0.52 9.9
11/3/2022 4:15:00 AM 7.95 46.31 0.115 6.82 0.52 9.91
11/3/2022 4:30:00 AM 7.9 46.22 0.115 6.8 0.53 9.94
11/3/2022 4:45:00 AM 7.87 46.166 0.115 6.81 0.57 9.95
11/3/2022 5:00:00 AM 7.83 46.094 0.115 6.8 0.55 9.97
11/3/2022 5:15:00 AM 7.8 46.04 0.115 6.8 0.57 9.98
11/3/2022 5:30:00 AM 7.75 45.95 0.115 6.81 0.59 10
11/3/2022 5:45:00 AM 7.72 45.896 0.111 6.77 2.86 10.02
11/3/2022 6:00:00 AM 7.68 45.824 0.112 6.8 2.52 10.02
11/3/2022 6:15:00 AM 7.63 45.734 0.111 6.77 2.88 10.05
11/3/2022 6:30:00 AM 7.6 45.68 0.111 6.78 2.62 10.06
11/3/2022 6:45:00 AM 7.55 45.59 0.111 6.76 2.89 10.07
11/3/2022 7:00:00 AM 7.51 45.518 0.111 6.81 2.64 10.1
11/3/2022 7:15:00 AM 7.47 45.446 0.111 6.75 3.08 10.11
11/3/2022 7:30:00 AM 7.44 45.392 0.115 6.8 0.59 10.14
11/3/2022 7:45:00 AM 7.38 45.284 0.115 6.8 0.53 10.17
11/3/2022 8:00:00 AM 7.35 45.23 0.115 6.8 0.93 10.19
11/3/2022 8:15:00 AM 7.3 45.14 0.115 6.81 0.55 10.24
11/3/2022 8:30:00 AM 7.28 45.104 0.115 6.81 0.57 10.28
11/3/2022 8:45:00 AM 7.25 45.05 0.115 6.8 0.58 10.31
11/3/2022 9:00:00 AM 7.23 45.014 0.115 6.81 0.56 10.35
11/3/2022 9:15:00 AM 7.23 45.014 0.115 6.8 0.55 10.38
11/3/2022 9:30:00 AM 7.21 44.978 0.115 6.83 0.54 10.43
11/3/2022 9:45:00 AM 7.19 44.942 0.115 6.83 0.59 10.51
11/3/2022 10:00:00 AM 7.25 45.05 0.115 6.82 0.59 10.57
11/3/2022 10:15:00 AM 7.29 45.122 0.115 6.83 0.58 10.64
11/3/2022 10:30:00 AM 7.31 45.158 0.115 6.83 0.57 10.71
11/3/2022 10:45:00 AM 7.35 45.23 0.115 6.81 0.6 10.8
11/3/2022 11:00:00 AM 7.38 45.284 0.115 6.83 0.53 10.87
11/3/2022 11:15:00 AM 7.4 45.32 0.115 6.84 0.58 10.99
11/3/2022 11:30:00 AM 7.46 45.428 0.114 6.84 0.57 11.08
11/3/2022 11:45:00 AM 7.51 45.518 0.111 6.83 2.7 11.17
11/3/2022 12:00:00 PM 7.55 45.59 0.11 6.79 2.97 11.24
11/3/2022 12:15:00 PM 7.63 45.734 0.11 6.82 2.74 11.29
11/3/2022 12:30:00 PM 7.65 45.77 0.111 6.85 2.7 11.34
11/3/2022 12:45:00 PM 7.62 45.716 0.11 6.8 2.87 11.37
11/3/2022 1:00:00 PM 7.65 45.77 0.113 6.85 0.52 11.39
11/3/2022 1:15:00 PM 7.58 45.644 0.11 6.82 2.87 11.45
11/3/2022 1:30:00 PM 7.6 45.68 0.113 6.86 0.59 11.41
11/3/2022 1:45:00 PM 7.57 45.626 0.11 6.83 2.61 11.41
11/3/2022 2:00:00 PM 7.53 45.554 0.11 6.89 3.01 11.39
11/3/2022 2:15:00 PM 7.47 45.446 0.11 6.8 3.08 11.41
11/3/2022 2:30:00 PM 7.44 45.392 0.109 6.89 2.6 11.38
11/3/2022 2:45:00 PM 7.44 45.392 0.109 6.89 2.84 11.37
11/3/2022 3:00:00 PM 7.45 45.41 0.109 6.81 2.7 11.33
11/3/2022 3:15:00 PM 7.41 45.338 0.109 6.81 2.55 11.3
11/3/2022 3:30:00 PM 7.37 45.266 0.109 6.82 2.81 11.26
11/3/2022 3:45:00 PM 7.39 45.302 0.109 6.82 2.67 11.21
11/3/2022 4:00:00 PM 7.4 45.32 0.113 6.84 0.61 11.17
11/3/2022 4:15:00 PM 7.39 45.302 0.113 6.84 0.59 11.13
11/3/2022 4:30:00 PM 7.41 45.338 0.113 6.85 0.58 11.07
11/3/2022 4:45:00 PM 7.43 45.374 0.113 6.84 0.57 11.01
11/3/2022 5:00:00 PM 7.45 45.41 0.109 6.82 2.66 10.95
11/3/2022 5:15:00 PM 7.46 45.428 0.109 6.82 2.76 10.91
11/3/2022 5:30:00 PM 7.48 45.464 0.113 6.83 0.66 10.86
11/3/2022 5:45:00 PM 7.49 45.482 0.113 6.83 0.53 10.8
11/3/2022 6:00:00 PM 7.5 45.5 0.11 6.83 2.85 10.76
11/3/2022 6:15:00 PM 7.52 45.536 0.11 6.8 3.02 10.7
11/3/2022 6:30:00 PM 7.53 45.554 0.113 6.83 0.54 10.66
11/3/2022 6:45:00 PM 7.55 45.59 0.113 6.83 0.6 10.61
11/3/2022 7:00:00 PM 7.56 45.608 0.113 6.83 0.59 10.56
11/3/2022 7:15:00 PM 7.57 45.626 0.113 6.83 0.6 10.51
11/3/2022 7:30:00 PM 7.59 45.662 0.114 6.82 0.65 10.46
11/3/2022 7:45:00 PM 7.6 45.68 0.114 6.82 0.57 10.4
11/3/2022 8:00:00 PM 7.61 45.698 0.11 6.8 2.8 10.35
11/3/2022 8:15:00 PM 7.62 45.716 0.114 6.82 0.56 10.3
11/3/2022 8:30:00 PM 7.64 45.752 0.114 6.81 0.58 10.27
11/3/2022 8:45:00 PM 7.65 45.77 0.11 6.79 2.97 10.23
11/3/2022 9:00:00 PM 7.66 45.788 0.11 6.79 2.59 10.19
11/3/2022 9:15:00 PM 7.67 45.806 0.11 6.78 2.63 10.16
11/3/2022 9:30:00 PM 7.67 45.806 0.114 6.8 0.6 10.14
11/3/2022 9:45:00 PM 7.68 45.824 0.111 6.78 2.88 10.12
11/3/2022 10:00:00 PM 7.68 45.824 0.111 6.79 2.72 10.09
11/3/2022 10:15:00 PM 7.68 45.824 0.114 6.81 0.57 10.08
11/3/2022 10:30:00 PM 7.68 45.824 0.114 6.82 0.56 10.07
11/3/2022 10:45:00 PM 7.68 45.824 0.114 6.81 0.58 10.06
11/3/2022 11:00:00 PM 7.67 45.806 0.114 6.81 0.63 10.04
11/3/2022 11:15:00 PM 7.67 45.806 0.114 6.81 0.54 10.04
11/3/2022 11:30:00 PM 7.67 45.806 0.111 6.78 2.87 10.03
11/3/2022 11:45:00 PM 7.66 45.788 0.115 6.83 0.59 10.03
11/4/2022 12:00:00 AM 7.65 45.77 0.115 6.82 0.53 10.03
11/4/2022 12:15:00 AM 7.64 45.752 0.111 6.78 2.92 10.02
11/4/2022 12:30:00 AM 7.63 45.734 0.111 6.77 2.64 10.02
11/4/2022 12:45:00 AM 7.62 45.716 0.112 6.83 2.93 10.02
11/4/2022 1:00:00 AM 7.61 45.698 0.112 6.81 2.83 10.03
11/4/2022 1:15:00 AM 7.59 45.662 0.112 6.8 2.63 10.03
11/4/2022 1:30:00 AM 7.57 45.626 0.112 6.79 2.92 10.04
11/4/2022 1:45:00 AM 7.56 45.608 0.112 6.78 2.48 10.04
11/4/2022 2:00:00 AM 7.54 45.572 0.111 6.79 2.8 10.05
11/4/2022 2:15:00 AM 7.52 45.536 0.111 6.77 2.63 10.05
11/4/2022 2:30:00 AM 7.5 45.5 0.112 6.79 2.55 10.06
11/4/2022 2:45:00 AM 7.48 45.464 0.111 6.78 2.64 10.08
11/4/2022 3:00:00 AM 7.46 45.428 0.111 6.82 2.73 10.09
11/4/2022 3:15:00 AM 7.44 45.392 0.115 6.8 0.57 10.08
11/4/2022 3:30:00 AM 7.42 45.356 0.115 6.81 0.58 10.1
11/4/2022 3:45:00 AM 7.39 45.302 0.115 6.81 0.56 10.12
11/4/2022 4:00:00 AM 7.37 45.266 0.115 6.8 0.58 10.13
11/4/2022 4:15:00 AM 7.35 45.23 0.115 6.8 0.56 10.13
11/4/2022 4:30:00 AM 7.32 45.176 0.115 6.81 0.56 10.14
11/4/2022 4:45:00 AM 7.29 45.122 0.115 6.82 0.56 10.15
11/4/2022 5:00:00 AM 7.27 45.086 0.115 6.81 0.59 10.15
11/4/2022 5:15:00 AM 7.25 45.05 0.115 6.83 0.65 10.17
11/4/2022 5:30:00 AM 7.22 44.996 0.115 6.81 0.55 10.18
11/4/2022 5:45:00 AM 7.19 44.942 0.115 6.81 0.53 10.19
11/4/2022 6:00:00 AM 7.16 44.888 0.115 6.81 0.63 10.21
11/4/2022 6:15:00 AM 7.13 44.834 0.115 6.81 0.57 10.22
11/4/2022 6:30:00 AM 7.11 44.798 0.115 6.83 0.55 10.22
11/4/2022 6:45:00 AM 7.08 44.744 0.115 6.83 0.61 10.24
11/4/2022 7:00:00 AM 7.04 44.672 0.115 6.81 0.56 10.26
11/4/2022 7:15:00 AM 7.03 44.654 0.115 6.83 0.52 10.26
11/4/2022 7:30:00 AM 6.99 44.582 0.115 6.81 0.6 10.28
11/4/2022 7:45:00 AM 6.98 44.564 0.115 6.8 0.51 10.28
11/4/2022 8:00:00 AM 6.95 44.51 0.112 6.79 2.52 10.32
11/4/2022 8:15:00 AM 6.92 44.456 0.111 6.78 2.75 10.35
11/4/2022 8:30:00 AM 6.9 44.42 0.112 6.8 2.96 10.38
11/4/2022 8:45:00 AM 6.89 44.402 0.112 6.81 2.86 10.41
11/4/2022 9:00:00 AM 6.88 44.384 0.112 6.82 2.7 10.44
11/4/2022 9:15:00 AM 6.87 44.366 0.115 6.82 0.52 10.46
11/4/2022 9:30:00 AM 6.88 44.384 0.111 6.83 2.74 10.5
11/4/2022 9:45:00 AM 6.92 44.456 0.111 6.79 3.23 10.56
11/4/2022 10:00:00 AM 6.96 44.528 0.112 6.83 2.62 10.64
11/4/2022 10:15:00 AM 7.01 44.618 0.111 6.88 2.56 10.7
11/4/2022 10:30:00 AM 7.03 44.654 0.111 6.8 2.8 10.77
11/4/2022 10:45:00 AM 7.08 44.744 0.111 6.82 2.96 10.83
11/4/2022 11:00:00 AM 7.11 44.798 0.111 6.82 3.01 10.92
11/4/2022 11:15:00 AM 7.19 44.942 0.114 6.85 0.59 11
11/4/2022 11:30:00 AM 7.24 45.032 0.114 6.86 0.55 11.1
11/4/2022 11:45:00 AM 7.28 45.104 0.114 6.89 0.54 11.15
11/4/2022 12:00:00 PM 7.3 45.14 0.114 6.85 0.57 11.23
11/4/2022 12:15:00 PM 7.32 45.176 0.113 6.86 0.61 11.31
11/4/2022 12:30:00 PM 7.41 45.338 0.113 6.88 0.56 11.35
11/4/2022 12:45:00 PM 7.4 45.32 0.109 6.8 2.92 11.38
11/4/2022 1:00:00 PM 7.43 45.374 0.109 6.76 2.81 11.38
11/4/2022 1:15:00 PM 7.41 45.338 0.109 6.87 2.89 11.41
11/4/2022 1:30:00 PM 7.43 45.374 0.113 7.07 0.55 11.4
11/4/2022 1:45:00 PM 7.41 45.338 0.109 6.83 2.84 11.41
11/4/2022 2:00:00 PM 7.38 45.284 0.109 6.84 2.74 11.42
11/4/2022 2:15:00 PM 7.36 45.248 0.109 6.83 2.6 11.42
11/4/2022 2:30:00 PM 7.32 45.176 0.112 6.87 0.58 11.39
11/4/2022 2:45:00 PM 7.33 45.194 0.112 6.86 0.57 11.39
11/4/2022 3:00:00 PM 7.36 45.248 0.112 6.87 0.55 11.39
11/4/2022 3:15:00 PM 7.37 45.266 0.109 6.87 2.78 11.34
11/4/2022 3:30:00 PM 7.36 45.248 0.112 6.87 0.56 11.31
11/4/2022 3:45:00 PM 7.38 45.284 0.112 6.87 0.56 11.26
11/4/2022 4:00:00 PM 7.39 45.302 0.112 6.86 0.52 11.25
11/4/2022 4:15:00 PM 7.4 45.32 0.109 6.83 2.57 11.2
11/4/2022 4:30:00 PM 7.42 45.356 0.109 6.84 2.88 11.16
11/4/2022 4:45:00 PM 7.45 45.41 0.11 6.85 2.52 11.12
11/4/2022 5:00:00 PM 7.48 45.464 0.109 6.82 2.63 11.1
11/4/2022 5:15:00 PM 7.5 45.5 0.109 6.83 2.59 11.04
11/4/2022 5:30:00 PM 7.52 45.536 0.109 6.83 2.57 10.98
11/4/2022 5:45:00 PM 7.53 45.554 0.112 6.86 0.58 10.93
11/4/2022 6:00:00 PM 7.54 45.572 0.109 6.82 2.83 10.87
11/4/2022 6:15:00 PM 7.56 45.608 0.109 6.87 2.53 10.82
11/4/2022 6:30:00 PM 7.58 45.644 0.112 6.82 0.54 10.78
11/4/2022 6:45:00 PM 7.62 45.716 0.11 6.84 2.52 10.72
11/4/2022 7:00:00 PM 7.64 45.752 0.11 6.83 2.52 10.66
11/4/2022 7:15:00 PM 7.67 45.806 0.11 6.82 2.76 10.58
11/4/2022 7:30:00 PM 7.71 45.878 0.113 6.84 0.59 10.51
11/4/2022 7:45:00 PM 7.74 45.932 0.113 6.84 0.52 10.44
11/4/2022 8:00:00 PM 7.76 45.968 0.113 6.85 0.54 10.37
11/4/2022 8:15:00 PM 7.79 46.022 0.113 6.84 0.63 10.3
11/4/2022 8:30:00 PM 7.82 46.076 0.113 6.85 0.52 10.24
11/4/2022 8:45:00 PM 7.84 46.112 0.113 6.85 0.57 10.19
11/4/2022 9:00:00 PM 7.87 46.166 0.113 6.99 0.56 10.14
11/4/2022 9:15:00 PM 7.9 46.22 0.114 6.83 0.6 10.09
11/4/2022 9:30:00 PM 7.92 46.256 0.114 6.82 0.6 10.04
11/4/2022 9:45:00 PM 7.94 46.292 0.114 6.82 0.56 10
11/4/2022 10:00:00 PM 7.95 46.31 0.114 6.83 0.53 9.98
11/4/2022 10:15:00 PM 7.98 46.364 0.114 6.81 0.57 9.94
11/4/2022 10:30:00 PM 7.99 46.382 0.114 6.94 0.55 9.91
11/4/2022 10:45:00 PM 8.03 46.454 0.114 6.96 0.56 9.88
11/4/2022 11:00:00 PM 8.03 46.454 0.114 6.79 0.55 9.87
11/4/2022 11:15:00 PM 8.04 46.472 0.114 6.89 0.57 9.84
11/4/2022 11:30:00 PM 8.06 46.508 0.114 6.81 0.58 9.82
11/4/2022 11:45:00 PM 8.07 46.526 0.114 6.87 0.54 9.81
11/5/2022 12:00:00 AM 8.08 46.544 0.113 6.89 2.84 9.8
11/5/2022 12:15:00 AM 8.08 46.544 0.114 6.78 0.55 9.79
11/5/2022 12:30:00 AM 8.1 46.58 0.114 6.85 0.53 9.77
11/5/2022 12:45:00 AM 8.13 46.634 0.114 6.97 0.54 9.76
11/5/2022 1:00:00 AM 8.12 46.616 0.114 6.81 0.57 9.75
11/5/2022 1:15:00 AM 8.13 46.634 0.114 6.79 0.52 9.74
11/5/2022 1:30:00 AM 8.14 46.652 0.114 6.86 0.54 9.73
11/5/2022 1:45:00 AM 8.14 46.652 0.111 6.83 2.66 9.72
11/5/2022 2:00:00 AM 8.15 46.67 0.115 6.8 0.5 9.72
11/5/2022 2:15:00 AM 8.15 46.67 0.115 6.8 0.55 9.71
11/5/2022 2:30:00 AM 8.16 46.688 0.115 6.81 0.52 9.72
11/5/2022 2:45:00 AM 8.15 46.67 0.115 6.82 0.56 9.71
11/5/2022 3:00:00 AM 8.16 46.688 0.115 6.98 0.56 9.7
11/5/2022 3:15:00 AM 8.16 46.688 0.115 6.92 0.56 9.71
11/5/2022 3:30:00 AM 8.15 46.67 0.115 6.85 0.5 9.7
11/5/2022 3:45:00 AM 8.15 46.67 0.115 6.79 0.55 9.71
11/5/2022 4:00:00 AM 8.14 46.652 0.115 6.96 0.53 9.7
11/5/2022 4:15:00 AM 8.13 46.634 0.111 6.71 2.9 9.69
11/5/2022 4:30:00 AM 8.13 46.634 0.115 6.8 0.56 9.7
11/5/2022 4:45:00 AM 8.13 46.634 0.113 7 2.62 9.69
11/5/2022 5:00:00 AM 8.13 46.634 0.111 6.78 2.85 9.69
11/5/2022 5:15:00 AM 8.14 46.652 0.115 6.78 0.59 9.7
11/5/2022 5:30:00 AM 8.12 46.616 0.111 6.91 2.72 9.69
11/5/2022 5:45:00 AM 8.13 46.634 0.115 6.79 0.55 9.69
11/5/2022 6:00:00 AM 8.12 46.616 0.115 6.79 0.56 9.69
11/5/2022 6:15:00 AM 8.11 46.598 0.115 6.78 0.56 9.69
11/5/2022 6:30:00 AM 8.11 46.598 0.115 6.9 0.54 9.7
11/5/2022 6:45:00 AM 8.11 46.598 0.112 6.77 2.61 9.69
11/5/2022 7:00:00 AM 8.11 46.598 0.115 6.8 0.54 9.69
11/5/2022 7:15:00 AM 8.13 46.634 0.112 6.93 2.61 9.68
11/5/2022 7:30:00 AM 8.14 46.652 0.115 6.78 0.49 9.68
11/5/2022 7:45:00 AM 8.15 46.67 0.111 6.78 2.68 9.68
11/5/2022 8:00:00 AM 8.17 46.706 0.112 6.72 2.69 9.69
11/5/2022 8:15:00 AM 8.18 46.724 0.115 6.79 0.55 9.72
11/5/2022 8:30:00 AM 8.21 46.778 0.111 6.85 2.83 9.73
11/5/2022 8:45:00 AM 8.23 46.814 0.113 6.75 2.86 9.73
11/5/2022 9:00:00 AM 8.24 46.832 0.113 6.86 2.63 9.74
11/5/2022 9:15:00 AM 8.28 46.904 0.115 6.8 0.51 9.78
11/5/2022 9:30:00 AM 8.34 47.012 0.115 6.82 0.51 9.82
11/5/2022 9:45:00 AM 8.38 47.084 0.112 6.97 2.82 9.88
11/5/2022 10:00:00 AM 8.4 47.12 0.115 6.79 0.5 9.93
11/5/2022 10:15:00 AM 8.46 47.228 0.115 6.8 0.54 9.98
11/5/2022 10:30:00 AM 8.45 47.21 0.115 6.8 0.5 9.99
11/5/2022 10:45:00 AM 8.52 47.336 0.115 6.81 0.57 10.06
11/5/2022 11:00:00 AM 8.55 47.39 0.115 6.81 0.52 10.14
11/5/2022 11:15:00 AM 8.62 47.516 0.114 6.83 0.55 10.23
11/5/2022 11:30:00 AM 8.66 47.588 0.112 6.78 2.65 10.32
11/5/2022 11:45:00 AM 8.71 47.678 0.111 6.81 2.68 10.38
11/5/2022 12:00:00 PM 8.75 47.75 0.114 6.83 0.52 10.45
11/5/2022 12:15:00 PM 8.79 47.822 0.113 7.01 0.54 10.49
11/5/2022 12:30:00 PM 8.81 47.858 0.113 6.84 0.51 10.59
11/5/2022 12:45:00 PM 8.84 47.912 0.113 6.81 0.57 10.64
11/5/2022 1:00:00 PM 8.93 48.074 0.11 6.89 2.68 10.71
11/5/2022 1:15:00 PM 8.94 48.092 0.113 6.83 0.58 10.74
11/5/2022 1:30:00 PM 8.91 48.038 0.112 7.01 0.66 10.74
11/5/2022 1:45:00 PM 8.91 48.038 0.112 6.8 0.52 10.72
11/5/2022 2:00:00 PM 8.91 48.038 0.11 6.88 2.88 10.72
11/5/2022 2:15:00 PM 8.96 48.128 0.112 6.9 0.55 10.76
11/5/2022 2:30:00 PM 9.01 48.218 0.112 6.87 0.59 10.77
11/5/2022 2:45:00 PM 9.08 48.344 0.111 6.92 0.54 10.77
11/5/2022 3:00:00 PM 9.14 48.452 0.111 6.84 0.52 10.72
11/5/2022 3:15:00 PM 9.16 48.488 0.111 6.93 0.56 10.68
11/5/2022 3:30:00 PM 9.23 48.614 0.111 6.81 0.58 10.67
11/5/2022 3:45:00 PM 9.32 48.776 0.111 7.03 0.57 10.6
11/5/2022 4:00:00 PM 9.41 48.938 0.108 6.92 2.74 10.55
11/5/2022 4:15:00 PM 9.45 49.01 0.111 6.91 0.68 10.49
11/5/2022 4:30:00 PM 9.48 49.064 0.111 6.93 0.59 10.41
11/5/2022 4:45:00 PM 9.56 49.208 0.111 6.81 0.54 10.37
11/5/2022 5:00:00 PM 9.6 49.28 0.111 6.92 0.57 10.34
11/5/2022 5:15:00 PM 9.68 49.424 0.111 6.87 0.62 10.3
11/5/2022 5:30:00 PM 9.7 49.46 0.112 6.79 0.56 10.22
11/5/2022 5:45:00 PM 9.74 49.532 0.112 6.82 0.57 10.14
11/5/2022 6:00:00 PM 9.78 49.604 0.109 6.75 2.55 10.07
11/5/2022 6:15:00 PM 9.85 49.73 0.112 6.9 0.55 9.99
11/5/2022 6:30:00 PM 9.87 49.766 0.112 6.79 0.5 9.9
11/5/2022 6:45:00 PM 9.93 49.874 0.112 6.79 0.57 9.82
11/5/2022 7:00:00 PM 9.96 49.928 0.112 6.78 0.61 9.72
11/5/2022 7:15:00 PM 10.07 50.126 0.109 6.71 2.68 9.61
11/5/2022 7:30:00 PM 10.05 50.09 0.113 6.99 0.53 9.53
11/5/2022 7:45:00 PM 10.15 50.27 0.113 6.75 0.55 9.43
11/5/2022 8:00:00 PM 10.2 50.36 0.113 6.78 0.57 9.33
11/5/2022 8:15:00 PM 10.22 50.396 0.113 6.78 0.85 9.26
11/5/2022 8:30:00 PM 10.28 50.504 0.114 6.86 0.58 9.19
11/5/2022 8:45:00 PM 10.35 50.63 0.114 6.97 0.6 9.13
11/5/2022 9:00:00 PM 10.41 50.738 0.114 6.91 0.57 9.05
11/5/2022 9:15:00 PM 10.53 50.954 0.114 6.74 0.54 8.98
11/5/2022 9:30:00 PM 10.47 50.846 0.111 6.78 2.87 8.94
11/5/2022 9:45:00 PM 10.51 50.918 0.114 6.91 0.55 8.9
11/5/2022 10:00:00 PM 10.52 50.936 0.114 6.74 0.53 8.87
11/5/2022 10:15:00 PM 10.57 51.026 0.115 6.75 0.48 8.82
11/5/2022 10:30:00 PM 10.61 51.098 0.115 6.76 0.54 8.79
11/5/2022 10:45:00 PM 10.66 51.188 0.113 6.73 2.52 8.74
11/5/2022 11:00:00 PM 10.69 51.242 0.115 6.89 0.51 8.69
11/5/2022 11:15:00 PM 10.7 51.26 0.115 6.95 0.51 8.67
11/5/2022 11:30:00 PM 10.71 51.278 0.115 6.72 0.49 8.65
11/5/2022 11:45:00 PM 10.81 51.458 0.115 6.86 0.54 8.62
11/6/2022 12:00:00 AM 10.76 51.368 0.115 6.81 0.51 8.6
11/6/2022 12:15:00 AM 10.88 51.584 0.115 6.8 0.52 8.56
11/6/2022 12:30:00 AM 10.92 51.656 0.115 6.79 0.52 8.55
11/6/2022 12:45:00 AM 10.92 51.656 0.115 6.74 0.51 8.53
11/6/2022 1:00:00 AM 10.91 51.638 0.112 6.89 2.88 8.5
11/6/2022 1:15:00 AM 10.92 51.656 0.112 6.92 2.48 8.49
11/6/2022 1:30:00 AM 10.89 51.602 0.115 6.71 0.58 8.49
11/6/2022 1:45:00 AM 10.98 51.764 0.112 6.7 2.63 8.45
11/6/2022 2:00:00 AM 10.97 51.746 0.116 6.73 0.55 8.45
11/6/2022 2:15:00 AM 11.02 51.836 0.112 6.88 2.67 8.43
11/6/2022 2:30:00 AM 11.08 51.944 0.114 6.73 2.81 8.42
11/6/2022 2:45:00 AM 11.05 51.89 0.112 6.97 2.7 8.39
11/6/2022 3:00:00 AM 11.12 52.016 0.112 6.97 2.53 8.38
11/6/2022 3:15:00 AM 11.1 51.98 0.112 6.66 2.99 8.37
11/6/2022 3:30:00 AM 11.19 52.142 0.116 6.73 0.53 8.35
11/6/2022 3:45:00 AM 11.15 52.07 0.112 6.78 2.67 8.35
11/6/2022 4:00:00 AM 11.18 52.124 0.114 6.71 2.54 8.33
11/6/2022 4:15:00 AM 11.21 52.178 0.116 6.9 0.56 8.32
11/6/2022 4:30:00 AM 11.21 52.178 0.114 6.95 2.78 8.32
11/6/2022 4:45:00 AM 11.27 52.286 0.112 6.98 2.73 8.3
11/6/2022 5:00:00 AM 11.29 52.322 0.116 6.96 0.52 8.3
11/6/2022 5:15:00 AM 11.32 52.376 0.116 6.7 0.53 8.27
11/6/2022 5:30:00 AM 11.33 52.394 0.112 6.64 2.48 8.27
11/6/2022 5:45:00 AM 11.29 52.322 0.113 6.65 3.18 8.26
11/6/2022 6:00:00 AM 11.34 52.412 0.112 6.75 2.75 8.25
11/6/2022 6:15:00 AM 11.31 52.358 0.112 6.73 2.49 8.24
11/6/2022 6:30:00 AM 11.32 52.376 0.116 6.92 0.65 8.22
11/6/2022 6:45:00 AM 11.35 52.43 0.116 6.93 0.52 8.22
11/6/2022 7:00:00 AM 11.36 52.448 0.113 6.79 2.64 8.21
11/6/2022 7:15:00 AM 11.39 52.502 0.116 6.89 0.51 8.2
11/6/2022 7:30:00 AM 11.36 52.448 0.116 6.72 0.54 8.21
11/6/2022 7:45:00 AM 11.35 52.43 0.116 6.71 0.51 8.21
11/6/2022 8:00:00 AM 11.36 52.448 0.115 6.93 2.81 8.2
11/6/2022 8:15:00 AM 11.38 52.484 0.116 6.7 0.54 8.2
11/6/2022 8:30:00 AM 11.38 52.484 0.115 6.68 2.49 8.25
11/6/2022 8:45:00 AM 11.42 52.556 0.116 6.88 0.54 8.31
11/6/2022 9:00:00 AM 11.56 52.808 0.117 6.72 0.54 8.34
11/6/2022 9:15:00 AM 11.55 52.79 0.116 6.84 0.52 8.34
11/6/2022 9:30:00 AM 11.6 52.88 0.113 6.64 2.79 8.36
11/6/2022 9:45:00 AM 11.56 52.808 0.114 6.77 2.91 8.4
11/6/2022 10:00:00 AM 11.58 52.844 0.114 6.69 2.5 8.45
11/6/2022 10:15:00 AM 11.58 52.844 0.114 6.71 2.53 8.52
11/6/2022 10:30:00 AM 11.57 52.826 0.112 6.66 2.68 8.57
11/6/2022 10:45:00 AM 11.72 53.096 0.112 6.97 3.15 8.75
11/6/2022 11:00:00 AM 11.84 53.312 0.112 6.91 2.78 8.88
11/6/2022 11:15:00 AM 11.8 53.24 0.112 6.85 2.64 8.89
11/6/2022 11:30:00 AM 11.86 53.348 0.112 6.92 2.84 8.98
11/6/2022 11:45:00 AM 11.88 53.384 0.111 6.91 2.92 9.05
11/6/2022 12:00:00 PM 11.9 53.42 0.111 6.66 2.5 9.1
11/6/2022 12:15:00 PM 11.97 53.546 0.115 6.93 0.54 9.21
11/6/2022 12:30:00 PM 12.06 53.708 0.114 6.85 0.56 9.3
11/6/2022 12:45:00 PM 12.17 53.906 0.11 6.69 2.4 9.4
11/6/2022 1:00:00 PM 12.13 53.834 0.11 6.7 2.84 9.39
11/6/2022 1:15:00 PM 12.12 53.816 0.11 6.94 2.35 9.46
11/6/2022 1:30:00 PM 12.14 53.852 0.11 6.76 2.65 9.54
11/6/2022 1:45:00 PM 12.08 53.744 0.11 6.76 2.45 9.52
11/6/2022 2:00:00 PM 12.05 53.69 0.11 6.78 2.57 9.48
11/6/2022 2:15:00 PM 12.06 53.708 0.113 6.77 0.61 9.59
11/6/2022 2:30:00 PM 12.13 53.834 0.109 6.8 2.52 9.66
11/6/2022 2:45:00 PM 12.16 53.888 0.113 6.85 0.88 9.67
11/6/2022 3:00:00 PM 12.18 53.924 0.111 6.72 2.59 9.67
11/6/2022 3:15:00 PM 12.17 53.906 0.112 6.99 0.52 9.58
11/6/2022 3:30:00 PM 12.14 53.852 0.112 6.87 0.51 9.53
11/6/2022 3:45:00 PM 12.14 53.852 0.111 6.73 2.6 9.51
11/6/2022 4:00:00 PM 12.19 53.942 0.11 6.73 2.45 9.54
11/6/2022 4:15:00 PM 12.22 53.996 0.109 6.73 2.54 9.52
11/6/2022 4:30:00 PM 12.23 54.014 0.109 6.88 2.46 9.43
11/6/2022 4:45:00 PM 12.26 54.068 0.109 6.97 2.7 9.4
11/6/2022 5:00:00 PM 12.26 54.068 0.112 6.95 0.57 9.31
11/6/2022 5:15:00 PM 12.28 54.104 0.112 6.9 0.52 9.28
11/6/2022 5:30:00 PM 12.3 54.14 0.111 6.84 2.92 9.21
11/6/2022 5:45:00 PM 12.32 54.176 0.112 6.73 0.55 9.15
11/6/2022 6:00:00 PM 12.32 54.176 0.109 6.86 2.92 9.06
11/6/2022 6:15:00 PM 12.42 54.356 0.109 6.64 2.88 9
11/6/2022 6:30:00 PM 12.39 54.302 0.109 6.96 2.66 8.89
11/6/2022 6:45:00 PM 12.45 54.41 0.11 6.67 2.9 8.82
11/6/2022 7:00:00 PM 12.48 54.464 0.11 6.91 2.75 8.74
11/6/2022 7:15:00 PM 12.49 54.482 0.112 6.89 3.18 8.65
11/6/2022 7:30:00 PM 12.52 54.536 0.114 6.88 0.52 8.58
11/6/2022 7:45:00 PM 12.57 54.626 0.114 6.74 0.49 8.5
11/6/2022 8:00:00 PM 12.59 54.662 0.112 6.69 2.82 8.41
11/6/2022 8:15:00 PM 12.58 54.644 0.111 6.66 2.71 8.34
11/6/2022 8:30:00 PM 12.61 54.698 0.111 6.64 2.9 8.28
11/6/2022 8:45:00 PM 12.64 54.752 0.115 6.77 0.54 8.23
11/6/2022 9:00:00 PM 12.6 54.68 0.111 6.8 2.45 8.16
11/6/2022 9:15:00 PM 12.63 54.734 0.112 6.96 2.79 8.13
11/6/2022 9:30:00 PM 12.62 54.716 0.112 6.77 2.56 8.09
11/6/2022 9:45:00 PM 12.64 54.752 0.115 6.91 0.51 8.07
11/6/2022 10:00:00 PM 12.67 54.806 0.112 6.64 2.72 8.03
11/6/2022 10:15:00 PM 12.67 54.806 0.116 6.84 0.54 8
11/6/2022 10:30:00 PM 12.67 54.806 0.116 6.9 0.5 7.98
11/6/2022 10:45:00 PM 12.68 54.824 0.112 6.84 2.75 7.96
11/6/2022 11:00:00 PM 12.68 54.824 0.112 6.6 2.72 7.94
11/6/2022 11:15:00 PM 12.67 54.806 0.116 6.9 0.49 7.93
11/6/2022 11:30:00 PM 12.62 54.716 0.116 6.68 0.65 7.91
11/6/2022 11:45:00 PM 12.61 54.698 0.113 6.65 2.77 7.9
11/7/2022 12:00:00 AM 12.61 54.698 0.112 6.81 2.62 7.89
11/7/2022 12:15:00 AM 12.6 54.68 0.113 6.68 2.58 7.89
11/7/2022 12:30:00 AM 12.59 54.662 0.113 6.66 2.57 7.88
11/7/2022 12:45:00 AM 12.58 54.644 0.113 6.74 2.67 7.88
11/7/2022 1:00:00 AM 12.54 54.572 0.113 6.9 2.63 7.86
11/7/2022 1:15:00 AM 12.54 54.572 0.116 6.86 0.53 7.88
11/7/2022 1:30:00 AM 12.55 54.59 0.116 6.91 0.54 7.87
11/7/2022 1:45:00 AM 12.55 54.59 0.117 6.67 0.6 7.87
11/7/2022 2:00:00 AM 12.55 54.59 0.113 6.72 2.47 7.87
11/7/2022 2:15:00 AM 12.55 54.59 0.117 6.72 0.52 7.87
11/7/2022 2:30:00 AM 12.52 54.536 0.113 6.64 2.47 7.86
11/7/2022 2:45:00 AM 12.51 54.518 0.113 6.95 2.55 7.88
11/7/2022 3:00:00 AM 12.48 54.464 0.113 6.61 2.54 7.88
11/7/2022 3:15:00 AM 12.49 54.482 0.113 6.81 2.67 7.89
11/7/2022 3:30:00 AM 12.43 54.374 0.113 6.81 2.73 7.89
11/7/2022 3:45:00 AM 12.41 54.338 0.113 6.75 2.4 7.9
11/7/2022 4:00:00 AM 12.39 54.302 0.117 6.75 0.57 7.92
11/7/2022 4:15:00 AM 12.34 54.212 0.113 6.63 2.75 7.92
11/7/2022 4:30:00 AM 12.32 54.176 0.113 6.75 2.5 7.93
11/7/2022 4:45:00 AM 12.29 54.122 0.117 6.85 0.58 7.96
11/7/2022 5:00:00 AM 12.26 54.068 0.115 6.73 2.69 7.96
11/7/2022 5:15:00 AM 12.25 54.05 0.113 6.76 2.6 7.97
11/7/2022 5:30:00 AM 12.21 53.978 0.113 6.69 2.48 7.99
11/7/2022 5:45:00 AM 12.19 53.942 0.113 6.64 2.73 8
11/7/2022 6:00:00 AM 12.14 53.852 0.117 6.92 0.83 8
11/7/2022 6:15:00 AM 12.12 53.816 0.117 6.92 0.53 8.03
11/7/2022 6:30:00 AM 12.09 53.762 0.115 6.65 2.76 8.04
11/7/2022 6:45:00 AM 12.06 53.708 0.117 6.88 0.54 8.06
11/7/2022 7:00:00 AM 12.03 53.654 0.117 6.72 0.55 8.07
11/7/2022 7:15:00 AM 11.99 53.582 0.113 6.63 2.49 8.08
11/7/2022 7:30:00 AM 11.96 53.528 0.113 6.69 2.66 8.09
11/7/2022 7:45:00 AM 11.93 53.474 0.117 6.92 0.52 8.13
11/7/2022 8:00:00 AM 11.9 53.42 0.113 6.94 2.45 8.15
11/7/2022 8:15:00 AM 11.87 53.366 0.115 6.67 2.87 8.19
11/7/2022 8:30:00 AM 11.85 53.33 0.113 6.71 2.62 8.23
11/7/2022 8:45:00 AM 11.83 53.294 0.115 6.93 2.99 8.26
11/7/2022 9:00:00 AM 11.81 53.258 0.114 6.77 2.49 8.29
11/7/2022 9:15:00 AM 11.8 53.24 0.113 6.84 2.7 8.31
11/7/2022 9:30:00 AM 11.8 53.24 0.117 6.9 0.56 8.36
11/7/2022 9:45:00 AM 11.81 53.258 0.117 6.71 0.62 8.42
11/7/2022 10:00:00 AM 11.85 53.33 0.114 6.81 2.67 8.53
11/7/2022 10:15:00 AM 11.87 53.366 0.117 6.72 0.53 8.61
11/7/2022 10:30:00 AM 11.86 53.348 0.117 6.84 0.52 8.7
11/7/2022 10:45:00 AM 11.87 53.366 0.114 6.89 3.11 8.78
11/7/2022 11:00:00 AM 11.86 53.348 0.114 6.86 3.08 8.89
11/7/2022 11:15:00 AM 11.86 53.348 0.116 6.95 1.33 9.01
11/7/2022 11:30:00 AM 11.85 53.33 0.113 6.93 2.75 9.15
11/7/2022 11:45:00 AM 11.88 53.384 0.113 6.85 2.54 9.25
11/7/2022 12:00:00 PM 11.9 53.42 0.111 7 2.52 9.36
11/7/2022 12:15:00 PM 11.92 53.456 0.115 6.91 0.53 9.45
11/7/2022 12:30:00 PM 11.92 53.456 0.112 6.71 2.35 9.52
11/7/2022 12:45:00 PM 11.87 53.366 0.113 6.75 2.63 9.55
11/7/2022 1:00:00 PM 11.85 53.33 0.111 6.74 2.61 9.62
11/7/2022 1:15:00 PM 11.82 53.276 0.11 6.75 2.84 9.64
11/7/2022 1:30:00 PM 11.8 53.24 0.111 6.78 2.55 9.64
11/7/2022 1:45:00 PM 11.75 53.15 0.11 6.81 2.82 9.67
11/7/2022 2:00:00 PM 11.67 53.006 0.11 6.81 2.68 9.68
11/7/2022 2:15:00 PM 11.6 52.88 0.11 6.86 2.81 9.67
11/7/2022 2:30:00 PM 11.54 52.772 0.114 6.78 0.6 9.61
11/7/2022 2:45:00 PM 11.52 52.736 0.114 6.86 0.55 9.66
11/7/2022 3:00:00 PM 11.51 52.718 0.112 6.7 2.59 9.63
11/7/2022 3:15:00 PM 11.45 52.61 0.114 6.76 0.6 9.6
11/7/2022 3:30:00 PM 11.39 52.502 0.11 6.74 2.51 9.58
11/7/2022 3:45:00 PM 11.29 52.322 0.114 6.95 0.53 9.38
11/7/2022 4:00:00 PM 11.28 52.304 0.114 6.81 0.52 9.35
11/7/2022 4:15:00 PM 11.26 52.268 0.11 6.79 2.86 9.31
11/7/2022 4:30:00 PM 11.23 52.214 0.114 6.95 0.65 9.29
11/7/2022 4:45:00 PM 11.2 52.16 0.114 6.77 0.54 9.27
11/7/2022 5:00:00 PM 11.17 52.106 0.114 6.89 0.53 9.24
11/7/2022 5:15:00 PM 11.14 52.052 0.114 6.73 0.53 9.21
11/7/2022 5:30:00 PM 11.11 51.998 0.112 6.99 2.6 9.17
11/7/2022 5:45:00 PM 11.09 51.962 0.114 6.72 0.53 9.14
11/7/2022 6:00:00 PM 11.06 51.908 0.111 6.74 2.65 9.12
11/7/2022 6:15:00 PM 11.01 51.818 0.114 6.74 0.57 9.1
11/7/2022 6:30:00 PM 10.99 51.782 0.112 6.77 2.92 9.07
11/7/2022 6:45:00 PM 10.96 51.728 0.115 6.8 0.56 9.04
11/7/2022 7:00:00 PM 10.95 51.71 0.113 6.95 2.7 8.99
11/7/2022 7:15:00 PM 10.93 51.674 0.115 6.72 0.58 8.97
11/7/2022 7:30:00 PM 10.9 51.62 0.115 6.94 0.59 8.95
11/7/2022 7:45:00 PM 10.87 51.566 0.115 6.81 0.57 8.93
11/7/2022 8:00:00 PM 10.84 51.512 0.115 6.74 0.55 8.92
11/7/2022 8:15:00 PM 10.81 51.458 0.115 6.76 0.53 8.91
11/7/2022 8:30:00 PM 10.77 51.386 0.115 6.97 0.53 8.91
11/7/2022 8:45:00 PM 10.74 51.332 0.115 6.72 0.5 8.9
11/7/2022 9:00:00 PM 10.69 51.242 0.115 6.8 0.5 8.9
11/7/2022 9:15:00 PM 10.66 51.188 0.115 6.91 0.59 8.9
11/7/2022 9:30:00 PM 10.62 51.116 0.112 6.75 2.83 8.91
11/7/2022 9:45:00 PM 10.57 51.026 0.115 6.92 0.51 8.93
11/7/2022 10:00:00 PM 10.54 50.972 0.115 6.74 0.55 8.92
11/7/2022 10:15:00 PM 10.5 50.9 0.113 6.8 2.76 8.93
11/7/2022 10:30:00 PM 10.46 50.828 0.115 6.74 0.5 8.94
11/7/2022 10:45:00 PM 10.43 50.774 0.115 6.84 0.54 8.95
11/7/2022 11:00:00 PM 10.38 50.684 0.113 7 2.77 8.96
11/7/2022 11:15:00 PM 10.35 50.63 0.115 6.72 0.52 8.97
11/7/2022 11:30:00 PM 10.28 50.504 0.115 6.84 0.57 8.99
11/7/2022 11:45:00 PM 10.24 50.432 0.115 6.77 0.54 9.01
11/8/2022 12:00:00 AM 10.19 50.342 0.115 6.75 0.53 9.03
11/8/2022 12:15:00 AM 10.17 50.306 0.115 6.95 0.53 9.03
11/8/2022 12:30:00 AM 10.09 50.162 0.115 6.96 0.53 9.06
11/8/2022 12:45:00 AM 10.04 50.072 0.115 6.83 0.52 9.07
11/8/2022 1:00:00 AM 10 50 0.115 6.76 0.5 9.1
11/8/2022 1:15:00 AM 9.95 49.91 0.115 6.75 0.57 9.12
11/8/2022 1:30:00 AM 9.89 49.802 0.113 6.71 2.71 9.13
11/8/2022 1:45:00 AM 9.85 49.73 0.116 6.76 0.55 9.15
11/8/2022 2:00:00 AM 9.79 49.622 0.113 6.76 2.79 9.18
11/8/2022 2:15:00 AM 9.73 49.514 0.116 6.75 0.54 9.21
11/8/2022 2:30:00 AM 9.68 49.424 0.116 6.75 0.58 9.24
11/8/2022 2:45:00 AM 9.64 49.352 0.116 6.94 0.53 9.25
11/8/2022 3:00:00 AM 9.59 49.262 0.116 6.76 0.59 9.27
11/8/2022 3:15:00 AM 9.54 49.172 0.116 6.76 0.55 9.3
11/8/2022 3:30:00 AM 9.49 49.082 0.113 6.73 2.68 9.31
11/8/2022 3:45:00 AM 9.42 48.956 0.116 6.97 0.55 9.35
11/8/2022 4:00:00 AM 9.39 48.902 0.116 6.75 0.57 9.36
11/8/2022 4:15:00 AM 9.32 48.776 0.116 6.77 0.57 9.39
11/8/2022 4:30:00 AM 9.28 48.704 0.116 6.84 0.54 9.42
11/8/2022 4:45:00 AM 9.23 48.614 0.116 6.76 0.57 9.44
11/8/2022 5:00:00 AM 9.16 48.488 0.112 6.84 2.62 9.47
11/8/2022 5:15:00 AM 9.15 48.47 0.116 6.81 0.56 9.47
11/8/2022 5:30:00 AM 9.08 48.344 0.116 6.81 0.57 9.51
11/8/2022 5:45:00 AM 9.03 48.254 0.116 6.75 0.57 9.55
11/8/2022 6:00:00 AM 9.03 48.254 0.116 6.87 0.55 9.55
11/8/2022 6:15:00 AM 9.01 48.218 0.112 7 2.76 9.56
11/8/2022 6:30:00 AM 8.96 48.128 0.116 6.88 0.54 9.6
11/8/2022 6:45:00 AM 8.92 48.056 0.116 6.76 0.58 9.62
11/8/2022 7:00:00 AM 8.88 47.984 0.114 6.77 2.83 9.62
11/8/2022 7:15:00 AM 8.8 47.84 0.116 6.79 0.54 9.68
11/8/2022 7:30:00 AM 8.78 47.804 0.112 6.77 2.87 9.71
11/8/2022 7:45:00 AM 8.73 47.714 0.116 6.79 0.58 9.77
11/8/2022 8:00:00 AM 8.68 47.624 0.116 6.8 0.53 9.82
11/8/2022 8:15:00 AM 8.62 47.516 0.116 6.8 0.54 9.87
11/8/2022 8:30:00 AM 8.58 47.444 0.116 6.99 0.53 9.89
11/8/2022 8:45:00 AM 8.58 47.444 0.116 6.81 0.57 9.94
11/8/2022 9:00:00 AM 8.58 47.444 0.116 6.78 0.54 10.02
11/8/2022 9:15:00 AM 8.59 47.462 0.115 6.8 0.55 10.12
11/8/2022 9:30:00 AM 8.59 47.462 0.115 6.79 0.65 10.19
11/8/2022 9:45:00 AM 8.63 47.534 0.112 6.78 2.51 10.24
11/8/2022 10:00:00 AM 8.57 47.426 0.115 6.83 0.58 10.37
11/8/2022 10:15:00 AM 8.54 47.372 0.115 6.83 0.54 10.46
11/8/2022 10:30:00 AM 8.56 47.408 0.111 6.77 2.58 10.56
11/8/2022 10:45:00 AM 8.6 47.48 0.111 7.01 2.75 10.65
11/8/2022 11:00:00 AM 8.61 47.498 0.114 7 0.58 10.75
11/8/2022 11:15:00 AM 8.69 47.642 0.114 7.01 0.55 10.8
11/8/2022 11:30:00 AM 8.67 47.606 0.114 6.82 0.57 10.89
11/8/2022 11:45:00 AM 8.66 47.588 0.113 6.84 0.55 10.9
11/8/2022 12:00:00 PM 8.62 47.516 0.113 6.83 0.58 10.98
11/8/2022 12:15:00 PM 8.59 47.462 0.113 6.83 0.59 11.01
11/8/2022 12:30:00 PM 8.61 47.498 0.113 6.83 0.52 10.99
11/8/2022 12:45:00 PM 8.55 47.39 0.113 6.84 0.53 11.01
11/8/2022 1:00:00 PM 8.5 47.3 0.113 6.82 0.59 11
11/8/2022 1:15:00 PM 8.42 47.156 0.113 6.99 0.57 11.04
11/8/2022 1:30:00 PM 8.33 46.994 0.113 6.81 0.55 11.02
11/8/2022 1:45:00 PM 8.31 46.958 0.113 6.84 0.57 11
11/8/2022 2:00:00 PM 8.31 46.958 0.113 6.86 0.54 10.99
11/8/2022 2:15:00 PM 8.28 46.904 0.113 6.88 0.63 10.98
11/8/2022 2:30:00 PM 8.22 46.796 0.113 6.92 0.58 10.94
11/8/2022 2:45:00 PM 8.2 46.76 0.113 6.82 0.59 10.93
11/8/2022 3:00:00 PM 8.16 46.688 0.113 6.83 0.63 10.91
11/8/2022 3:15:00 PM 8.16 46.688 0.111 6.8 2.73 10.87
11/8/2022 3:30:00 PM 8.15 46.67 0.113 6.9 0.6 10.84
11/8/2022 3:45:00 PM 8.15 46.67 0.113 6.81 0.56 10.8
11/8/2022 4:00:00 PM 8.14 46.652 0.11 6.8 2.71 10.77
11/8/2022 4:15:00 PM 8.14 46.652 0.113 6.98 0.57 10.72
11/8/2022 4:30:00 PM 8.13 46.634 0.11 7.05 2.6 10.69
11/8/2022 4:45:00 PM 8.11 46.598 0.113 6.83 0.55 10.66
11/8/2022 5:00:00 PM 8.08 46.544 0.113 6.91 0.64 10.64
11/8/2022 5:15:00 PM 8.08 46.544 0.113 6.82 0.61 10.59
11/8/2022 5:30:00 PM 8.05 46.49 0.113 6.83 0.54 10.56
11/8/2022 5:45:00 PM 8.02 46.436 0.113 6.83 0.57 10.54
11/8/2022 6:00:00 PM 7.99 46.382 0.113 6.82 0.6 10.51
11/8/2022 6:15:00 PM 7.98 46.364 0.113 6.98 0.55 10.47
11/8/2022 6:30:00 PM 7.96 46.328 0.114 6.81 0.59 10.44
11/8/2022 6:45:00 PM 7.94 46.292 0.114 6.83 0.59 10.4
11/8/2022 7:00:00 PM 7.91 46.238 0.114 6.82 0.62 10.37
11/8/2022 7:15:00 PM 7.89 46.202 0.114 6.83 0.61 10.33
11/8/2022 7:30:00 PM 7.89 46.202 0.114 6.82 0.56 10.29
11/8/2022 7:45:00 PM 7.85 46.13 0.114 6.81 0.55 10.27
11/8/2022 8:00:00 PM 7.83 46.094 0.114 6.83 0.57 10.25
11/8/2022 8:15:00 PM 7.83 46.094 0.114 6.83 0.72 10.22
11/8/2022 8:30:00 PM 7.8 46.04 0.114 6.82 0.55 10.2
11/8/2022 8:45:00 PM 7.77 45.986 0.114 6.83 0.58 10.21
11/8/2022 9:00:00 PM 7.74 45.932 0.114 6.82 0.54 10.2
11/8/2022 9:15:00 PM 7.73 45.914 0.114 6.99 0.57 10.19
11/8/2022 9:30:00 PM 7.72 45.896 0.114 6.79 0.59 10.19
11/8/2022 9:45:00 PM 7.7 45.86 0.114 6.82 0.6 10.19
11/8/2022 10:00:00 PM 7.68 45.824 0.111 6.8 2.94 10.18
11/8/2022 10:15:00 PM 7.62 45.716 0.111 7 2.98 10.2
11/8/2022 10:30:00 PM 7.62 45.716 0.111 7 2.87 10.19
11/8/2022 10:45:00 PM 7.58 45.644 0.111 6.96 2.76 10.2
11/8/2022 11:00:00 PM 7.54 45.572 0.111 6.98 3.13 10.22
11/8/2022 11:15:00 PM 7.53 45.554 0.111 6.99 2.5 10.22
11/8/2022 11:30:00 PM 7.51 45.518 0.111 6.87 3.03 10.23
11/8/2022 11:45:00 PM 7.47 45.446 0.115 6.78 0.59 10.24
11/9/2022 12:00:00 AM 7.44 45.392 0.115 6.98 0.58 10.25
11/9/2022 12:15:00 AM 7.4 45.32 0.115 7 0.58 10.28
11/9/2022 12:30:00 AM 7.37 45.266 0.115 6.82 0.59 10.29
11/9/2022 12:45:00 AM 7.34 45.212 0.115 6.82 0.59 10.3
11/9/2022 1:00:00 AM 7.3 45.14 0.115 6.93 0.54 10.31
11/9/2022 1:15:00 AM 7.25 45.05 0.115 6.94 0.56 10.33
11/9/2022 1:30:00 AM 7.23 45.014 0.115 6.8 0.57 10.34
11/9/2022 1:45:00 AM 7.17 44.906 0.115 6.82 0.56 10.36
11/9/2022 2:00:00 AM 7.13 44.834 0.115 6.8 0.59 10.38
11/9/2022 2:15:00 AM 7.08 44.744 0.115 6.95 0.57 10.4
11/9/2022 2:30:00 AM 7.1 44.78 0.115 7.01 0.57 10.39
11/9/2022 2:45:00 AM 7.04 44.672 0.115 7.01 0.59 10.42
11/9/2022 3:00:00 AM 6.96 44.528 0.111 6.79 2.62 10.44
11/9/2022 3:15:00 AM 6.93 44.474 0.111 6.87 2.73 10.47
11/9/2022 3:30:00 AM 6.88 44.384 0.111 6.99 2.83 10.48
11/9/2022 3:45:00 AM 6.83 44.294 0.111 6.84 2.67 10.5
11/9/2022 4:00:00 AM 6.79 44.222 0.111 6.76 2.72 10.51
11/9/2022 4:15:00 AM 6.75 44.15 0.111 6.96 3.11 10.53
11/9/2022 4:30:00 AM 6.72 44.096 0.112 6.89 2.86 10.54
11/9/2022 4:45:00 AM 6.69 44.042 0.115 6.99 0.59 10.56
11/9/2022 5:00:00 AM 6.63 43.934 0.115 7.01 0.53 10.58
11/9/2022 5:15:00 AM 6.59 43.862 0.115 6.81 0.57 10.6
11/9/2022 5:30:00 AM 6.52 43.736 0.115 6.86 0.57 10.63
11/9/2022 5:45:00 AM 6.52 43.736 0.115 6.83 0.55 10.63
11/9/2022 6:00:00 AM 6.44 43.592 0.115 6.83 0.55 10.66
11/9/2022 6:15:00 AM 6.38 43.484 0.115 6.86 0.56 10.7
11/9/2022 6:30:00 AM 6.34 43.412 0.115 6.84 0.59 10.71
11/9/2022 6:45:00 AM 6.31 43.358 0.115 6.85 0.56 10.73
11/9/2022 7:00:00 AM 6.23 43.214 0.115 6.85 0.59 10.77
11/9/2022 7:15:00 AM 6.23 43.214 0.112 6.89 2.92 10.79
11/9/2022 7:30:00 AM 6.18 43.124 0.112 7.02 3.19 10.82
11/9/2022 7:45:00 AM 6.16 43.088 0.115 6.83 0.55 10.85
11/9/2022 8:00:00 AM 6.12 43.016 0.115 7 0.54 10.88
11/9/2022 8:15:00 AM 6.08 42.944 0.111 6.85 2.85 10.92
11/9/2022 8:30:00 AM 6.09 42.962 0.112 7.01 2.8 10.95
11/9/2022 8:45:00 AM 6.07 42.926 0.115 6.82 0.58 11.01
11/9/2022 9:00:00 AM 6.07 42.926 0.115 6.85 0.57 11.08
11/9/2022 9:15:00 AM 6.11 42.998 0.112 6.83 3.47 11.15
11/9/2022 9:30:00 AM 6.13 43.034 0.115 6.87 0.57 11.22
11/9/2022 9:45:00 AM 6.14 43.052 0.115 6.97 0.58 11.28
11/9/2022 10:00:00 AM 6.28 43.304 0.114 6.85 0.56 11.32
11/9/2022 10:15:00 AM 6.19 43.142 0.114 6.88 0.63 11.45
11/9/2022 10:30:00 AM 6.23 43.214 0.11 6.88 3.01 11.53
11/9/2022 10:45:00 AM 6.38 43.484 0.114 6.94 0.56 11.55
11/9/2022 11:00:00 AM 6.32 43.376 0.111 6.86 2.53 11.67
11/9/2022 11:15:00 AM 6.37 43.466 0.11 7.03 2.86 11.73
11/9/2022 11:30:00 AM 6.36 43.448 0.113 6.89 0.57 11.79
11/9/2022 11:45:00 AM 6.38 43.484 0.11 6.88 2.76 11.79
11/9/2022 12:00:00 PM 6.37 43.466 0.113 6.88 0.57 11.84
11/9/2022 12:15:00 PM 6.37 43.466 0.113 6.9 0.55 11.81
11/9/2022 12:30:00 PM 6.35 43.43 0.109 6.89 2.32 11.85
11/9/2022 12:45:00 PM 6.24 43.232 0.109 6.89 2.81 11.91
11/9/2022 1:00:00 PM 6.24 43.232 0.113 7.02 0.59 11.89
11/9/2022 1:15:00 PM 6.17 43.106 0.109 6.9 2.88 11.87
11/9/2022 1:30:00 PM 6.1 42.98 0.11 6.93 2.68 11.9
11/9/2022 1:45:00 PM 6.05 42.89 0.113 6.89 0.56 11.89
11/9/2022 2:00:00 PM 6.04 42.872 0.109 6.88 2.79 11.86
11/9/2022 2:15:00 PM 6 42.8 0.113 6.89 0.59 11.87
11/9/2022 2:30:00 PM 6.03 42.854 0.113 6.91 0.56 11.85
11/9/2022 2:45:00 PM 6 42.8 0.113 6.91 0.6 11.82
11/9/2022 3:00:00 PM 6.01 42.818 0.112 6.92 0.59 11.79
11/9/2022 3:15:00 PM 5.98 42.764 0.113 6.88 0.57 11.76
11/9/2022 3:30:00 PM 5.95 42.71 0.113 6.9 0.64 11.72
11/9/2022 3:45:00 PM 5.96 42.728 0.113 6.9 0.61 11.69
11/9/2022 4:00:00 PM 5.98 42.764 0.113 7.06 0.59 11.66
11/9/2022 4:15:00 PM 5.97 42.746 0.113 6.86 0.58 11.63
11/9/2022 4:30:00 PM 6 42.8 0.113 6.88 0.62 11.57
11/9/2022 4:45:00 PM 5.98 42.764 0.113 7.05 0.63 11.55
11/9/2022 5:00:00 PM 6 42.8 0.113 6.93 0.6 11.49
11/9/2022 5:15:00 PM 5.97 42.746 0.113 6.86 0.6 11.46
11/9/2022 5:30:00 PM 5.98 42.764 0.113 6.87 0.58 11.39
11/9/2022 5:45:00 PM 5.98 42.764 0.113 6.87 0.59 11.37
11/9/2022 6:00:00 PM 5.99 42.782 0.113 6.9 0.55 11.32
11/9/2022 6:15:00 PM 6 42.8 0.113 6.87 0.56 11.28
11/9/2022 6:30:00 PM 6 42.8 0.113 6.89 0.6 11.23
11/9/2022 6:45:00 PM 5.99 42.782 0.113 6.89 0.6 11.18
11/9/2022 7:00:00 PM 5.98 42.764 0.113 6.88 0.59 11.14
11/9/2022 7:15:00 PM 5.97 42.746 0.113 6.86 0.61 11.1
11/9/2022 7:30:00 PM 5.99 42.782 0.114 6.89 0.58 11.05
11/9/2022 7:45:00 PM 6.01 42.818 0.114 6.89 0.57 11.01
11/9/2022 8:00:00 PM 6.01 42.818 0.114 6.86 0.59 10.99
11/9/2022 8:15:00 PM 6 42.8 0.114 6.86 0.57 10.96
11/9/2022 8:30:00 PM 5.99 42.782 0.114 6.88 0.59 10.94
11/9/2022 8:45:00 PM 6.02 42.836 0.11 6.84 2.71 10.9
11/9/2022 9:00:00 PM 6.01 42.818 0.114 6.96 0.58 10.9
11/9/2022 9:15:00 PM 6 42.8 0.114 6.85 0.91 10.88
11/9/2022 9:30:00 PM 6.01 42.818 0.114 6.87 0.62 10.86
11/9/2022 9:45:00 PM 6 42.8 0.114 6.87 0.59 10.85
11/9/2022 10:00:00 PM 5.99 42.782 0.114 6.87 0.6 10.85
11/9/2022 10:15:00 PM 6 42.8 0.114 7.04 0.64 10.83
11/9/2022 10:30:00 PM 5.98 42.764 0.114 6.86 0.54 10.83
11/9/2022 10:45:00 PM 5.98 42.764 0.114 6.86 0.6 10.83
11/9/2022 11:00:00 PM 5.95 42.71 0.114 6.86 0.59 10.84
11/9/2022 11:15:00 PM 5.94 42.692 0.114 6.99 0.54 10.84
11/9/2022 11:30:00 PM 5.92 42.656 0.114 6.85 0.6 10.84
11/9/2022 11:45:00 PM 5.91 42.638 0.114 6.98 0.59 10.84
11/10/2022 12:00:00 AM 5.9 42.62 0.114 6.87 0.6 10.84
11/10/2022 12:15:00 AM 5.88 42.584 0.114 6.85 0.61 10.84
11/10/2022 12:30:00 AM 5.87 42.566 0.114 6.86 0.57 10.85
11/10/2022 12:45:00 AM 5.85 42.53 0.114 6.89 0.61 10.86
11/10/2022 1:00:00 AM 5.81 42.458 0.111 6.87 2.9 10.87
11/10/2022 1:15:00 AM 5.8 42.44 0.114 6.84 0.63 10.88
11/10/2022 1:30:00 AM 5.77 42.386 0.115 7.03 0.57 10.89
11/10/2022 1:45:00 AM 5.76 42.368 0.115 6.89 0.59 10.89
11/10/2022 2:00:00 AM 5.73 42.314 0.115 6.99 0.59 10.89
11/10/2022 2:15:00 AM 5.71 42.278 0.115 6.86 0.59 10.9
11/10/2022 2:30:00 AM 5.7 42.26 0.111 6.98 2.78 10.91
11/10/2022 2:45:00 AM 5.67 42.206 0.111 6.88 2.91 10.91
11/10/2022 3:00:00 AM 5.65 42.17 0.111 6.85 2.87 10.93
11/10/2022 3:15:00 AM 5.61 42.098 0.115 6.96 0.56 10.94
11/10/2022 3:30:00 AM 5.59 42.062 0.111 6.84 2.56 10.95
11/10/2022 3:45:00 AM 5.56 42.008 0.115 7.02 0.59 10.96
11/10/2022 4:00:00 AM 5.53 41.954 0.111 6.89 2.65 10.98
11/10/2022 4:15:00 AM 5.52 41.936 0.115 6.84 0.56 10.98
11/10/2022 4:30:00 AM 5.49 41.882 0.115 6.99 0.59 11
11/10/2022 4:45:00 AM 5.45 41.81 0.111 6.76 2.57 11.01
11/10/2022 5:00:00 AM 5.42 41.756 0.115 7.04 0.56 11.02
11/10/2022 5:15:00 AM 5.4 41.72 0.115 6.98 0.57 11.03
11/10/2022 5:30:00 AM 5.37 41.666 0.115 7.02 0.59 11.03
11/10/2022 5:45:00 AM 5.35 41.63 0.115 6.8 0.65 11.04
11/10/2022 6:00:00 AM 5.31 41.558 0.115 7.01 0.62 11.05
11/10/2022 6:15:00 AM 5.27 41.486 0.115 6.89 0.6 11.07
11/10/2022 6:30:00 AM 5.25 41.45 0.115 6.84 0.58 11.08
11/10/2022 6:45:00 AM 5.24 41.432 0.115 7.01 0.58 11.09
11/10/2022 7:00:00 AM 5.21 41.378 0.115 6.84 0.62 11.1
11/10/2022 7:15:00 AM 5.18 41.324 0.111 6.82 2.66 11.13
11/10/2022 7:30:00 AM 5.15 41.27 0.115 6.85 0.62 11.15
11/10/2022 7:45:00 AM 5.15 41.27 0.115 6.86 0.62 11.17
11/10/2022 8:00:00 AM 5.14 41.252 0.111 6.85 3.1 11.21
11/10/2022 8:15:00 AM 5.12 41.216 0.115 6.87 0.59 11.24
11/10/2022 8:30:00 AM 5.14 41.252 0.112 7.06 2.61 11.25
11/10/2022 8:45:00 AM 5.15 41.27 0.115 6.86 0.63 11.29
11/10/2022 9:00:00 AM 5.22 41.396 0.115 6.87 0.56 11.34
11/10/2022 9:15:00 AM 5.25 41.45 0.115 6.88 0.61 11.4
11/10/2022 9:30:00 AM 5.27 41.486